0% found this document useful (0 votes)
44 views162 pages

QPUNTA Volume and Outflow Data

The document contains data from hydrological simulations of a reservoir over different time periods (100, 500, 1000, 5000 years). It includes peak water discharge values and reservoir water volumes. It also contains time series data of water outflow from the reservoir and a downstream water body over a single day recorded at 10 minute intervals.
Copyright
© All Rights Reserved
We take content rights seriously. If you suspect this is your content, claim it here.
Available Formats
Download as XLSX, PDF, TXT or read online on Scribd
0% found this document useful (0 votes)
44 views162 pages

QPUNTA Volume and Outflow Data

The document contains data from hydrological simulations of a reservoir over different time periods (100, 500, 1000, 5000 years). It includes peak water discharge values and reservoir water volumes. It also contains time series data of water outflow from the reservoir and a downstream water body over a single day recorded at 10 minute intervals.
Copyright
© All Rights Reserved
We take content rights seriously. If you suspect this is your content, claim it here.
Available Formats
Download as XLSX, PDF, TXT or read online on Scribd

QPUNTA VOLUMEN VOLUMEN EL ALA

TR= 100 AÑOS 2601.1 103.23486


TR= 500 AÑOS 3287 133.8462
TR= 1000 AÑOS 3604 146.71908
TR= 5000 AÑOS 4249.8 172.9563
QPUNTA VOLUMEN
TR= 100 AÑOS 4641.1 336.75126
TR= 500 AÑOS 6725.9 525.28734
TR= 1000 AÑOS 7462.5 612.642
TR= 5000 AÑOS 11147.8 830.18646
Volumen 103.23486 MMC
N_Ala
Max 2601.1 m3/s n_PEÑITA
Date Time Outflow (m3/s) Date Time
1-Jan-00 0:00 0 0 1-Jan-00 0:00
1-Jan-00 0:10 0 0 1-Jan-00 0:10
1-Jan-00 0:20 0 0 1-Jan-00 0:20
1-Jan-00 0:30 0 0 1-Jan-00 0:30
1-Jan-00 0:40 0 0 1-Jan-00 0:40
1-Jan-00 0:50 0 0 1-Jan-00 0:50
1-Jan-00 1:00 0 0 1-Jan-00 1:00
1-Jan-00 1:10 0 0 1-Jan-00 1:10
1-Jan-00 1:20 0 0 1-Jan-00 1:20
1-Jan-00 1:30 0 0 1-Jan-00 1:30
1-Jan-00 1:40 0 0 1-Jan-00 1:40
1-Jan-00 1:50 0 0 1-Jan-00 1:50
1-Jan-00 2:00 0 0 1-Jan-00 2:00
1-Jan-00 2:10 0 0 1-Jan-00 2:10
1-Jan-00 2:20 0 0 1-Jan-00 2:20
1-Jan-00 2:30 0 0 1-Jan-00 2:30
1-Jan-00 2:40 0 0 1-Jan-00 2:40
1-Jan-00 2:50 0 0 1-Jan-00 2:50
1-Jan-00 3:00 0 0 1-Jan-00 3:00
1-Jan-00 3:10 0 0 1-Jan-00 3:10
1-Jan-00 3:20 0 0 1-Jan-00 3:20
1-Jan-00 3:30 0 0 1-Jan-00 3:30
1-Jan-00 3:40 0 0 1-Jan-00 3:40
1-Jan-00 3:50 0 0 1-Jan-00 3:50
1-Jan-00 4:00 0 0 1-Jan-00 4:00
1-Jan-00 4:10 0 0 1-Jan-00 4:10
1-Jan-00 4:20 0 0 1-Jan-00 4:20
1-Jan-00 4:30 0 0 1-Jan-00 4:30
1-Jan-00 4:40 0 0 1-Jan-00 4:40
1-Jan-00 4:50 0 0 1-Jan-00 4:50
1-Jan-00 5:00 0 0 1-Jan-00 5:00
1-Jan-00 5:10 0 0 1-Jan-00 5:10
1-Jan-00 5:20 0 0 1-Jan-00 5:20
1-Jan-00 5:30 0 0 1-Jan-00 5:30
1-Jan-00 5:40 0 0 1-Jan-00 5:40
1-Jan-00 5:50 0 0 1-Jan-00 5:50
1-Jan-00 6:00 0 0 1-Jan-00 6:00
1-Jan-00 6:10 0 0 1-Jan-00 6:10
1-Jan-00 6:20 0 0 1-Jan-00 6:20
1-Jan-00 6:30 0 0 1-Jan-00 6:30
1-Jan-00 6:40 0 0 1-Jan-00 6:40
1-Jan-00 6:50 0 0 1-Jan-00 6:50
1-Jan-00 7:00 0 0 1-Jan-00 7:00
1-Jan-00 7:10 0 0 1-Jan-00 7:10
1-Jan-00 7:20 0 0 1-Jan-00 7:20
1-Jan-00 7:30 0 0 1-Jan-00 7:30
1-Jan-00 7:40 0 0 1-Jan-00 7:40
1-Jan-00 7:50 0.2 120 1-Jan-00 7:50
1-Jan-00 8:00 0.5 300 1-Jan-00 8:00
1-Jan-00 8:10 1.1 660 1-Jan-00 8:10
1-Jan-00 8:20 2.1 1260 1-Jan-00 8:20
1-Jan-00 8:30 3.8 2280 1-Jan-00 8:30
1-Jan-00 8:40 5.9 3540 1-Jan-00 8:40
1-Jan-00 8:50 8.4 5040 1-Jan-00 8:50
1-Jan-00 9:00 11.1 6660 1-Jan-00 9:00
1-Jan-00 9:10 16.3 9780 1-Jan-00 9:10
1-Jan-00 9:20 28.3 16980 1-Jan-00 9:20
1-Jan-00 9:30 50.9 30540 1-Jan-00 9:30
1-Jan-00 9:40 81.8 49080 1-Jan-00 9:40
1-Jan-00 9:50 117.1 70260 1-Jan-00 9:50
1-Jan-00 10:00 153.6 92160 1-Jan-00 10:00
1-Jan-00 10:10 183.5 110100 1-Jan-00 10:10
1-Jan-00 10:20 200.6 120360 1-Jan-00 10:20
1-Jan-00 10:30 200.6 120360 1-Jan-00 10:30
1-Jan-00 10:40 192 115200 1-Jan-00 10:40
1-Jan-00 10:50 183 109800 1-Jan-00 10:50
1-Jan-00 11:00 179 107400 1-Jan-00 11:00
1-Jan-00 11:10 182.7 109620 1-Jan-00 11:10
1-Jan-00 11:20 190.6 114360 1-Jan-00 11:20
1-Jan-00 11:30 201.1 120660 1-Jan-00 11:30
1-Jan-00 11:40 218.4 131040 1-Jan-00 11:40
1-Jan-00 11:50 245.4 147240 1-Jan-00 11:50
1-Jan-00 12:00 283.6 170160 1-Jan-00 12:00
1-Jan-00 12:10 332.8 199680 1-Jan-00 12:10
1-Jan-00 12:20 389.7 233820 1-Jan-00 12:20
1-Jan-00 12:30 451.8 271080 1-Jan-00 12:30
1-Jan-00 12:40 517.7 310620 1-Jan-00 12:40
1-Jan-00 12:50 585.5 351300 1-Jan-00 12:50
1-Jan-00 13:00 653.3 391980 1-Jan-00 13:00
1-Jan-00 13:10 718.9 431340 1-Jan-00 13:10
1-Jan-00 13:20 779.7 467820 1-Jan-00 13:20
1-Jan-00 13:30 833.8 500280 1-Jan-00 13:30
1-Jan-00 13:40 880.3 528180 1-Jan-00 13:40
1-Jan-00 13:50 918.8 551280 1-Jan-00 13:50
1-Jan-00 14:00 949.4 569640 1-Jan-00 14:00
1-Jan-00 14:10 972 583200 1-Jan-00 14:10
1-Jan-00 14:20 986.9 592140 1-Jan-00 14:20
1-Jan-00 14:30 994.4 596640 1-Jan-00 14:30
1-Jan-00 14:40 996.4 597840 1-Jan-00 14:40
1-Jan-00 14:50 994.7 596820 1-Jan-00 14:50
1-Jan-00 15:00 990.9 594540 1-Jan-00 15:00
1-Jan-00 15:10 986.6 591960 1-Jan-00 15:10
1-Jan-00 15:20 983.1 589860 1-Jan-00 15:20
1-Jan-00 15:30 981.7 589020 1-Jan-00 15:30
1-Jan-00 15:40 983.7 590220 1-Jan-00 15:40
1-Jan-00 15:50 990.5 594300 1-Jan-00 15:50
1-Jan-00 16:00 1003.1 601860 1-Jan-00 16:00
1-Jan-00 16:10 1022.4 613440 1-Jan-00 16:10
1-Jan-00 16:20 1048.9 629340 1-Jan-00 16:20
1-Jan-00 16:30 1083 649800 1-Jan-00 16:30
1-Jan-00 16:40 1125.9 675540 1-Jan-00 16:40
1-Jan-00 16:50 1178.2 706920 1-Jan-00 16:50
1-Jan-00 17:00 1240.2 744120 1-Jan-00 17:00
1-Jan-00 17:10 1311.5 786900 1-Jan-00 17:10
1-Jan-00 17:20 1391.3 834780 1-Jan-00 17:20
1-Jan-00 17:30 1478.5 887100 1-Jan-00 17:30
1-Jan-00 17:40 1571.7 943020 1-Jan-00 17:40
1-Jan-00 17:50 1669.5 1001700 1-Jan-00 17:50
1-Jan-00 18:00 1770.1 1062060 1-Jan-00 18:00
1-Jan-00 18:10 1871.7 1123020 1-Jan-00 18:10
1-Jan-00 18:20 1972.3 1183380 1-Jan-00 18:20
1-Jan-00 18:30 2070.1 1242060 1-Jan-00 18:30
1-Jan-00 18:40 2163.2 1297920 1-Jan-00 18:40
1-Jan-00 18:50 2250.1 1350060 1-Jan-00 18:50
1-Jan-00 19:00 2329.2 1397520 1-Jan-00 19:00
1-Jan-00 19:10 2399.4 1439640 1-Jan-00 19:10
1-Jan-00 19:20 2459.7 1475820 1-Jan-00 19:20
1-Jan-00 19:30 2509.6 1505760 1-Jan-00 19:30
1-Jan-00 19:40 2548.6 1529160 1-Jan-00 19:40
1-Jan-00 19:50 2576.8 1546080 1-Jan-00 19:50
1-Jan-00 20:00 2594.2 1556520 1-Jan-00 20:00
1-Jan-00 20:10 2601.1 1560660 1-Jan-00 20:10
1-Jan-00 20:20 2597.6 1558560 1-Jan-00 20:20
1-Jan-00 20:30 2584.4 1550640 1-Jan-00 20:30
1-Jan-00 20:40 2562.7 1537620 1-Jan-00 20:40
1-Jan-00 20:50 2533.7 1520220 1-Jan-00 20:50
1-Jan-00 21:00 2498.6 1499160 1-Jan-00 21:00
1-Jan-00 21:10 2458.5 1475100 1-Jan-00 21:10
1-Jan-00 21:20 2414 1448400 1-Jan-00 21:20
1-Jan-00 21:30 2366 1419600 1-Jan-00 21:30
1-Jan-00 21:40 2315.3 1389180 1-Jan-00 21:40
1-Jan-00 21:50 2262.5 1357500 1-Jan-00 21:50
1-Jan-00 22:00 2208.3 1324980 1-Jan-00 22:00
1-Jan-00 22:10 2153.3 1291980 1-Jan-00 22:10
1-Jan-00 22:20 2097.9 1258740 1-Jan-00 22:20
1-Jan-00 22:30 2042.6 1225560 1-Jan-00 22:30
1-Jan-00 22:40 1987.7 1192620 1-Jan-00 22:40
1-Jan-00 22:50 1933.5 1160100 1-Jan-00 22:50
1-Jan-00 23:00 1880.4 1128240 1-Jan-00 23:00
1-Jan-00 23:10 1828.5 1097100 1-Jan-00 23:10
1-Jan-00 23:20 1778.1 1066860 1-Jan-00 23:20
1-Jan-00 23:30 1729.3 1037580 1-Jan-00 23:30
1-Jan-00 23:40 1682.2 1009320 1-Jan-00 23:40
1-Jan-00 23:50 1636.9 982140 1-Jan-00 23:50
2-Jan-00 0:00 1593.6 956160 2-Jan-00 0:00
2-Jan-00 0:10 1551.4 930840 2-Jan-00 0:10
2-Jan-00 0:20 1509.4 905640 2-Jan-00 0:20
2-Jan-00 0:30 1467 880200 2-Jan-00 0:30
2-Jan-00 0:40 1425.8 855480 2-Jan-00 0:40
2-Jan-00 0:50 1387.1 832260 2-Jan-00 0:50
2-Jan-00 1:00 1351.6 810960 2-Jan-00 1:00
2-Jan-00 1:10 1319.5 791700 2-Jan-00 1:10
2-Jan-00 1:20 1290.1 774060 2-Jan-00 1:20
2-Jan-00 1:30 1262.9 757740 2-Jan-00 1:30
2-Jan-00 1:40 1237.7 742620 2-Jan-00 1:40
2-Jan-00 1:50 1214 728400 2-Jan-00 1:50
2-Jan-00 2:00 1191.5 714900 2-Jan-00 2:00
2-Jan-00 2:10 1169.8 701880 2-Jan-00 2:10
2-Jan-00 2:20 1148.5 689100 2-Jan-00 2:20
2-Jan-00 2:30 1127.3 676380 2-Jan-00 2:30
2-Jan-00 2:40 1105.9 663540 2-Jan-00 2:40
2-Jan-00 2:50 1084.1 650460 2-Jan-00 2:50
2-Jan-00 3:00 1061.7 637020 2-Jan-00 3:00
2-Jan-00 3:10 1038.8 623280 2-Jan-00 3:10
2-Jan-00 3:20 1015.4 609240 2-Jan-00 3:20
2-Jan-00 3:30 991.6 594960 2-Jan-00 3:30
2-Jan-00 3:40 967.5 580500 2-Jan-00 3:40
2-Jan-00 3:50 943.4 566040 2-Jan-00 3:50
2-Jan-00 4:00 919.5 551700 2-Jan-00 4:00
2-Jan-00 4:10 896 537600 2-Jan-00 4:10
2-Jan-00 4:20 873.1 523860 2-Jan-00 4:20
2-Jan-00 4:30 850.9 510540 2-Jan-00 4:30
2-Jan-00 4:40 829.6 497760 2-Jan-00 4:40
2-Jan-00 4:50 809.3 485580 2-Jan-00 4:50
2-Jan-00 5:00 790 474000 2-Jan-00 5:00
2-Jan-00 5:10 771.7 463020 2-Jan-00 5:10
2-Jan-00 5:20 754.5 452700 2-Jan-00 5:20
2-Jan-00 5:30 738.3 442980 2-Jan-00 5:30
2-Jan-00 5:40 723 433800 2-Jan-00 5:40
2-Jan-00 5:50 708.7 425220 2-Jan-00 5:50
2-Jan-00 6:00 695.2 417120 2-Jan-00 6:00
2-Jan-00 6:10 682.5 409500 2-Jan-00 6:10
2-Jan-00 6:20 670.3 402180 2-Jan-00 6:20
2-Jan-00 6:30 658.7 395220 2-Jan-00 6:30
2-Jan-00 6:40 647.5 388500 2-Jan-00 6:40
2-Jan-00 6:50 636.4 381840 2-Jan-00 6:50
2-Jan-00 7:00 625.4 375240 2-Jan-00 7:00
2-Jan-00 7:10 614.3 368580 2-Jan-00 7:10
2-Jan-00 7:20 602.8 361680 2-Jan-00 7:20
2-Jan-00 7:30 590.9 354540 2-Jan-00 7:30
2-Jan-00 7:40 578.4 347040 2-Jan-00 7:40
2-Jan-00 7:50 565.1 339060 2-Jan-00 7:50
2-Jan-00 8:00 551 330600 2-Jan-00 8:00
2-Jan-00 8:10 536 321600 2-Jan-00 8:10
2-Jan-00 8:20 519.9 311940 2-Jan-00 8:20
2-Jan-00 8:30 502.9 301740 2-Jan-00 8:30
2-Jan-00 8:40 484.8 290880 2-Jan-00 8:40
2-Jan-00 8:50 465.9 279540 2-Jan-00 8:50
2-Jan-00 9:00 446.1 267660 2-Jan-00 9:00
2-Jan-00 9:10 425.5 255300 2-Jan-00 9:10
2-Jan-00 9:20 404.4 242640 2-Jan-00 9:20
2-Jan-00 9:30 382.8 229680 2-Jan-00 9:30
2-Jan-00 9:40 360.9 216540 2-Jan-00 9:40
2-Jan-00 9:50 339 203400 2-Jan-00 9:50
2-Jan-00 10:00 317 190200 2-Jan-00 10:00
2-Jan-00 10:10 295.3 177180 2-Jan-00 10:10
2-Jan-00 10:20 274 164400 2-Jan-00 10:20
2-Jan-00 10:30 253.2 151920 2-Jan-00 10:30
2-Jan-00 10:40 233 139800 2-Jan-00 10:40
2-Jan-00 10:50 213.6 128160 2-Jan-00 10:50
2-Jan-00 11:00 195.1 117060 2-Jan-00 11:00
2-Jan-00 11:10 177.4 106440 2-Jan-00 11:10
2-Jan-00 11:20 160.8 96480 2-Jan-00 11:20
2-Jan-00 11:30 145.2 87120 2-Jan-00 11:30
2-Jan-00 11:40 130.6 78360 2-Jan-00 11:40
2-Jan-00 11:50 117.1 70260 2-Jan-00 11:50
2-Jan-00 12:00 104.6 62760 2-Jan-00 12:00
2-Jan-00 12:10 93.2 55920 2-Jan-00 12:10
2-Jan-00 12:20 82.7 49620 2-Jan-00 12:20
2-Jan-00 12:30 73.1 43860 2-Jan-00 12:30
2-Jan-00 12:40 64.5 38700 2-Jan-00 12:40
2-Jan-00 12:50 56.7 34020 2-Jan-00 12:50
2-Jan-00 13:00 49.7 29820 2-Jan-00 13:00
2-Jan-00 13:10 43.4 26040 2-Jan-00 13:10
2-Jan-00 13:20 37.8 22680 2-Jan-00 13:20
2-Jan-00 13:30 32.9 19740 2-Jan-00 13:30
2-Jan-00 13:40 28.5 17100 2-Jan-00 13:40
2-Jan-00 13:50 24.6 14760 2-Jan-00 13:50
2-Jan-00 14:00 21.2 12720 2-Jan-00 14:00
2-Jan-00 14:10 18.3 10980 2-Jan-00 14:10
2-Jan-00 14:20 15.7 9420 2-Jan-00 14:20
2-Jan-00 14:30 13.4 8040 2-Jan-00 14:30
2-Jan-00 14:40 11.4 6840 2-Jan-00 14:40
2-Jan-00 14:50 9.7 5820 2-Jan-00 14:50
2-Jan-00 15:00 8.3 4980 2-Jan-00 15:00
2-Jan-00 15:10 7 4200 2-Jan-00 15:10
2-Jan-00 15:20 5.9 3540 2-Jan-00 15:20
2-Jan-00 15:30 5 3000 2-Jan-00 15:30
2-Jan-00 15:40 4.2 2520 2-Jan-00 15:40
2-Jan-00 15:50 3.5 2100 2-Jan-00 15:50
2-Jan-00 16:00 3 1800 2-Jan-00 16:00
2-Jan-00 16:10 2.5 1500 2-Jan-00 16:10
2-Jan-00 16:20 2.1 1260 2-Jan-00 16:20
2-Jan-00 16:30 1.7 1020 2-Jan-00 16:30
2-Jan-00 16:40 1.4 840 2-Jan-00 16:40
2-Jan-00 16:50 1.2 720 2-Jan-00 16:50
2-Jan-00 17:00 1 600 2-Jan-00 17:00
2-Jan-00 17:10 0.8 480 2-Jan-00 17:10
2-Jan-00 17:20 0.7 420 2-Jan-00 17:20
2-Jan-00 17:30 0.5 300 2-Jan-00 17:30
2-Jan-00 17:40 0.4 240 2-Jan-00 17:40
2-Jan-00 17:50 0.4 240 2-Jan-00 17:50
2-Jan-00 18:00 0.3 180 2-Jan-00 18:00
2-Jan-00 18:10 0.2 120 2-Jan-00 18:10
2-Jan-00 18:20 0.2 120 2-Jan-00 18:20
2-Jan-00 18:30 0.2 120 2-Jan-00 18:30
2-Jan-00 18:40 0.1 60 2-Jan-00 18:40
2-Jan-00 18:50 0.1 60 2-Jan-00 18:50
2-Jan-00 19:00 0.1 60 2-Jan-00 19:00
2-Jan-00 19:10 0.1 60 2-Jan-00 19:10
2-Jan-00 19:20 0.1 60 2-Jan-00 19:20
2-Jan-00 19:30 0 0 2-Jan-00 19:30
2-Jan-00 19:40 0 0 2-Jan-00 19:40
2-Jan-00 19:50 0 0 2-Jan-00 19:50
2-Jan-00 20:00 0 0 2-Jan-00 20:00
2-Jan-00 20:10 0 0 2-Jan-00 20:10
2-Jan-00 20:20 0 0 2-Jan-00 20:20
2-Jan-00 20:30 0 0 2-Jan-00 20:30
2-Jan-00 20:40 0 0 2-Jan-00 20:40
2-Jan-00 20:50 0 0 2-Jan-00 20:50
2-Jan-00 21:00 0 0 2-Jan-00 21:00
2-Jan-00 21:10 0 0 2-Jan-00 21:10
2-Jan-00 21:20 0 0 2-Jan-00 21:20
2-Jan-00 21:30 0 0 2-Jan-00 21:30
2-Jan-00 21:40 0 0 2-Jan-00 21:40
2-Jan-00 21:50 0 0 2-Jan-00 21:50
2-Jan-00 22:00 0 0 2-Jan-00 22:00
2-Jan-00 22:10 0 0 2-Jan-00 22:10
2-Jan-00 22:20 0 0 2-Jan-00 22:20
2-Jan-00 22:30 0 0 2-Jan-00 22:30
2-Jan-00 22:40 0 0 2-Jan-00 22:40
2-Jan-00 22:50 0 0 2-Jan-00 22:50
2-Jan-00 23:00 0 0 2-Jan-00 23:00
2-Jan-00 23:10 0 0 2-Jan-00 23:10
2-Jan-00 23:20 0 0 2-Jan-00 23:20
2-Jan-00 23:30 0 0 2-Jan-00 23:30
2-Jan-00 23:40 0 0 2-Jan-00 23:40
2-Jan-00 23:50 0 0 2-Jan-00 23:50
3-Jan-00 0:00 0 0 3-Jan-00 0:00
3-Jan-00 0:10 0 0 3-Jan-00 0:10
3-Jan-00 0:20 0 0 3-Jan-00 0:20
3-Jan-00 0:30 0 0 3-Jan-00 0:30
3-Jan-00 0:40 0 0 3-Jan-00 0:40
3-Jan-00 0:50 0 0 3-Jan-00 0:50
3-Jan-00 1:00 0 0 3-Jan-00 1:00
3-Jan-00 1:10 0 0 3-Jan-00 1:10
3-Jan-00 1:20 0 0 3-Jan-00 1:20
3-Jan-00 1:30 0 0 3-Jan-00 1:30
3-Jan-00 1:40 0 0 3-Jan-00 1:40
3-Jan-00 1:50 0 0 3-Jan-00 1:50
3-Jan-00 2:00 0 0 3-Jan-00 2:00
3-Jan-00 2:10 0 0 3-Jan-00 2:10
3-Jan-00 2:20 0 0 3-Jan-00 2:20
3-Jan-00 2:30 0 0 3-Jan-00 2:30
3-Jan-00 2:40 0 0 3-Jan-00 2:40
3-Jan-00 2:50 0 0 3-Jan-00 2:50
3-Jan-00 3:00 0 0 3-Jan-00 3:00
3-Jan-00 3:10 0 0 3-Jan-00 3:10
3-Jan-00 3:20 0 0 3-Jan-00 3:20
3-Jan-00 3:30 0 0 3-Jan-00 3:30
3-Jan-00 3:40 0 0 3-Jan-00 3:40
3-Jan-00 3:50 0 0 3-Jan-00 3:50
3-Jan-00 4:00 0 0 3-Jan-00 4:00
3-Jan-00 4:10 0 0 3-Jan-00 4:10
3-Jan-00 4:20 0 0 3-Jan-00 4:20
3-Jan-00 4:30 0 0 3-Jan-00 4:30
3-Jan-00 4:40 0 0 3-Jan-00 4:40
3-Jan-00 4:50 0 0 3-Jan-00 4:50
3-Jan-00 5:00 0 0 3-Jan-00 5:00
3-Jan-00 5:10 0 0 3-Jan-00 5:10
3-Jan-00 5:20 0 0 3-Jan-00 5:20
3-Jan-00 5:30 0 0 3-Jan-00 5:30
3-Jan-00 5:40 0 0 3-Jan-00 5:40
3-Jan-00 5:50 0 0 3-Jan-00 5:50
3-Jan-00 6:00 0 0 3-Jan-00 6:00
3-Jan-00 6:10 0 0 3-Jan-00 6:10
3-Jan-00 6:20 0 0 3-Jan-00 6:20
3-Jan-00 6:30 0 0 3-Jan-00 6:30
3-Jan-00 6:40 0 0 3-Jan-00 6:40
3-Jan-00 6:50 0 0 3-Jan-00 6:50
3-Jan-00 7:00 0 0 3-Jan-00 7:00
3-Jan-00 7:10 0 0 3-Jan-00 7:10
3-Jan-00 7:20 0 0 3-Jan-00 7:20
3-Jan-00 7:30 0 0 3-Jan-00 7:30
3-Jan-00 7:40 0 0 3-Jan-00 7:40
3-Jan-00 7:50 0 0 3-Jan-00 7:50
3-Jan-00 8:00 0 0 3-Jan-00 8:00
3-Jan-00 8:10 0 0 3-Jan-00 8:10
3-Jan-00 8:20 0 0 3-Jan-00 8:20
3-Jan-00 8:30 0 0 3-Jan-00 8:30
3-Jan-00 8:40 0 0 3-Jan-00 8:40
3-Jan-00 8:50 0 0 3-Jan-00 8:50
3-Jan-00 9:00 0 0 3-Jan-00 9:00
3-Jan-00 9:10 0 0 3-Jan-00 9:10
3-Jan-00 9:20 0 0 3-Jan-00 9:20
3-Jan-00 9:30 0 0 3-Jan-00 9:30
3-Jan-00 9:40 0 0 3-Jan-00 9:40
3-Jan-00 9:50 0 0 3-Jan-00 9:50
3-Jan-00 10:00 0 0 3-Jan-00 10:00
3-Jan-00 10:10 0 0 3-Jan-00 10:10
3-Jan-00 10:20 0 0 3-Jan-00 10:20
3-Jan-00 10:30 0 0 3-Jan-00 10:30
3-Jan-00 10:40 0 0 3-Jan-00 10:40
3-Jan-00 10:50 0 0 3-Jan-00 10:50
3-Jan-00 11:00 0 0 3-Jan-00 11:00
3-Jan-00 11:10 0 0 3-Jan-00 11:10
3-Jan-00 11:20 0 0 3-Jan-00 11:20
3-Jan-00 11:30 0 0 3-Jan-00 11:30
3-Jan-00 11:40 0 0 3-Jan-00 11:40
3-Jan-00 11:50 0 0 3-Jan-00 11:50
3-Jan-00 12:00 0 0 3-Jan-00 12:00
3-Jan-00 12:10 0 0 3-Jan-00 12:10
3-Jan-00 12:20 0 0 3-Jan-00 12:20
3-Jan-00 12:30 0 0 3-Jan-00 12:30
3-Jan-00 12:40 0 0 3-Jan-00 12:40
3-Jan-00 12:50 0 0 3-Jan-00 12:50
3-Jan-00 13:00 0 0 3-Jan-00 13:00
3-Jan-00 13:10 0 0 3-Jan-00 13:10
3-Jan-00 13:20 0 0 3-Jan-00 13:20
3-Jan-00 13:30 0 0 3-Jan-00 13:30
3-Jan-00 13:40 0 0 3-Jan-00 13:40
3-Jan-00 13:50 0 0 3-Jan-00 13:50
3-Jan-00 14:00 0 0 3-Jan-00 14:00
3-Jan-00 14:10 0 0 3-Jan-00 14:10
3-Jan-00 14:20 0 0 3-Jan-00 14:20
3-Jan-00 14:30 0 0 3-Jan-00 14:30
3-Jan-00 14:40 0 0 3-Jan-00 14:40
3-Jan-00 14:50 0 0 3-Jan-00 14:50
3-Jan-00 15:00 0 0 3-Jan-00 15:00
3-Jan-00 15:10 0 0 3-Jan-00 15:10
3-Jan-00 15:20 0 0 3-Jan-00 15:20
3-Jan-00 15:30 0 0 3-Jan-00 15:30
3-Jan-00 15:40 0 0 3-Jan-00 15:40
3-Jan-00 15:50 0 0 3-Jan-00 15:50
3-Jan-00 16:00 0 0 3-Jan-00 16:00
3-Jan-00 16:10 0 0 3-Jan-00 16:10
3-Jan-00 16:20 0 0 3-Jan-00 16:20
3-Jan-00 16:30 0 0 3-Jan-00 16:30
3-Jan-00 16:40 0 0 3-Jan-00 16:40
3-Jan-00 16:50 0 0 3-Jan-00 16:50
3-Jan-00 17:00 0 0 3-Jan-00 17:00
3-Jan-00 17:10 0 0 3-Jan-00 17:10
3-Jan-00 17:20 0 0 3-Jan-00 17:20
3-Jan-00 17:30 0 0 3-Jan-00 17:30
3-Jan-00 17:40 0 0 3-Jan-00 17:40
3-Jan-00 17:50 0 0 3-Jan-00 17:50
3-Jan-00 18:00 0 0 3-Jan-00 18:00
3-Jan-00 18:10 0 0 3-Jan-00 18:10
3-Jan-00 18:20 0 0 3-Jan-00 18:20
3-Jan-00 18:30 0 0 3-Jan-00 18:30
3-Jan-00 18:40 0 0 3-Jan-00 18:40
3-Jan-00 18:50 0 0 3-Jan-00 18:50
3-Jan-00 19:00 0 0 3-Jan-00 19:00
3-Jan-00 19:10 0 0 3-Jan-00 19:10
3-Jan-00 19:20 0 0 3-Jan-00 19:20
3-Jan-00 19:30 0 0 3-Jan-00 19:30
3-Jan-00 19:40 0 0 3-Jan-00 19:40
3-Jan-00 19:50 0 0 3-Jan-00 19:50
3-Jan-00 20:00 0 0 3-Jan-00 20:00
3-Jan-00 20:10 0 0 3-Jan-00 20:10
3-Jan-00 20:20 0 0 3-Jan-00 20:20
3-Jan-00 20:30 0 0 3-Jan-00 20:30
3-Jan-00 20:40 0 0 3-Jan-00 20:40
3-Jan-00 20:50 0 0 3-Jan-00 20:50
3-Jan-00 21:00 0 0 3-Jan-00 21:00
3-Jan-00 21:10 0 0 3-Jan-00 21:10
3-Jan-00 21:20 0 0 3-Jan-00 21:20
3-Jan-00 21:30 0 0 3-Jan-00 21:30
3-Jan-00 21:40 0 0 3-Jan-00 21:40
3-Jan-00 21:50 0 0 3-Jan-00 21:50
3-Jan-00 22:00 0 0 3-Jan-00 22:00
3-Jan-00 22:10 0 0 3-Jan-00 22:10
3-Jan-00 22:20 0 0 3-Jan-00 22:20
3-Jan-00 22:30 0 0 3-Jan-00 22:30
3-Jan-00 22:40 0 0 3-Jan-00 22:40
3-Jan-00 22:50 0 0 3-Jan-00 22:50
3-Jan-00 23:00 0 0 3-Jan-00 23:00
3-Jan-00 23:10 0 0 3-Jan-00 23:10
3-Jan-00 23:20 0 0 3-Jan-00 23:20
3-Jan-00 23:30 0 0 3-Jan-00 23:30
3-Jan-00 23:40 0 0 3-Jan-00 23:40
3-Jan-00 23:50 0 0 3-Jan-00 23:50
4-Jan-00 0:00 0 0 4-Jan-00 0:00
4-Jan-00 0:10 0 0 4-Jan-00 0:10
4-Jan-00 0:20 0 0 4-Jan-00 0:20
4-Jan-00 0:30 0 0 4-Jan-00 0:30
4-Jan-00 0:40 0 0 4-Jan-00 0:40
4-Jan-00 0:50 0 0 4-Jan-00 0:50
4-Jan-00 1:00 0 0 4-Jan-00 1:00
4-Jan-00 1:10 0 0 4-Jan-00 1:10
4-Jan-00 1:20 0 0 4-Jan-00 1:20
4-Jan-00 1:30 0 0 4-Jan-00 1:30
4-Jan-00 1:40 0 0 4-Jan-00 1:40
4-Jan-00 1:50 0 0 4-Jan-00 1:50
4-Jan-00 2:00 0 0 4-Jan-00 2:00
4-Jan-00 2:10 0 0 4-Jan-00 2:10
4-Jan-00 2:20 0 0 4-Jan-00 2:20
4-Jan-00 2:30 0 0 4-Jan-00 2:30
4-Jan-00 2:40 0 0 4-Jan-00 2:40
4-Jan-00 2:50 0 0 4-Jan-00 2:50
4-Jan-00 3:00 0 0 4-Jan-00 3:00
4-Jan-00 3:10 0 0 4-Jan-00 3:10
4-Jan-00 3:20 0 0 4-Jan-00 3:20
4-Jan-00 3:30 0 0 4-Jan-00 3:30
4-Jan-00 3:40 0 0 4-Jan-00 3:40
4-Jan-00 3:50 0 0 4-Jan-00 3:50
4-Jan-00 4:00 0 0 4-Jan-00 4:00
4-Jan-00 4:10 0 0 4-Jan-00 4:10
4-Jan-00 4:20 0 0 4-Jan-00 4:20
4-Jan-00 4:30 0 0 4-Jan-00 4:30
4-Jan-00 4:40 0 0 4-Jan-00 4:40
4-Jan-00 4:50 0 0 4-Jan-00 4:50
4-Jan-00 5:00 0 0 4-Jan-00 5:00
4-Jan-00 5:10 0 0 4-Jan-00 5:10
4-Jan-00 5:20 0 0 4-Jan-00 5:20
4-Jan-00 5:30 0 0 4-Jan-00 5:30
4-Jan-00 5:40 0 0 4-Jan-00 5:40
4-Jan-00 5:50 0 0 4-Jan-00 5:50
4-Jan-00 6:00 0 0 4-Jan-00 6:00
4-Jan-00 6:10 0 0 4-Jan-00 6:10
4-Jan-00 6:20 0 0 4-Jan-00 6:20
4-Jan-00 6:30 0 0 4-Jan-00 6:30
4-Jan-00 6:40 0 0 4-Jan-00 6:40
4-Jan-00 6:50 0 0 4-Jan-00 6:50
4-Jan-00 7:00 0 0 4-Jan-00 7:00
4-Jan-00 7:10 0 0 4-Jan-00 7:10
4-Jan-00 7:20 0 0 4-Jan-00 7:20
4-Jan-00 7:30 0 0 4-Jan-00 7:30
4-Jan-00 7:40 0 0 4-Jan-00 7:40
4-Jan-00 7:50 0 0 4-Jan-00 7:50
4-Jan-00 8:00 0 0 4-Jan-00 8:00
4-Jan-00 8:10 0 0 4-Jan-00 8:10
4-Jan-00 8:20 0 0 4-Jan-00 8:20
4-Jan-00 8:30 0 0 4-Jan-00 8:30
4-Jan-00 8:40 0 0 4-Jan-00 8:40
4-Jan-00 8:50 0 0 4-Jan-00 8:50
4-Jan-00 9:00 0 0 4-Jan-00 9:00
4-Jan-00 9:10 0 0 4-Jan-00 9:10
4-Jan-00 9:20 0 0 4-Jan-00 9:20
4-Jan-00 9:30 0 0 4-Jan-00 9:30
4-Jan-00 9:40 0 0 4-Jan-00 9:40
4-Jan-00 9:50 0 0 4-Jan-00 9:50
4-Jan-00 10:00 0 0 4-Jan-00 10:00
4-Jan-00 10:10 0 0 4-Jan-00 10:10
4-Jan-00 10:20 0 0 4-Jan-00 10:20
4-Jan-00 10:30 0 0 4-Jan-00 10:30
4-Jan-00 10:40 0 0 4-Jan-00 10:40
4-Jan-00 10:50 0 0 4-Jan-00 10:50
4-Jan-00 11:00 0 0 4-Jan-00 11:00
4-Jan-00 11:10 0 0 4-Jan-00 11:10
4-Jan-00 11:20 0 0 4-Jan-00 11:20
4-Jan-00 11:30 0 0 4-Jan-00 11:30
4-Jan-00 11:40 0 0 4-Jan-00 11:40
4-Jan-00 11:50 0 0 4-Jan-00 11:50
4-Jan-00 12:00 0 0 4-Jan-00 12:00
4-Jan-00 12:10 0 0 4-Jan-00 12:10
4-Jan-00 12:20 0 0 4-Jan-00 12:20
4-Jan-00 12:30 0 0 4-Jan-00 12:30
4-Jan-00 12:40 0 0 4-Jan-00 12:40
4-Jan-00 12:50 0 0 4-Jan-00 12:50
4-Jan-00 13:00 0 0 4-Jan-00 13:00
4-Jan-00 13:10 0 0 4-Jan-00 13:10
4-Jan-00 13:20 0 0 4-Jan-00 13:20
4-Jan-00 13:30 0 0 4-Jan-00 13:30
4-Jan-00 13:40 0 0 4-Jan-00 13:40
4-Jan-00 13:50 0 0 4-Jan-00 13:50
4-Jan-00 14:00 0 0 4-Jan-00 14:00
4-Jan-00 14:10 0 0 4-Jan-00 14:10
4-Jan-00 14:20 0 0 4-Jan-00 14:20
4-Jan-00 14:30 0 0 4-Jan-00 14:30
4-Jan-00 14:40 0 0 4-Jan-00 14:40
4-Jan-00 14:50 0 0 4-Jan-00 14:50
4-Jan-00 15:00 0 0 4-Jan-00 15:00
4-Jan-00 15:10 0 0 4-Jan-00 15:10
4-Jan-00 15:20 0 0 4-Jan-00 15:20
4-Jan-00 15:30 0 0 4-Jan-00 15:30
4-Jan-00 15:40 0 0 4-Jan-00 15:40
4-Jan-00 15:50 0 0 4-Jan-00 15:50
4-Jan-00 16:00 0 0 4-Jan-00 16:00
4-Jan-00 16:10 0 0 4-Jan-00 16:10
4-Jan-00 16:20 0 0 4-Jan-00 16:20
4-Jan-00 16:30 0 0 4-Jan-00 16:30
4-Jan-00 16:40 0 0 4-Jan-00 16:40
4-Jan-00 16:50 0 0 4-Jan-00 16:50
4-Jan-00 17:00 0 0 4-Jan-00 17:00
4-Jan-00 17:10 0 0 4-Jan-00 17:10
4-Jan-00 17:20 0 0 4-Jan-00 17:20
4-Jan-00 17:30 0 0 4-Jan-00 17:30
4-Jan-00 17:40 0 0 4-Jan-00 17:40
4-Jan-00 17:50 0 0 4-Jan-00 17:50
4-Jan-00 18:00 0 0 4-Jan-00 18:00
4-Jan-00 18:10 0 0 4-Jan-00 18:10
4-Jan-00 18:20 0 0 4-Jan-00 18:20
4-Jan-00 18:30 0 0 4-Jan-00 18:30
4-Jan-00 18:40 0 0 4-Jan-00 18:40
4-Jan-00 18:50 0 0 4-Jan-00 18:50
4-Jan-00 19:00 0 0 4-Jan-00 19:00
4-Jan-00 19:10 0 0 4-Jan-00 19:10
4-Jan-00 19:20 0 0 4-Jan-00 19:20
4-Jan-00 19:30 0 0 4-Jan-00 19:30
4-Jan-00 19:40 0 0 4-Jan-00 19:40
4-Jan-00 19:50 0 0 4-Jan-00 19:50
4-Jan-00 20:00 0 0 4-Jan-00 20:00
4-Jan-00 20:10 0 0 4-Jan-00 20:10
4-Jan-00 20:20 0 0 4-Jan-00 20:20
4-Jan-00 20:30 0 0 4-Jan-00 20:30
4-Jan-00 20:40 0 0 4-Jan-00 20:40
4-Jan-00 20:50 0 0 4-Jan-00 20:50
4-Jan-00 21:00 0 0 4-Jan-00 21:00
4-Jan-00 21:10 0 0 4-Jan-00 21:10
4-Jan-00 21:20 0 0 4-Jan-00 21:20
4-Jan-00 21:30 0 0 4-Jan-00 21:30
4-Jan-00 21:40 0 0 4-Jan-00 21:40
4-Jan-00 21:50 0 0 4-Jan-00 21:50
4-Jan-00 22:00 0 0 4-Jan-00 22:00
4-Jan-00 22:10 0 0 4-Jan-00 22:10
4-Jan-00 22:20 0 0 4-Jan-00 22:20
4-Jan-00 22:30 0 0 4-Jan-00 22:30
4-Jan-00 22:40 0 0 4-Jan-00 22:40
4-Jan-00 22:50 0 0 4-Jan-00 22:50
4-Jan-00 23:00 0 0 4-Jan-00 23:00
4-Jan-00 23:10 0 0 4-Jan-00 23:10
4-Jan-00 23:20 0 0 4-Jan-00 23:20
4-Jan-00 23:30 0 0 4-Jan-00 23:30
4-Jan-00 23:40 0 0 4-Jan-00 23:40
4-Jan-00 23:50 0 0 4-Jan-00 23:50
5-Jan-00 0:00 0 0 5-Jan-00 0:00
5-Jan-00 0:10 0 0 5-Jan-00 0:10
5-Jan-00 0:20 0 0 5-Jan-00 0:20
5-Jan-00 0:30 0 0 5-Jan-00 0:30
5-Jan-00 0:40 0 0 5-Jan-00 0:40
5-Jan-00 0:50 0 0 5-Jan-00 0:50
5-Jan-00 1:00 0 0 5-Jan-00 1:00
5-Jan-00 1:10 0 0 5-Jan-00 1:10
5-Jan-00 1:20 0 0 5-Jan-00 1:20
5-Jan-00 1:30 0 0 5-Jan-00 1:30
5-Jan-00 1:40 0 0 5-Jan-00 1:40
5-Jan-00 1:50 0 0 5-Jan-00 1:50
5-Jan-00 2:00 0 0 5-Jan-00 2:00
5-Jan-00 2:10 0 0 5-Jan-00 2:10
5-Jan-00 2:20 0 0 5-Jan-00 2:20
5-Jan-00 2:30 0 0 5-Jan-00 2:30
5-Jan-00 2:40 0 0 5-Jan-00 2:40
5-Jan-00 2:50 0 0 5-Jan-00 2:50
5-Jan-00 3:00 0 0 5-Jan-00 3:00
5-Jan-00 3:10 0 0 5-Jan-00 3:10
5-Jan-00 3:20 0 0 5-Jan-00 3:20
5-Jan-00 3:30 0 0 5-Jan-00 3:30
5-Jan-00 3:40 0 0 5-Jan-00 3:40
5-Jan-00 3:50 0 0 5-Jan-00 3:50
5-Jan-00 4:00 0 0 5-Jan-00 4:00
5-Jan-00 4:10 0 0 5-Jan-00 4:10
5-Jan-00 4:20 0 0 5-Jan-00 4:20
5-Jan-00 4:30 0 0 5-Jan-00 4:30
5-Jan-00 4:40 0 0 5-Jan-00 4:40
5-Jan-00 4:50 0 0 5-Jan-00 4:50
5-Jan-00 5:00 0 0 5-Jan-00 5:00
5-Jan-00 5:10 0 0 5-Jan-00 5:10
5-Jan-00 5:20 0 0 5-Jan-00 5:20
5-Jan-00 5:30 0 0 5-Jan-00 5:30
5-Jan-00 5:40 0 0 5-Jan-00 5:40
5-Jan-00 5:50 0 0 5-Jan-00 5:50
5-Jan-00 6:00 0 0 5-Jan-00 6:00
5-Jan-00 6:10 0 0 5-Jan-00 6:10
5-Jan-00 6:20 0 0 5-Jan-00 6:20
5-Jan-00 6:30 0 0 5-Jan-00 6:30
5-Jan-00 6:40 0 0 5-Jan-00 6:40
5-Jan-00 6:50 0 0 5-Jan-00 6:50
5-Jan-00 7:00 0 0 5-Jan-00 7:00
5-Jan-00 7:10 0 0 5-Jan-00 7:10
5-Jan-00 7:20 0 0 5-Jan-00 7:20
5-Jan-00 7:30 0 0 5-Jan-00 7:30
5-Jan-00 7:40 0 0 5-Jan-00 7:40
5-Jan-00 7:50 0 0 5-Jan-00 7:50
5-Jan-00 8:00 0 0 5-Jan-00 8:00
5-Jan-00 8:10 0 0 5-Jan-00 8:10
5-Jan-00 8:20 0 0 5-Jan-00 8:20
5-Jan-00 8:30 0 0 5-Jan-00 8:30
5-Jan-00 8:40 0 0 5-Jan-00 8:40
5-Jan-00 8:50 0 0 5-Jan-00 8:50
5-Jan-00 9:00 0 0 5-Jan-00 9:00
5-Jan-00 9:10 0 0 5-Jan-00 9:10
5-Jan-00 9:20 0 0 5-Jan-00 9:20
5-Jan-00 9:30 0 0 5-Jan-00 9:30
5-Jan-00 9:40 0 0 5-Jan-00 9:40
5-Jan-00 9:50 0 0 5-Jan-00 9:50
5-Jan-00 10:00 0 0 5-Jan-00 10:00
5-Jan-00 10:10 0 0 5-Jan-00 10:10
5-Jan-00 10:20 0 0 5-Jan-00 10:20
5-Jan-00 10:30 0 0 5-Jan-00 10:30
5-Jan-00 10:40 0 0 5-Jan-00 10:40
5-Jan-00 10:50 0 0 5-Jan-00 10:50
5-Jan-00 11:00 0 0 5-Jan-00 11:00
5-Jan-00 11:10 0 0 5-Jan-00 11:10
5-Jan-00 11:20 0 0 5-Jan-00 11:20
5-Jan-00 11:30 0 0 5-Jan-00 11:30
5-Jan-00 11:40 0 0 5-Jan-00 11:40
5-Jan-00 11:50 0 0 5-Jan-00 11:50
5-Jan-00 12:00 0 0 5-Jan-00 12:00
5-Jan-00 12:10 0 0 5-Jan-00 12:10
5-Jan-00 12:20 0 0 5-Jan-00 12:20
5-Jan-00 12:30 0 0 5-Jan-00 12:30
5-Jan-00 12:40 0 0 5-Jan-00 12:40
5-Jan-00 12:50 0 0 5-Jan-00 12:50
5-Jan-00 13:00 0 0 5-Jan-00 13:00
5-Jan-00 13:10 0 0 5-Jan-00 13:10
5-Jan-00 13:20 0 0 5-Jan-00 13:20
5-Jan-00 13:30 0 0 5-Jan-00 13:30
5-Jan-00 13:40 0 0 5-Jan-00 13:40
5-Jan-00 13:50 0 0 5-Jan-00 13:50
5-Jan-00 14:00 0 0 5-Jan-00 14:00
5-Jan-00 14:10 0 0 5-Jan-00 14:10
5-Jan-00 14:20 0 0 5-Jan-00 14:20
5-Jan-00 14:30 0 0 5-Jan-00 14:30
5-Jan-00 14:40 0 0 5-Jan-00 14:40
5-Jan-00 14:50 0 0 5-Jan-00 14:50
5-Jan-00 15:00 0 0 5-Jan-00 15:00
5-Jan-00 15:10 0 0 5-Jan-00 15:10
5-Jan-00 15:20 0 0 5-Jan-00 15:20
5-Jan-00 15:30 0 0 5-Jan-00 15:30
5-Jan-00 15:40 0 0 5-Jan-00 15:40
5-Jan-00 15:50 0 0 5-Jan-00 15:50
5-Jan-00 16:00 0 0 5-Jan-00 16:00
5-Jan-00 16:10 0 0 5-Jan-00 16:10
5-Jan-00 16:20 0 0 5-Jan-00 16:20
5-Jan-00 16:30 0 0 5-Jan-00 16:30
5-Jan-00 16:40 0 0 5-Jan-00 16:40
5-Jan-00 16:50 0 0 5-Jan-00 16:50
5-Jan-00 17:00 0 0 5-Jan-00 17:00
5-Jan-00 17:10 0 0 5-Jan-00 17:10
5-Jan-00 17:20 0 0 5-Jan-00 17:20
5-Jan-00 17:30 0 0 5-Jan-00 17:30
5-Jan-00 17:40 0 0 5-Jan-00 17:40
5-Jan-00 17:50 0 0 5-Jan-00 17:50
5-Jan-00 18:00 0 0 5-Jan-00 18:00
5-Jan-00 18:10 0 0 5-Jan-00 18:10
5-Jan-00 18:20 0 0 5-Jan-00 18:20
5-Jan-00 18:30 0 0 5-Jan-00 18:30
5-Jan-00 18:40 0 0 5-Jan-00 18:40
5-Jan-00 18:50 0 0 5-Jan-00 18:50
5-Jan-00 19:00 0 0 5-Jan-00 19:00
5-Jan-00 19:10 0 0 5-Jan-00 19:10
5-Jan-00 19:20 0 0 5-Jan-00 19:20
5-Jan-00 19:30 0 0 5-Jan-00 19:30
5-Jan-00 19:40 0 0 5-Jan-00 19:40
5-Jan-00 19:50 0 0 5-Jan-00 19:50
5-Jan-00 20:00 0 0 5-Jan-00 20:00
5-Jan-00 20:10 0 0 5-Jan-00 20:10
5-Jan-00 20:20 0 0 5-Jan-00 20:20
5-Jan-00 20:30 0 0 5-Jan-00 20:30
5-Jan-00 20:40 0 0 5-Jan-00 20:40
5-Jan-00 20:50 0 0 5-Jan-00 20:50
5-Jan-00 21:00 0 0 5-Jan-00 21:00
5-Jan-00 21:10 0 0 5-Jan-00 21:10
5-Jan-00 21:20 0 0 5-Jan-00 21:20
5-Jan-00 21:30 0 0 5-Jan-00 21:30
5-Jan-00 21:40 0 0 5-Jan-00 21:40
5-Jan-00 21:50 0 0 5-Jan-00 21:50
5-Jan-00 22:00 0 0 5-Jan-00 22:00
5-Jan-00 22:10 0 0 5-Jan-00 22:10
5-Jan-00 22:20 0 0 5-Jan-00 22:20
5-Jan-00 22:30 0 0 5-Jan-00 22:30
5-Jan-00 22:40 0 0 5-Jan-00 22:40
5-Jan-00 22:50 0 0 5-Jan-00 22:50
5-Jan-00 23:00 0 0 5-Jan-00 23:00
5-Jan-00 23:10 0 0 5-Jan-00 23:10
5-Jan-00 23:20 0 0 5-Jan-00 23:20
5-Jan-00 23:30 0 0 5-Jan-00 23:30
5-Jan-00 23:40 0 0 5-Jan-00 23:40
5-Jan-00 23:50 0 0 5-Jan-00 23:50
6-Jan-00 0:00 0 0 6-Jan-00 0:00
6-Jan-00 0:10 0 0 6-Jan-00 0:10
6-Jan-00 0:20 0 0 6-Jan-00 0:20
6-Jan-00 0:30 0 0 6-Jan-00 0:30
6-Jan-00 0:40 0 0 6-Jan-00 0:40
6-Jan-00 0:50 0 0 6-Jan-00 0:50
6-Jan-00 1:00 0 0 6-Jan-00 1:00
6-Jan-00 1:10 0 0 6-Jan-00 1:10
6-Jan-00 1:20 0 0 6-Jan-00 1:20
6-Jan-00 1:30 0 0 6-Jan-00 1:30
6-Jan-00 1:40 0 0 6-Jan-00 1:40
6-Jan-00 1:50 0 0 6-Jan-00 1:50
6-Jan-00 2:00 0 0 6-Jan-00 2:00
6-Jan-00 2:10 0 0 6-Jan-00 2:10
6-Jan-00 2:20 0 0 6-Jan-00 2:20
6-Jan-00 2:30 0 0 6-Jan-00 2:30
6-Jan-00 2:40 0 0 6-Jan-00 2:40
6-Jan-00 2:50 0 0 6-Jan-00 2:50
6-Jan-00 3:00 0 0 6-Jan-00 3:00
6-Jan-00 3:10 0 0 6-Jan-00 3:10
6-Jan-00 3:20 0 0 6-Jan-00 3:20
6-Jan-00 3:30 0 0 6-Jan-00 3:30
6-Jan-00 3:40 0 0 6-Jan-00 3:40
6-Jan-00 3:50 0 0 6-Jan-00 3:50
6-Jan-00 4:00 0 0 6-Jan-00 4:00
6-Jan-00 4:10 0 0 6-Jan-00 4:10
6-Jan-00 4:20 0 0 6-Jan-00 4:20
6-Jan-00 4:30 0 0 6-Jan-00 4:30
6-Jan-00 4:40 0 0 6-Jan-00 4:40
6-Jan-00 4:50 0 0 6-Jan-00 4:50
6-Jan-00 5:00 0 0 6-Jan-00 5:00
6-Jan-00 5:10 0 0 6-Jan-00 5:10
6-Jan-00 5:20 0 0 6-Jan-00 5:20
6-Jan-00 5:30 0 0 6-Jan-00 5:30
6-Jan-00 5:40 0 0 6-Jan-00 5:40
6-Jan-00 5:50 0 0 6-Jan-00 5:50
6-Jan-00 6:00 0 0 6-Jan-00 6:00
6-Jan-00 6:10 0 0 6-Jan-00 6:10
6-Jan-00 6:20 0 0 6-Jan-00 6:20
6-Jan-00 6:30 0 0 6-Jan-00 6:30
6-Jan-00 6:40 0 0 6-Jan-00 6:40
6-Jan-00 6:50 0 0 6-Jan-00 6:50
6-Jan-00 7:00 0 0 6-Jan-00 7:00
6-Jan-00 7:10 0 0 6-Jan-00 7:10
6-Jan-00 7:20 0 0 6-Jan-00 7:20
6-Jan-00 7:30 0 0 6-Jan-00 7:30
6-Jan-00 7:40 0 0 6-Jan-00 7:40
6-Jan-00 7:50 0 0 6-Jan-00 7:50
6-Jan-00 8:00 0 0 6-Jan-00 8:00
6-Jan-00 8:10 0 0 6-Jan-00 8:10
6-Jan-00 8:20 0 0 6-Jan-00 8:20
6-Jan-00 8:30 0 0 6-Jan-00 8:30
6-Jan-00 8:40 0 0 6-Jan-00 8:40
6-Jan-00 8:50 0 0 6-Jan-00 8:50
6-Jan-00 9:00 0 0 6-Jan-00 9:00
6-Jan-00 9:10 0 0 6-Jan-00 9:10
6-Jan-00 9:20 0 0 6-Jan-00 9:20
6-Jan-00 9:30 0 0 6-Jan-00 9:30
6-Jan-00 9:40 0 0 6-Jan-00 9:40
6-Jan-00 9:50 0 0 6-Jan-00 9:50
6-Jan-00 10:00 0 0 6-Jan-00 10:00
6-Jan-00 10:10 0 0 6-Jan-00 10:10
6-Jan-00 10:20 0 0 6-Jan-00 10:20
6-Jan-00 10:30 0 0 6-Jan-00 10:30
6-Jan-00 10:40 0 0 6-Jan-00 10:40
6-Jan-00 10:50 0 0 6-Jan-00 10:50
6-Jan-00 11:00 0 0 6-Jan-00 11:00
6-Jan-00 11:10 0 0 6-Jan-00 11:10
6-Jan-00 11:20 0 0 6-Jan-00 11:20
6-Jan-00 11:30 0 0 6-Jan-00 11:30
6-Jan-00 11:40 0 0 6-Jan-00 11:40
6-Jan-00 11:50 0 0 6-Jan-00 11:50
6-Jan-00 12:00 0 0 6-Jan-00 12:00
6-Jan-00 12:10 0 0 6-Jan-00 12:10
6-Jan-00 12:20 0 0 6-Jan-00 12:20
6-Jan-00 12:30 0 0 6-Jan-00 12:30
6-Jan-00 12:40 0 0 6-Jan-00 12:40
6-Jan-00 12:50 0 0 6-Jan-00 12:50
6-Jan-00 13:00 0 0 6-Jan-00 13:00
6-Jan-00 13:10 0 0 6-Jan-00 13:10
6-Jan-00 13:20 0 0 6-Jan-00 13:20
6-Jan-00 13:30 0 0 6-Jan-00 13:30
6-Jan-00 13:40 0 0 6-Jan-00 13:40
6-Jan-00 13:50 0 0 6-Jan-00 13:50
6-Jan-00 14:00 0 0 6-Jan-00 14:00
6-Jan-00 14:10 0 0 6-Jan-00 14:10
6-Jan-00 14:20 0 0 6-Jan-00 14:20
6-Jan-00 14:30 0 0 6-Jan-00 14:30
6-Jan-00 14:40 0 0 6-Jan-00 14:40
6-Jan-00 14:50 0 0 6-Jan-00 14:50
6-Jan-00 15:00 0 0 6-Jan-00 15:00
6-Jan-00 15:10 0 0 6-Jan-00 15:10
6-Jan-00 15:20 0 0 6-Jan-00 15:20
6-Jan-00 15:30 0 0 6-Jan-00 15:30
6-Jan-00 15:40 0 0 6-Jan-00 15:40
6-Jan-00 15:50 0 0 6-Jan-00 15:50
6-Jan-00 16:00 0 0 6-Jan-00 16:00
6-Jan-00 16:10 0 0 6-Jan-00 16:10
6-Jan-00 16:20 0 0 6-Jan-00 16:20
6-Jan-00 16:30 0 0 6-Jan-00 16:30
6-Jan-00 16:40 0 0 6-Jan-00 16:40
6-Jan-00 16:50 0 0 6-Jan-00 16:50
6-Jan-00 17:00 0 0 6-Jan-00 17:00
6-Jan-00 17:10 0 0 6-Jan-00 17:10
6-Jan-00 17:20 0 0 6-Jan-00 17:20
6-Jan-00 17:30 0 0 6-Jan-00 17:30
6-Jan-00 17:40 0 0 6-Jan-00 17:40
6-Jan-00 17:50 0 0 6-Jan-00 17:50
6-Jan-00 18:00 0 0 6-Jan-00 18:00
6-Jan-00 18:10 0 0 6-Jan-00 18:10
6-Jan-00 18:20 0 0 6-Jan-00 18:20
6-Jan-00 18:30 0 0 6-Jan-00 18:30
6-Jan-00 18:40 0 0 6-Jan-00 18:40
6-Jan-00 18:50 0 0 6-Jan-00 18:50
6-Jan-00 19:00 0 0 6-Jan-00 19:00
6-Jan-00 19:10 0 0 6-Jan-00 19:10
6-Jan-00 19:20 0 0 6-Jan-00 19:20
6-Jan-00 19:30 0 0 6-Jan-00 19:30
6-Jan-00 19:40 0 0 6-Jan-00 19:40
6-Jan-00 19:50 0 0 6-Jan-00 19:50
6-Jan-00 20:00 0 0 6-Jan-00 20:00
6-Jan-00 20:10 0 0 6-Jan-00 20:10
6-Jan-00 20:20 0 0 6-Jan-00 20:20
6-Jan-00 20:30 0 0 6-Jan-00 20:30
6-Jan-00 20:40 0 0 6-Jan-00 20:40
6-Jan-00 20:50 0 0 6-Jan-00 20:50
6-Jan-00 21:00 0 0 6-Jan-00 21:00
6-Jan-00 21:10 0 0 6-Jan-00 21:10
6-Jan-00 21:20 0 0 6-Jan-00 21:20
6-Jan-00 21:30 0 0 6-Jan-00 21:30
6-Jan-00 21:40 0 0 6-Jan-00 21:40
6-Jan-00 21:50 0 0 6-Jan-00 21:50
6-Jan-00 22:00 0 0 6-Jan-00 22:00
6-Jan-00 22:10 0 0 6-Jan-00 22:10
6-Jan-00 22:20 0 0 6-Jan-00 22:20
6-Jan-00 22:30 0 0 6-Jan-00 22:30
6-Jan-00 22:40 0 0 6-Jan-00 22:40
6-Jan-00 22:50 0 0 6-Jan-00 22:50
6-Jan-00 23:00 0 0 6-Jan-00 23:00
6-Jan-00 23:10 0 0 6-Jan-00 23:10
6-Jan-00 23:20 0 0 6-Jan-00 23:20
6-Jan-00 23:30 0 0 6-Jan-00 23:30
6-Jan-00 23:40 0 0 6-Jan-00 23:40
6-Jan-00 23:50 0 0 6-Jan-00 23:50
7-Jan-00 0:00 0 0 7-Jan-00 0:00
Volumen 336.75126 MMC
Max 4641.1 m3/s
Outflow (m3/s)
0
0
0
0
0
0
0
0
0
0
0
0
0
0
0
0
0
0
0
0
0
0
0
0
0
0
0
0
0
0
0
0
0
0
0
0
0
0
0
0
0
0
0
0
0
0
0
0
0
0
0
0
0
0
0
0
0
0
0
0
0
0
0
0
0
0
0
0
0
0
0
0
0
0
0
0
0
0
0
0
0
0
0
0
0
0
0
0
0
0
0
0
0
0
0
0
0
0
0
0
0
0
0
0
0
0
0
0
0
0
0
0
0
0
0
0
0
0
0
0
0
0
0
0
0
0
0
0
0
0
0
0.1
0.1
0.1
0.1
0.2
0.3
0.4
0.6
0.8
1.1
1.6
2.1
2.9
3.9
5.1
6.7
8.7
11.2
14.3
17.9
22.4
27.7
33.9
41.1
49.4
59
69.7
81.8
95.2
109.9
126
143.4
162.1
182.1
203.1
225.2
248.1
271.9
296.2
321
346.1
371.3
396.5
421.5
446.2
470.4
493.9
516.8
538.9
560.1
580.3
599.6
617.9
635.2
651.5
666.9
681.5
695.4
708.6
721.3
733.6
745.7
757.6
769.7
781.9
794.5
807.7
821.4
835.9
851.3
867.6
884.9
903.2
922.6
943.1
964.7
987.3
1010.9
1035.5
1060.9
1087.1
1114.1
1141.6
1169.7
1198.2
1227.1
1256.3
1285.7
1315.4
1345.3
1375.5
1406
1437
1468.5
1500.6
1533.7
1567.9
1603.5
1640.7
1680
1721.9
1766.8
1815.1
1867.1
1923
1982.9
2046.9
2115.1
2187.6
2264.6
2346.1
2432.1
2522.2
2615.9
2712.7
2812
2913
3015.2
3118.1
3221.2
3324.1
3426.3
3527.5
3627.2
3724.8
3819.7
3911.4
3999.3
4082.5
4160.7
4233.6
4300.8
4362.1
4417.1
4465.5
4507.2
4542.4
4571.4
4594.6
4612.6
4625.8
4634.7
4639.7
4641.1
4639.5
4635.2
4628.8
4621
4612.1
4602.6
4592.7
4582.7
4572.9
4563.3
4554.1
4545.5
4537.5
4530
4523.2
4517
4511.2
4505.8
4500.6
4495.6
4490.5
4485.3
4479.8
4473.8
4467.3
4460
4451.8
4442.7
4432.4
4420.8
4407.9
4393.4
4377.3
4359.6
4340
4318.5
4295.1
4269.6
4242.2
4212.6
4181
4147.3
4111.5
4073.6
4033.6
3991.5
3947.3
3901.1
3853
3802.9
3750.9
3697.2
3641.8
3584.9
3526.4
3466.4
3405.1
3342.6
3278.9
3214.3
3148.7
3082.4
3015.5
2948
2880.2
2812
2743.6
2675.1
2606.6
2538.1
2469.9
2402
2334.5
2267.7
2201.7
2136.5
2072.3
2009.2
1947.4
1886.9
1827.9
1770.4
1714.4
1660.1
1607.3
1556.1
1506.6
1458.6
1412.2
1367.4
1324.1
1282.2
1241.7
1202.6
1164.7
1128
1092.5
1058
1024.4
991.8
960.1
929.2
899.1
869.7
841.1
813
785.6
758.8
732.6
706.9
681.8
657.2
633
609.4
586.3
563.6
541.5
519.8
498.5
477.8
457.5
437.8
418.5
399.7
381.4
363.6
346.3
329.6
313.3
297.6
282.4
267.7
253.6
240
226.9
214.4
202.3
190.8
179.8
169.3
159.3
149.7
140.7
132
123.9
116.2
108.9
102
95.5
89.3
83.6
78.1
73.1
68.3
63.8
59.7
55.8
52.1
48.8
45.6
42.7
39.9
37.4
35
32.8
30.8
28.9
27.1
25.5
24
22.6
21.3
20.1
18.9
17.9
16.9
16
15.1
14.4
13.6
12.9
12.3
11.7
11.2
10.6
10.1
9.7
9.3
8.9
8.5
8.1
7.8
7.5
7.2
6.9
6.6
6.3
6.1
5.8
5.6
5.4
5.2
5
4.8
4.6
4.4
4.3
4.1
3.9
3.8
3.6
3.5
3.4
3.2
3.1
3
2.9
2.8
2.6
2.5
2.4
2.3
2.3
2.2
2.1
2
1.9
1.8
1.8
1.7
1.6
1.6
1.5
1.4
1.4
1.3
1.3
1.2
1.1
1.1
1.1
1
1
0.9
0.9
0.8
0.8
0.8
0.7
0.7
0.6
0.6
0.6
0.6
0.5
0.5
0.5
0.4
0.4
0.4
0.4
0.4
0.3
0.3
0.3
0.3
0.3
0.2
0.2
0.2
0.2
0.2
0.2
0.2
0.1
0.1
0.1
0.1
0.1
0.1
0.1
0.1
0.1
0.1
0.1
0.1
0.1
0
0
0
0
0
0
0
0
0
0
0
0
0
0
0
0
0
0
0
0
0
0
0
0
0
0
0
0
0
0
0
0
0
0
0
0
0
0
0
0
0
0
0
0
0
0
0
0
0
0
0
0
0
0
0
0
0
0
0
0
0
0
0
0
0
0
0
0
0
0
0
0
0
0
0
0
0
0
0
0
0
0
0
0
0
0
0
0
0
0
0
0
0
0
0
0
0
0
0
0
0
0
0
0
0
0
0
0
0
0
0
0
0
0
0
0
0
0
0
0
0
0
0
0
0
0
0
0
0
0
0
0
0
0
0
0
0
0
0
0
0
0
0
0
0
0
0
0
0
0
0
0
0
0
0
0
0
0
0
0
0
0
0
0
0
0
0
0
0
0
0
0
0
0
0
0
0
0
0
0
0
0
0
0
0
0
0
0
0
0
0
0
0
0
0
0
0
0
0
0
0
0
0
0
0
0
0
0
0
0
0
0
0
0
0
0
0
0
0
0
0
0
0
0
0
0
0
0
0
0
0
0
0
0
0
0
0
0
0
0
0
0
0
0
0
0
0
0
0
0
0
0
0
0
0
0
0
0
0
0
0
0
0
0
0
0
0
0
0
0
0
0
0
0
0
0
0
0
0
0
0
0
0
0
0
0
0
0
0
0
0
0
0
0
0
0
0
0
0
0
0
0
0
Volumen 133.8462 MMC
N_Ala
Max 3287 m3/s n_PEÑITA
Date Time Outflow (m3/s) Date Time
1-Jan-00 0:00 0 1-Jan-00 0:00
1-Jan-00 0:10 0 1-Jan-00 0:10
1-Jan-00 0:20 0 1-Jan-00 0:20
1-Jan-00 0:30 0 1-Jan-00 0:30
1-Jan-00 0:40 0 1-Jan-00 0:40
1-Jan-00 0:50 0 1-Jan-00 0:50
1-Jan-00 1:00 0 1-Jan-00 1:00
1-Jan-00 1:10 0 1-Jan-00 1:10
1-Jan-00 1:20 0 1-Jan-00 1:20
1-Jan-00 1:30 0 1-Jan-00 1:30
1-Jan-00 1:40 0 1-Jan-00 1:40
1-Jan-00 1:50 0 1-Jan-00 1:50
1-Jan-00 2:00 0 1-Jan-00 2:00
1-Jan-00 2:10 0 1-Jan-00 2:10
1-Jan-00 2:20 0 1-Jan-00 2:20
1-Jan-00 2:30 0 1-Jan-00 2:30
1-Jan-00 2:40 0 1-Jan-00 2:40
1-Jan-00 2:50 0 1-Jan-00 2:50
1-Jan-00 3:00 0 1-Jan-00 3:00
1-Jan-00 3:10 0 1-Jan-00 3:10
1-Jan-00 3:20 0 1-Jan-00 3:20
1-Jan-00 3:30 0 1-Jan-00 3:30
1-Jan-00 3:40 0 1-Jan-00 3:40
1-Jan-00 3:50 0 1-Jan-00 3:50
1-Jan-00 4:00 0 1-Jan-00 4:00
1-Jan-00 4:10 0 1-Jan-00 4:10
1-Jan-00 4:20 0 1-Jan-00 4:20
1-Jan-00 4:30 0 1-Jan-00 4:30
1-Jan-00 4:40 0 1-Jan-00 4:40
1-Jan-00 4:50 0 1-Jan-00 4:50
1-Jan-00 5:00 0 1-Jan-00 5:00
1-Jan-00 5:10 0 1-Jan-00 5:10
1-Jan-00 5:20 0 1-Jan-00 5:20
1-Jan-00 5:30 0 1-Jan-00 5:30
1-Jan-00 5:40 0 1-Jan-00 5:40
1-Jan-00 5:50 0 1-Jan-00 5:50
1-Jan-00 6:00 0 1-Jan-00 6:00
1-Jan-00 6:10 0 1-Jan-00 6:10
1-Jan-00 6:20 0 1-Jan-00 6:20
1-Jan-00 6:30 0 1-Jan-00 6:30
1-Jan-00 6:40 0 1-Jan-00 6:40
1-Jan-00 6:50 0 1-Jan-00 6:50
1-Jan-00 7:00 0.1 1-Jan-00 7:00
1-Jan-00 7:10 0.3 1-Jan-00 7:10
1-Jan-00 7:20 0.7 1-Jan-00 7:20
1-Jan-00 7:30 1.5 1-Jan-00 7:30
1-Jan-00 7:40 2.6 1-Jan-00 7:40
1-Jan-00 7:50 3.9 1-Jan-00 7:50
1-Jan-00 8:00 5.3 1-Jan-00 8:00
1-Jan-00 8:10 7.1 1-Jan-00 8:10
1-Jan-00 8:20 9.5 1-Jan-00 8:20
1-Jan-00 8:30 12.7 1-Jan-00 8:30
1-Jan-00 8:40 16.5 1-Jan-00 8:40
1-Jan-00 8:50 20.7 1-Jan-00 8:50
1-Jan-00 9:00 24.9 1-Jan-00 9:00
1-Jan-00 9:10 33 1-Jan-00 9:10
1-Jan-00 9:20 51.4 1-Jan-00 9:20
1-Jan-00 9:30 85.5 1-Jan-00 9:30
1-Jan-00 9:40 130.4 1-Jan-00 9:40
1-Jan-00 9:50 179.9 1-Jan-00 9:50
1-Jan-00 10:00 229.3 1-Jan-00 10:00
1-Jan-00 10:10 268.2 1-Jan-00 10:10
1-Jan-00 10:20 289.4 1-Jan-00 10:20
1-Jan-00 10:30 288.2 1-Jan-00 10:30
1-Jan-00 10:40 276.7 1-Jan-00 10:40
1-Jan-00 10:50 266.2 1-Jan-00 10:50
1-Jan-00 11:00 264.2 1-Jan-00 11:00
1-Jan-00 11:10 274.2 1-Jan-00 11:10
1-Jan-00 11:20 291.1 1-Jan-00 11:20
1-Jan-00 11:30 312.6 1-Jan-00 11:30
1-Jan-00 11:40 343.6 1-Jan-00 11:40
1-Jan-00 11:50 387.4 1-Jan-00 11:50
1-Jan-00 12:00 445.3 1-Jan-00 12:00
1-Jan-00 12:10 516.5 1-Jan-00 12:10
1-Jan-00 12:20 596.5 1-Jan-00 12:20
1-Jan-00 12:30 681.7 1-Jan-00 12:30
1-Jan-00 12:40 770.1 1-Jan-00 12:40
1-Jan-00 12:50 859.5 1-Jan-00 12:50
1-Jan-00 13:00 947.3 1-Jan-00 13:00
1-Jan-00 13:10 1031.1 1-Jan-00 13:10
1-Jan-00 13:20 1107.7 1-Jan-00 13:20
1-Jan-00 13:30 1175.1 1-Jan-00 13:30
1-Jan-00 13:40 1232.4 1-Jan-00 13:40
1-Jan-00 13:50 1279.5 1-Jan-00 13:50
1-Jan-00 14:00 1316.6 1-Jan-00 14:00
1-Jan-00 14:10 1344 1-Jan-00 14:10
1-Jan-00 14:20 1362 1-Jan-00 14:20
1-Jan-00 14:30 1371.5 1-Jan-00 14:30
1-Jan-00 14:40 1374.8 1-Jan-00 14:40
1-Jan-00 14:50 1374.3 1-Jan-00 14:50
1-Jan-00 15:00 1372.1 1-Jan-00 15:00
1-Jan-00 15:10 1370.5 1-Jan-00 15:10
1-Jan-00 15:20 1370.8 1-Jan-00 15:20
1-Jan-00 15:30 1374.6 1-Jan-00 15:30
1-Jan-00 15:40 1383.6 1-Jan-00 15:40
1-Jan-00 15:50 1399 1-Jan-00 15:50
1-Jan-00 16:00 1422.3 1-Jan-00 16:00
1-Jan-00 16:10 1453.8 1-Jan-00 16:10
1-Jan-00 16:20 1494.1 1-Jan-00 16:20
1-Jan-00 16:30 1543.2 1-Jan-00 16:30
1-Jan-00 16:40 1602.1 1-Jan-00 16:40
1-Jan-00 16:50 1671.4 1-Jan-00 16:50
1-Jan-00 17:00 1751 1-Jan-00 17:00
1-Jan-00 17:10 1840.5 1-Jan-00 17:10
1-Jan-00 17:20 1938.4 1-Jan-00 17:20
1-Jan-00 17:30 2043.4 1-Jan-00 17:30
1-Jan-00 17:40 2153.8 1-Jan-00 17:40
1-Jan-00 17:50 2267.9 1-Jan-00 17:50
1-Jan-00 18:00 2383.7 1-Jan-00 18:00
1-Jan-00 18:10 2499.2 1-Jan-00 18:10
1-Jan-00 18:20 2612.4 1-Jan-00 18:20
1-Jan-00 18:30 2721.4 1-Jan-00 18:30
1-Jan-00 18:40 2824.3 1-Jan-00 18:40
1-Jan-00 18:50 2919.4 1-Jan-00 18:50
1-Jan-00 19:00 3005.3 1-Jan-00 19:00
1-Jan-00 19:10 3081 1-Jan-00 19:10
1-Jan-00 19:20 3145.3 1-Jan-00 19:20
1-Jan-00 19:30 3197.9 1-Jan-00 19:30
1-Jan-00 19:40 3238.2 1-Jan-00 19:40
1-Jan-00 19:50 3266.4 1-Jan-00 19:50
1-Jan-00 20:00 3282.7 1-Jan-00 20:00
1-Jan-00 20:10 3287 1-Jan-00 20:10
1-Jan-00 20:20 3279.7 1-Jan-00 20:20
1-Jan-00 20:30 3261.2 1-Jan-00 20:30
1-Jan-00 20:40 3233.1 1-Jan-00 20:40
1-Jan-00 20:50 3196.7 1-Jan-00 20:50
1-Jan-00 21:00 3153.3 1-Jan-00 21:00
1-Jan-00 21:10 3104 1-Jan-00 21:10
1-Jan-00 21:20 3049.5 1-Jan-00 21:20
1-Jan-00 21:30 2990.8 1-Jan-00 21:30
1-Jan-00 21:40 2928.5 1-Jan-00 21:40
1-Jan-00 21:50 2863.6 1-Jan-00 21:50
1-Jan-00 22:00 2796.7 1-Jan-00 22:00
1-Jan-00 22:10 2728.5 1-Jan-00 22:10
1-Jan-00 22:20 2659.6 1-Jan-00 22:20
1-Jan-00 22:30 2590.4 1-Jan-00 22:30
1-Jan-00 22:40 2521.5 1-Jan-00 22:40
1-Jan-00 22:50 2453.2 1-Jan-00 22:50
1-Jan-00 23:00 2385.9 1-Jan-00 23:00
1-Jan-00 23:10 2319.9 1-Jan-00 23:10
1-Jan-00 23:20 2255.5 1-Jan-00 23:20
1-Jan-00 23:30 2192.9 1-Jan-00 23:30
1-Jan-00 23:40 2132.4 1-Jan-00 23:40
1-Jan-00 23:50 2074 1-Jan-00 23:50
2-Jan-00 0:00 2018 2-Jan-00 0:00
2-Jan-00 0:10 1963.5 2-Jan-00 0:10
2-Jan-00 0:20 1909.1 2-Jan-00 0:20
2-Jan-00 0:30 1854.2 2-Jan-00 0:30
2-Jan-00 0:40 1800.8 2-Jan-00 0:40
2-Jan-00 0:50 1750.6 2-Jan-00 0:50
2-Jan-00 1:00 1704.3 2-Jan-00 1:00
2-Jan-00 1:10 1662.5 2-Jan-00 1:10
2-Jan-00 1:20 1624 2-Jan-00 1:20
2-Jan-00 1:30 1588.4 2-Jan-00 1:30
2-Jan-00 1:40 1555.1 2-Jan-00 1:40
2-Jan-00 1:50 1523.8 2-Jan-00 1:50
2-Jan-00 2:00 1493.9 2-Jan-00 2:00
2-Jan-00 2:10 1465 2-Jan-00 2:10
2-Jan-00 2:20 1436.6 2-Jan-00 2:20
2-Jan-00 2:30 1408.4 2-Jan-00 2:30
2-Jan-00 2:40 1380.1 2-Jan-00 2:40
2-Jan-00 2:50 1351.4 2-Jan-00 2:50
2-Jan-00 3:00 1322.2 2-Jan-00 3:00
2-Jan-00 3:10 1292.5 2-Jan-00 3:10
2-Jan-00 3:20 1262.3 2-Jan-00 3:20
2-Jan-00 3:30 1231.8 2-Jan-00 3:30
2-Jan-00 3:40 1201.2 2-Jan-00 3:40
2-Jan-00 3:50 1170.7 2-Jan-00 3:50
2-Jan-00 4:00 1140.6 2-Jan-00 4:00
2-Jan-00 4:10 1111 2-Jan-00 4:10
2-Jan-00 4:20 1082.3 2-Jan-00 4:20
2-Jan-00 4:30 1054.5 2-Jan-00 4:30
2-Jan-00 4:40 1027.8 2-Jan-00 4:40
2-Jan-00 4:50 1002.4 2-Jan-00 4:50
2-Jan-00 5:00 978.2 2-Jan-00 5:00
2-Jan-00 5:10 955.3 2-Jan-00 5:10
2-Jan-00 5:20 933.7 2-Jan-00 5:20
2-Jan-00 5:30 913.3 2-Jan-00 5:30
2-Jan-00 5:40 894.1 2-Jan-00 5:40
2-Jan-00 5:50 876 2-Jan-00 5:50
2-Jan-00 6:00 858.8 2-Jan-00 6:00
2-Jan-00 6:10 842.5 2-Jan-00 6:10
2-Jan-00 6:20 826.8 2-Jan-00 6:20
2-Jan-00 6:30 811.7 2-Jan-00 6:30
2-Jan-00 6:40 796.9 2-Jan-00 6:40
2-Jan-00 6:50 782.3 2-Jan-00 6:50
2-Jan-00 7:00 767.6 2-Jan-00 7:00
2-Jan-00 7:10 752.8 2-Jan-00 7:10
2-Jan-00 7:20 737.5 2-Jan-00 7:20
2-Jan-00 7:30 721.8 2-Jan-00 7:30
2-Jan-00 7:40 705.4 2-Jan-00 7:40
2-Jan-00 7:50 688.1 2-Jan-00 7:50
2-Jan-00 8:00 670 2-Jan-00 8:00
2-Jan-00 8:10 650.9 2-Jan-00 8:10
2-Jan-00 8:20 630.8 2-Jan-00 8:20
2-Jan-00 8:30 609.7 2-Jan-00 8:30
2-Jan-00 8:40 587.7 2-Jan-00 8:40
2-Jan-00 8:50 564.8 2-Jan-00 8:50
2-Jan-00 9:00 541 2-Jan-00 9:00
2-Jan-00 9:10 516.6 2-Jan-00 9:10
2-Jan-00 9:20 491.6 2-Jan-00 9:20
2-Jan-00 9:30 466.2 2-Jan-00 9:30
2-Jan-00 9:40 440.5 2-Jan-00 9:40
2-Jan-00 9:50 414.8 2-Jan-00 9:50
2-Jan-00 10:00 389.2 2-Jan-00 10:00
2-Jan-00 10:10 363.9 2-Jan-00 10:10
2-Jan-00 10:20 339 2-Jan-00 10:20
2-Jan-00 10:30 314.7 2-Jan-00 10:30
2-Jan-00 10:40 291 2-Jan-00 10:40
2-Jan-00 10:50 268.2 2-Jan-00 10:50
2-Jan-00 11:00 246.3 2-Jan-00 11:00
2-Jan-00 11:10 225.4 2-Jan-00 11:10
2-Jan-00 11:20 205.6 2-Jan-00 11:20
2-Jan-00 11:30 186.9 2-Jan-00 11:30
2-Jan-00 11:40 169.3 2-Jan-00 11:40
2-Jan-00 11:50 152.9 2-Jan-00 11:50
2-Jan-00 12:00 137.6 2-Jan-00 12:00
2-Jan-00 12:10 123.5 2-Jan-00 12:10
2-Jan-00 12:20 110.5 2-Jan-00 12:20
2-Jan-00 12:30 98.5 2-Jan-00 12:30
2-Jan-00 12:40 87.6 2-Jan-00 12:40
2-Jan-00 12:50 77.7 2-Jan-00 12:50
2-Jan-00 13:00 68.7 2-Jan-00 13:00
2-Jan-00 13:10 60.5 2-Jan-00 13:10
2-Jan-00 13:20 53.2 2-Jan-00 13:20
2-Jan-00 13:30 46.7 2-Jan-00 13:30
2-Jan-00 13:40 40.8 2-Jan-00 13:40
2-Jan-00 13:50 35.6 2-Jan-00 13:50
2-Jan-00 14:00 31 2-Jan-00 14:00
2-Jan-00 14:10 26.9 2-Jan-00 14:10
2-Jan-00 14:20 23.3 2-Jan-00 14:20
2-Jan-00 14:30 20.1 2-Jan-00 14:30
2-Jan-00 14:40 17.3 2-Jan-00 14:40
2-Jan-00 14:50 14.9 2-Jan-00 14:50
2-Jan-00 15:00 12.8 2-Jan-00 15:00
2-Jan-00 15:10 10.9 2-Jan-00 15:10
2-Jan-00 15:20 9.4 2-Jan-00 15:20
2-Jan-00 15:30 8 2-Jan-00 15:30
2-Jan-00 15:40 6.8 2-Jan-00 15:40
2-Jan-00 15:50 5.7 2-Jan-00 15:50
2-Jan-00 16:00 4.9 2-Jan-00 16:00
2-Jan-00 16:10 4.1 2-Jan-00 16:10
2-Jan-00 16:20 3.5 2-Jan-00 16:20
2-Jan-00 16:30 2.9 2-Jan-00 16:30
2-Jan-00 16:40 2.4 2-Jan-00 16:40
2-Jan-00 16:50 2 2-Jan-00 16:50
2-Jan-00 17:00 1.7 2-Jan-00 17:00
2-Jan-00 17:10 1.4 2-Jan-00 17:10
2-Jan-00 17:20 1.2 2-Jan-00 17:20
2-Jan-00 17:30 1 2-Jan-00 17:30
2-Jan-00 17:40 0.8 2-Jan-00 17:40
2-Jan-00 17:50 0.7 2-Jan-00 17:50
2-Jan-00 18:00 0.6 2-Jan-00 18:00
2-Jan-00 18:10 0.5 2-Jan-00 18:10
2-Jan-00 18:20 0.4 2-Jan-00 18:20
2-Jan-00 18:30 0.3 2-Jan-00 18:30
2-Jan-00 18:40 0.3 2-Jan-00 18:40
2-Jan-00 18:50 0.2 2-Jan-00 18:50
2-Jan-00 19:00 0.2 2-Jan-00 19:00
2-Jan-00 19:10 0.1 2-Jan-00 19:10
2-Jan-00 19:20 0.1 2-Jan-00 19:20
2-Jan-00 19:30 0.1 2-Jan-00 19:30
2-Jan-00 19:40 0.1 2-Jan-00 19:40
2-Jan-00 19:50 0.1 2-Jan-00 19:50
2-Jan-00 20:00 0 2-Jan-00 20:00
2-Jan-00 20:10 0 2-Jan-00 20:10
2-Jan-00 20:20 0 2-Jan-00 20:20
2-Jan-00 20:30 0 2-Jan-00 20:30
2-Jan-00 20:40 0 2-Jan-00 20:40
2-Jan-00 20:50 0 2-Jan-00 20:50
2-Jan-00 21:00 0 2-Jan-00 21:00
2-Jan-00 21:10 0 2-Jan-00 21:10
2-Jan-00 21:20 0 2-Jan-00 21:20
2-Jan-00 21:30 0 2-Jan-00 21:30
2-Jan-00 21:40 0 2-Jan-00 21:40
2-Jan-00 21:50 0 2-Jan-00 21:50
2-Jan-00 22:00 0 2-Jan-00 22:00
2-Jan-00 22:10 0 2-Jan-00 22:10
2-Jan-00 22:20 0 2-Jan-00 22:20
2-Jan-00 22:30 0 2-Jan-00 22:30
2-Jan-00 22:40 0 2-Jan-00 22:40
2-Jan-00 22:50 0 2-Jan-00 22:50
2-Jan-00 23:00 0 2-Jan-00 23:00
2-Jan-00 23:10 0 2-Jan-00 23:10
2-Jan-00 23:20 0 2-Jan-00 23:20
2-Jan-00 23:30 0 2-Jan-00 23:30
2-Jan-00 23:40 0 2-Jan-00 23:40
2-Jan-00 23:50 0 2-Jan-00 23:50
3-Jan-00 0:00 0 3-Jan-00 0:00
3-Jan-00 0:10 0 3-Jan-00 0:10
3-Jan-00 0:20 0 3-Jan-00 0:20
3-Jan-00 0:30 0 3-Jan-00 0:30
3-Jan-00 0:40 0 3-Jan-00 0:40
3-Jan-00 0:50 0 3-Jan-00 0:50
3-Jan-00 1:00 0 3-Jan-00 1:00
3-Jan-00 1:10 0 3-Jan-00 1:10
3-Jan-00 1:20 0 3-Jan-00 1:20
3-Jan-00 1:30 0 3-Jan-00 1:30
3-Jan-00 1:40 0 3-Jan-00 1:40
3-Jan-00 1:50 0 3-Jan-00 1:50
3-Jan-00 2:00 0 3-Jan-00 2:00
3-Jan-00 2:10 0 3-Jan-00 2:10
3-Jan-00 2:20 0 3-Jan-00 2:20
3-Jan-00 2:30 0 3-Jan-00 2:30
3-Jan-00 2:40 0 3-Jan-00 2:40
3-Jan-00 2:50 0 3-Jan-00 2:50
3-Jan-00 3:00 0 3-Jan-00 3:00
3-Jan-00 3:10 0 3-Jan-00 3:10
3-Jan-00 3:20 0 3-Jan-00 3:20
3-Jan-00 3:30 0 3-Jan-00 3:30
3-Jan-00 3:40 0 3-Jan-00 3:40
3-Jan-00 3:50 0 3-Jan-00 3:50
3-Jan-00 4:00 0 3-Jan-00 4:00
3-Jan-00 4:10 0 3-Jan-00 4:10
3-Jan-00 4:20 0 3-Jan-00 4:20
3-Jan-00 4:30 0 3-Jan-00 4:30
3-Jan-00 4:40 0 3-Jan-00 4:40
3-Jan-00 4:50 0 3-Jan-00 4:50
3-Jan-00 5:00 0 3-Jan-00 5:00
3-Jan-00 5:10 0 3-Jan-00 5:10
3-Jan-00 5:20 0 3-Jan-00 5:20
3-Jan-00 5:30 0 3-Jan-00 5:30
3-Jan-00 5:40 0 3-Jan-00 5:40
3-Jan-00 5:50 0 3-Jan-00 5:50
3-Jan-00 6:00 0 3-Jan-00 6:00
3-Jan-00 6:10 0 3-Jan-00 6:10
3-Jan-00 6:20 0 3-Jan-00 6:20
3-Jan-00 6:30 0 3-Jan-00 6:30
3-Jan-00 6:40 0 3-Jan-00 6:40
3-Jan-00 6:50 0 3-Jan-00 6:50
3-Jan-00 7:00 0 3-Jan-00 7:00
3-Jan-00 7:10 0 3-Jan-00 7:10
3-Jan-00 7:20 0 3-Jan-00 7:20
3-Jan-00 7:30 0 3-Jan-00 7:30
3-Jan-00 7:40 0 3-Jan-00 7:40
3-Jan-00 7:50 0 3-Jan-00 7:50
3-Jan-00 8:00 0 3-Jan-00 8:00
3-Jan-00 8:10 0 3-Jan-00 8:10
3-Jan-00 8:20 0 3-Jan-00 8:20
3-Jan-00 8:30 0 3-Jan-00 8:30
3-Jan-00 8:40 0 3-Jan-00 8:40
3-Jan-00 8:50 0 3-Jan-00 8:50
3-Jan-00 9:00 0 3-Jan-00 9:00
3-Jan-00 9:10 0 3-Jan-00 9:10
3-Jan-00 9:20 0 3-Jan-00 9:20
3-Jan-00 9:30 0 3-Jan-00 9:30
3-Jan-00 9:40 0 3-Jan-00 9:40
3-Jan-00 9:50 0 3-Jan-00 9:50
3-Jan-00 10:00 0 3-Jan-00 10:00
3-Jan-00 10:10 0 3-Jan-00 10:10
3-Jan-00 10:20 0 3-Jan-00 10:20
3-Jan-00 10:30 0 3-Jan-00 10:30
3-Jan-00 10:40 0 3-Jan-00 10:40
3-Jan-00 10:50 0 3-Jan-00 10:50
3-Jan-00 11:00 0 3-Jan-00 11:00
3-Jan-00 11:10 0 3-Jan-00 11:10
3-Jan-00 11:20 0 3-Jan-00 11:20
3-Jan-00 11:30 0 3-Jan-00 11:30
3-Jan-00 11:40 0 3-Jan-00 11:40
3-Jan-00 11:50 0 3-Jan-00 11:50
3-Jan-00 12:00 0 3-Jan-00 12:00
3-Jan-00 12:10 0 3-Jan-00 12:10
3-Jan-00 12:20 0 3-Jan-00 12:20
3-Jan-00 12:30 0 3-Jan-00 12:30
3-Jan-00 12:40 0 3-Jan-00 12:40
3-Jan-00 12:50 0 3-Jan-00 12:50
3-Jan-00 13:00 0 3-Jan-00 13:00
3-Jan-00 13:10 0 3-Jan-00 13:10
3-Jan-00 13:20 0 3-Jan-00 13:20
3-Jan-00 13:30 0 3-Jan-00 13:30
3-Jan-00 13:40 0 3-Jan-00 13:40
3-Jan-00 13:50 0 3-Jan-00 13:50
3-Jan-00 14:00 0 3-Jan-00 14:00
3-Jan-00 14:10 0 3-Jan-00 14:10
3-Jan-00 14:20 0 3-Jan-00 14:20
3-Jan-00 14:30 0 3-Jan-00 14:30
3-Jan-00 14:40 0 3-Jan-00 14:40
3-Jan-00 14:50 0 3-Jan-00 14:50
3-Jan-00 15:00 0 3-Jan-00 15:00
3-Jan-00 15:10 0 3-Jan-00 15:10
3-Jan-00 15:20 0 3-Jan-00 15:20
3-Jan-00 15:30 0 3-Jan-00 15:30
3-Jan-00 15:40 0 3-Jan-00 15:40
3-Jan-00 15:50 0 3-Jan-00 15:50
3-Jan-00 16:00 0 3-Jan-00 16:00
3-Jan-00 16:10 0 3-Jan-00 16:10
3-Jan-00 16:20 0 3-Jan-00 16:20
3-Jan-00 16:30 0 3-Jan-00 16:30
3-Jan-00 16:40 0 3-Jan-00 16:40
3-Jan-00 16:50 0 3-Jan-00 16:50
3-Jan-00 17:00 0 3-Jan-00 17:00
3-Jan-00 17:10 0 3-Jan-00 17:10
3-Jan-00 17:20 0 3-Jan-00 17:20
3-Jan-00 17:30 0 3-Jan-00 17:30
3-Jan-00 17:40 0 3-Jan-00 17:40
3-Jan-00 17:50 0 3-Jan-00 17:50
3-Jan-00 18:00 0 3-Jan-00 18:00
3-Jan-00 18:10 0 3-Jan-00 18:10
3-Jan-00 18:20 0 3-Jan-00 18:20
3-Jan-00 18:30 0 3-Jan-00 18:30
3-Jan-00 18:40 0 3-Jan-00 18:40
3-Jan-00 18:50 0 3-Jan-00 18:50
3-Jan-00 19:00 0 3-Jan-00 19:00
3-Jan-00 19:10 0 3-Jan-00 19:10
3-Jan-00 19:20 0 3-Jan-00 19:20
3-Jan-00 19:30 0 3-Jan-00 19:30
3-Jan-00 19:40 0 3-Jan-00 19:40
3-Jan-00 19:50 0 3-Jan-00 19:50
3-Jan-00 20:00 0 3-Jan-00 20:00
3-Jan-00 20:10 0 3-Jan-00 20:10
3-Jan-00 20:20 0 3-Jan-00 20:20
3-Jan-00 20:30 0 3-Jan-00 20:30
3-Jan-00 20:40 0 3-Jan-00 20:40
3-Jan-00 20:50 0 3-Jan-00 20:50
3-Jan-00 21:00 0 3-Jan-00 21:00
3-Jan-00 21:10 0 3-Jan-00 21:10
3-Jan-00 21:20 0 3-Jan-00 21:20
3-Jan-00 21:30 0 3-Jan-00 21:30
3-Jan-00 21:40 0 3-Jan-00 21:40
3-Jan-00 21:50 0 3-Jan-00 21:50
3-Jan-00 22:00 0 3-Jan-00 22:00
3-Jan-00 22:10 0 3-Jan-00 22:10
3-Jan-00 22:20 0 3-Jan-00 22:20
3-Jan-00 22:30 0 3-Jan-00 22:30
3-Jan-00 22:40 0 3-Jan-00 22:40
3-Jan-00 22:50 0 3-Jan-00 22:50
3-Jan-00 23:00 0 3-Jan-00 23:00
3-Jan-00 23:10 0 3-Jan-00 23:10
3-Jan-00 23:20 0 3-Jan-00 23:20
3-Jan-00 23:30 0 3-Jan-00 23:30
3-Jan-00 23:40 0 3-Jan-00 23:40
3-Jan-00 23:50 0 3-Jan-00 23:50
4-Jan-00 0:00 0 4-Jan-00 0:00
4-Jan-00 0:10 0 4-Jan-00 0:10
4-Jan-00 0:20 0 4-Jan-00 0:20
4-Jan-00 0:30 0 4-Jan-00 0:30
4-Jan-00 0:40 0 4-Jan-00 0:40
4-Jan-00 0:50 0 4-Jan-00 0:50
4-Jan-00 1:00 0 4-Jan-00 1:00
4-Jan-00 1:10 0 4-Jan-00 1:10
4-Jan-00 1:20 0 4-Jan-00 1:20
4-Jan-00 1:30 0 4-Jan-00 1:30
4-Jan-00 1:40 0 4-Jan-00 1:40
4-Jan-00 1:50 0 4-Jan-00 1:50
4-Jan-00 2:00 0 4-Jan-00 2:00
4-Jan-00 2:10 0 4-Jan-00 2:10
4-Jan-00 2:20 0 4-Jan-00 2:20
4-Jan-00 2:30 0 4-Jan-00 2:30
4-Jan-00 2:40 0 4-Jan-00 2:40
4-Jan-00 2:50 0 4-Jan-00 2:50
4-Jan-00 3:00 0 4-Jan-00 3:00
4-Jan-00 3:10 0 4-Jan-00 3:10
4-Jan-00 3:20 0 4-Jan-00 3:20
4-Jan-00 3:30 0 4-Jan-00 3:30
4-Jan-00 3:40 0 4-Jan-00 3:40
4-Jan-00 3:50 0 4-Jan-00 3:50
4-Jan-00 4:00 0 4-Jan-00 4:00
4-Jan-00 4:10 0 4-Jan-00 4:10
4-Jan-00 4:20 0 4-Jan-00 4:20
4-Jan-00 4:30 0 4-Jan-00 4:30
4-Jan-00 4:40 0 4-Jan-00 4:40
4-Jan-00 4:50 0 4-Jan-00 4:50
4-Jan-00 5:00 0 4-Jan-00 5:00
4-Jan-00 5:10 0 4-Jan-00 5:10
4-Jan-00 5:20 0 4-Jan-00 5:20
4-Jan-00 5:30 0 4-Jan-00 5:30
4-Jan-00 5:40 0 4-Jan-00 5:40
4-Jan-00 5:50 0 4-Jan-00 5:50
4-Jan-00 6:00 0 4-Jan-00 6:00
4-Jan-00 6:10 0 4-Jan-00 6:10
4-Jan-00 6:20 0 4-Jan-00 6:20
4-Jan-00 6:30 0 4-Jan-00 6:30
4-Jan-00 6:40 0 4-Jan-00 6:40
4-Jan-00 6:50 0 4-Jan-00 6:50
4-Jan-00 7:00 0 4-Jan-00 7:00
4-Jan-00 7:10 0 4-Jan-00 7:10
4-Jan-00 7:20 0 4-Jan-00 7:20
4-Jan-00 7:30 0 4-Jan-00 7:30
4-Jan-00 7:40 0 4-Jan-00 7:40
4-Jan-00 7:50 0 4-Jan-00 7:50
4-Jan-00 8:00 0 4-Jan-00 8:00
4-Jan-00 8:10 0 4-Jan-00 8:10
4-Jan-00 8:20 0 4-Jan-00 8:20
4-Jan-00 8:30 0 4-Jan-00 8:30
4-Jan-00 8:40 0 4-Jan-00 8:40
4-Jan-00 8:50 0 4-Jan-00 8:50
4-Jan-00 9:00 0 4-Jan-00 9:00
4-Jan-00 9:10 0 4-Jan-00 9:10
4-Jan-00 9:20 0 4-Jan-00 9:20
4-Jan-00 9:30 0 4-Jan-00 9:30
4-Jan-00 9:40 0 4-Jan-00 9:40
4-Jan-00 9:50 0 4-Jan-00 9:50
4-Jan-00 10:00 0 4-Jan-00 10:00
4-Jan-00 10:10 0 4-Jan-00 10:10
4-Jan-00 10:20 0 4-Jan-00 10:20
4-Jan-00 10:30 0 4-Jan-00 10:30
4-Jan-00 10:40 0 4-Jan-00 10:40
4-Jan-00 10:50 0 4-Jan-00 10:50
4-Jan-00 11:00 0 4-Jan-00 11:00
4-Jan-00 11:10 0 4-Jan-00 11:10
4-Jan-00 11:20 0 4-Jan-00 11:20
4-Jan-00 11:30 0 4-Jan-00 11:30
4-Jan-00 11:40 0 4-Jan-00 11:40
4-Jan-00 11:50 0 4-Jan-00 11:50
4-Jan-00 12:00 0 4-Jan-00 12:00
4-Jan-00 12:10 0 4-Jan-00 12:10
4-Jan-00 12:20 0 4-Jan-00 12:20
4-Jan-00 12:30 0 4-Jan-00 12:30
4-Jan-00 12:40 0 4-Jan-00 12:40
4-Jan-00 12:50 0 4-Jan-00 12:50
4-Jan-00 13:00 0 4-Jan-00 13:00
4-Jan-00 13:10 0 4-Jan-00 13:10
4-Jan-00 13:20 0 4-Jan-00 13:20
4-Jan-00 13:30 0 4-Jan-00 13:30
4-Jan-00 13:40 0 4-Jan-00 13:40
4-Jan-00 13:50 0 4-Jan-00 13:50
4-Jan-00 14:00 0 4-Jan-00 14:00
4-Jan-00 14:10 0 4-Jan-00 14:10
4-Jan-00 14:20 0 4-Jan-00 14:20
4-Jan-00 14:30 0 4-Jan-00 14:30
4-Jan-00 14:40 0 4-Jan-00 14:40
4-Jan-00 14:50 0 4-Jan-00 14:50
4-Jan-00 15:00 0 4-Jan-00 15:00
4-Jan-00 15:10 0 4-Jan-00 15:10
4-Jan-00 15:20 0 4-Jan-00 15:20
4-Jan-00 15:30 0 4-Jan-00 15:30
4-Jan-00 15:40 0 4-Jan-00 15:40
4-Jan-00 15:50 0 4-Jan-00 15:50
4-Jan-00 16:00 0 4-Jan-00 16:00
4-Jan-00 16:10 0 4-Jan-00 16:10
4-Jan-00 16:20 0 4-Jan-00 16:20
4-Jan-00 16:30 0 4-Jan-00 16:30
4-Jan-00 16:40 0 4-Jan-00 16:40
4-Jan-00 16:50 0 4-Jan-00 16:50
4-Jan-00 17:00 0 4-Jan-00 17:00
4-Jan-00 17:10 0 4-Jan-00 17:10
4-Jan-00 17:20 0 4-Jan-00 17:20
4-Jan-00 17:30 0 4-Jan-00 17:30
4-Jan-00 17:40 0 4-Jan-00 17:40
4-Jan-00 17:50 0 4-Jan-00 17:50
4-Jan-00 18:00 0 4-Jan-00 18:00
4-Jan-00 18:10 0 4-Jan-00 18:10
4-Jan-00 18:20 0 4-Jan-00 18:20
4-Jan-00 18:30 0 4-Jan-00 18:30
4-Jan-00 18:40 0 4-Jan-00 18:40
4-Jan-00 18:50 0 4-Jan-00 18:50
4-Jan-00 19:00 0 4-Jan-00 19:00
4-Jan-00 19:10 0 4-Jan-00 19:10
4-Jan-00 19:20 0 4-Jan-00 19:20
4-Jan-00 19:30 0 4-Jan-00 19:30
4-Jan-00 19:40 0 4-Jan-00 19:40
4-Jan-00 19:50 0 4-Jan-00 19:50
4-Jan-00 20:00 0 4-Jan-00 20:00
4-Jan-00 20:10 0 4-Jan-00 20:10
4-Jan-00 20:20 0 4-Jan-00 20:20
4-Jan-00 20:30 0 4-Jan-00 20:30
4-Jan-00 20:40 0 4-Jan-00 20:40
4-Jan-00 20:50 0 4-Jan-00 20:50
4-Jan-00 21:00 0 4-Jan-00 21:00
4-Jan-00 21:10 0 4-Jan-00 21:10
4-Jan-00 21:20 0 4-Jan-00 21:20
4-Jan-00 21:30 0 4-Jan-00 21:30
4-Jan-00 21:40 0 4-Jan-00 21:40
4-Jan-00 21:50 0 4-Jan-00 21:50
4-Jan-00 22:00 0 4-Jan-00 22:00
4-Jan-00 22:10 0 4-Jan-00 22:10
4-Jan-00 22:20 0 4-Jan-00 22:20
4-Jan-00 22:30 0 4-Jan-00 22:30
4-Jan-00 22:40 0 4-Jan-00 22:40
4-Jan-00 22:50 0 4-Jan-00 22:50
4-Jan-00 23:00 0 4-Jan-00 23:00
4-Jan-00 23:10 0 4-Jan-00 23:10
4-Jan-00 23:20 0 4-Jan-00 23:20
4-Jan-00 23:30 0 4-Jan-00 23:30
4-Jan-00 23:40 0 4-Jan-00 23:40
4-Jan-00 23:50 0 4-Jan-00 23:50
5-Jan-00 0:00 0 5-Jan-00 0:00
5-Jan-00 0:10 0 5-Jan-00 0:10
5-Jan-00 0:20 0 5-Jan-00 0:20
5-Jan-00 0:30 0 5-Jan-00 0:30
5-Jan-00 0:40 0 5-Jan-00 0:40
5-Jan-00 0:50 0 5-Jan-00 0:50
5-Jan-00 1:00 0 5-Jan-00 1:00
5-Jan-00 1:10 0 5-Jan-00 1:10
5-Jan-00 1:20 0 5-Jan-00 1:20
5-Jan-00 1:30 0 5-Jan-00 1:30
5-Jan-00 1:40 0 5-Jan-00 1:40
5-Jan-00 1:50 0 5-Jan-00 1:50
5-Jan-00 2:00 0 5-Jan-00 2:00
5-Jan-00 2:10 0 5-Jan-00 2:10
5-Jan-00 2:20 0 5-Jan-00 2:20
5-Jan-00 2:30 0 5-Jan-00 2:30
5-Jan-00 2:40 0 5-Jan-00 2:40
5-Jan-00 2:50 0 5-Jan-00 2:50
5-Jan-00 3:00 0 5-Jan-00 3:00
5-Jan-00 3:10 0 5-Jan-00 3:10
5-Jan-00 3:20 0 5-Jan-00 3:20
5-Jan-00 3:30 0 5-Jan-00 3:30
5-Jan-00 3:40 0 5-Jan-00 3:40
5-Jan-00 3:50 0 5-Jan-00 3:50
5-Jan-00 4:00 0 5-Jan-00 4:00
5-Jan-00 4:10 0 5-Jan-00 4:10
5-Jan-00 4:20 0 5-Jan-00 4:20
5-Jan-00 4:30 0 5-Jan-00 4:30
5-Jan-00 4:40 0 5-Jan-00 4:40
5-Jan-00 4:50 0 5-Jan-00 4:50
5-Jan-00 5:00 0 5-Jan-00 5:00
5-Jan-00 5:10 0 5-Jan-00 5:10
5-Jan-00 5:20 0 5-Jan-00 5:20
5-Jan-00 5:30 0 5-Jan-00 5:30
5-Jan-00 5:40 0 5-Jan-00 5:40
5-Jan-00 5:50 0 5-Jan-00 5:50
5-Jan-00 6:00 0 5-Jan-00 6:00
5-Jan-00 6:10 0 5-Jan-00 6:10
5-Jan-00 6:20 0 5-Jan-00 6:20
5-Jan-00 6:30 0 5-Jan-00 6:30
5-Jan-00 6:40 0 5-Jan-00 6:40
5-Jan-00 6:50 0 5-Jan-00 6:50
5-Jan-00 7:00 0 5-Jan-00 7:00
5-Jan-00 7:10 0 5-Jan-00 7:10
5-Jan-00 7:20 0 5-Jan-00 7:20
5-Jan-00 7:30 0 5-Jan-00 7:30
5-Jan-00 7:40 0 5-Jan-00 7:40
5-Jan-00 7:50 0 5-Jan-00 7:50
5-Jan-00 8:00 0 5-Jan-00 8:00
5-Jan-00 8:10 0 5-Jan-00 8:10
5-Jan-00 8:20 0 5-Jan-00 8:20
5-Jan-00 8:30 0 5-Jan-00 8:30
5-Jan-00 8:40 0 5-Jan-00 8:40
5-Jan-00 8:50 0 5-Jan-00 8:50
5-Jan-00 9:00 0 5-Jan-00 9:00
5-Jan-00 9:10 0 5-Jan-00 9:10
5-Jan-00 9:20 0 5-Jan-00 9:20
5-Jan-00 9:30 0 5-Jan-00 9:30
5-Jan-00 9:40 0 5-Jan-00 9:40
5-Jan-00 9:50 0 5-Jan-00 9:50
5-Jan-00 10:00 0 5-Jan-00 10:00
5-Jan-00 10:10 0 5-Jan-00 10:10
5-Jan-00 10:20 0 5-Jan-00 10:20
5-Jan-00 10:30 0 5-Jan-00 10:30
5-Jan-00 10:40 0 5-Jan-00 10:40
5-Jan-00 10:50 0 5-Jan-00 10:50
5-Jan-00 11:00 0 5-Jan-00 11:00
5-Jan-00 11:10 0 5-Jan-00 11:10
5-Jan-00 11:20 0 5-Jan-00 11:20
5-Jan-00 11:30 0 5-Jan-00 11:30
5-Jan-00 11:40 0 5-Jan-00 11:40
5-Jan-00 11:50 0 5-Jan-00 11:50
5-Jan-00 12:00 0 5-Jan-00 12:00
5-Jan-00 12:10 0 5-Jan-00 12:10
5-Jan-00 12:20 0 5-Jan-00 12:20
5-Jan-00 12:30 0 5-Jan-00 12:30
5-Jan-00 12:40 0 5-Jan-00 12:40
5-Jan-00 12:50 0 5-Jan-00 12:50
5-Jan-00 13:00 0 5-Jan-00 13:00
5-Jan-00 13:10 0 5-Jan-00 13:10
5-Jan-00 13:20 0 5-Jan-00 13:20
5-Jan-00 13:30 0 5-Jan-00 13:30
5-Jan-00 13:40 0 5-Jan-00 13:40
5-Jan-00 13:50 0 5-Jan-00 13:50
5-Jan-00 14:00 0 5-Jan-00 14:00
5-Jan-00 14:10 0 5-Jan-00 14:10
5-Jan-00 14:20 0 5-Jan-00 14:20
5-Jan-00 14:30 0 5-Jan-00 14:30
5-Jan-00 14:40 0 5-Jan-00 14:40
5-Jan-00 14:50 0 5-Jan-00 14:50
5-Jan-00 15:00 0 5-Jan-00 15:00
5-Jan-00 15:10 0 5-Jan-00 15:10
5-Jan-00 15:20 0 5-Jan-00 15:20
5-Jan-00 15:30 0 5-Jan-00 15:30
5-Jan-00 15:40 0 5-Jan-00 15:40
5-Jan-00 15:50 0 5-Jan-00 15:50
5-Jan-00 16:00 0 5-Jan-00 16:00
5-Jan-00 16:10 0 5-Jan-00 16:10
5-Jan-00 16:20 0 5-Jan-00 16:20
5-Jan-00 16:30 0 5-Jan-00 16:30
5-Jan-00 16:40 0 5-Jan-00 16:40
5-Jan-00 16:50 0 5-Jan-00 16:50
5-Jan-00 17:00 0 5-Jan-00 17:00
5-Jan-00 17:10 0 5-Jan-00 17:10
5-Jan-00 17:20 0 5-Jan-00 17:20
5-Jan-00 17:30 0 5-Jan-00 17:30
5-Jan-00 17:40 0 5-Jan-00 17:40
5-Jan-00 17:50 0 5-Jan-00 17:50
5-Jan-00 18:00 0 5-Jan-00 18:00
5-Jan-00 18:10 0 5-Jan-00 18:10
5-Jan-00 18:20 0 5-Jan-00 18:20
5-Jan-00 18:30 0 5-Jan-00 18:30
5-Jan-00 18:40 0 5-Jan-00 18:40
5-Jan-00 18:50 0 5-Jan-00 18:50
5-Jan-00 19:00 0 5-Jan-00 19:00
5-Jan-00 19:10 0 5-Jan-00 19:10
5-Jan-00 19:20 0 5-Jan-00 19:20
5-Jan-00 19:30 0 5-Jan-00 19:30
5-Jan-00 19:40 0 5-Jan-00 19:40
5-Jan-00 19:50 0 5-Jan-00 19:50
5-Jan-00 20:00 0 5-Jan-00 20:00
5-Jan-00 20:10 0 5-Jan-00 20:10
5-Jan-00 20:20 0 5-Jan-00 20:20
5-Jan-00 20:30 0 5-Jan-00 20:30
5-Jan-00 20:40 0 5-Jan-00 20:40
5-Jan-00 20:50 0 5-Jan-00 20:50
5-Jan-00 21:00 0 5-Jan-00 21:00
5-Jan-00 21:10 0 5-Jan-00 21:10
5-Jan-00 21:20 0 5-Jan-00 21:20
5-Jan-00 21:30 0 5-Jan-00 21:30
5-Jan-00 21:40 0 5-Jan-00 21:40
5-Jan-00 21:50 0 5-Jan-00 21:50
5-Jan-00 22:00 0 5-Jan-00 22:00
5-Jan-00 22:10 0 5-Jan-00 22:10
5-Jan-00 22:20 0 5-Jan-00 22:20
5-Jan-00 22:30 0 5-Jan-00 22:30
5-Jan-00 22:40 0 5-Jan-00 22:40
5-Jan-00 22:50 0 5-Jan-00 22:50
5-Jan-00 23:00 0 5-Jan-00 23:00
5-Jan-00 23:10 0 5-Jan-00 23:10
5-Jan-00 23:20 0 5-Jan-00 23:20
5-Jan-00 23:30 0 5-Jan-00 23:30
5-Jan-00 23:40 0 5-Jan-00 23:40
5-Jan-00 23:50 0 5-Jan-00 23:50
6-Jan-00 0:00 0 6-Jan-00 0:00
6-Jan-00 0:10 0 6-Jan-00 0:10
6-Jan-00 0:20 0 6-Jan-00 0:20
6-Jan-00 0:30 0 6-Jan-00 0:30
6-Jan-00 0:40 0 6-Jan-00 0:40
6-Jan-00 0:50 0 6-Jan-00 0:50
6-Jan-00 1:00 0 6-Jan-00 1:00
6-Jan-00 1:10 0 6-Jan-00 1:10
6-Jan-00 1:20 0 6-Jan-00 1:20
6-Jan-00 1:30 0 6-Jan-00 1:30
6-Jan-00 1:40 0 6-Jan-00 1:40
6-Jan-00 1:50 0 6-Jan-00 1:50
6-Jan-00 2:00 0 6-Jan-00 2:00
6-Jan-00 2:10 0 6-Jan-00 2:10
6-Jan-00 2:20 0 6-Jan-00 2:20
6-Jan-00 2:30 0 6-Jan-00 2:30
6-Jan-00 2:40 0 6-Jan-00 2:40
6-Jan-00 2:50 0 6-Jan-00 2:50
6-Jan-00 3:00 0 6-Jan-00 3:00
6-Jan-00 3:10 0 6-Jan-00 3:10
6-Jan-00 3:20 0 6-Jan-00 3:20
6-Jan-00 3:30 0 6-Jan-00 3:30
6-Jan-00 3:40 0 6-Jan-00 3:40
6-Jan-00 3:50 0 6-Jan-00 3:50
6-Jan-00 4:00 0 6-Jan-00 4:00
6-Jan-00 4:10 0 6-Jan-00 4:10
6-Jan-00 4:20 0 6-Jan-00 4:20
6-Jan-00 4:30 0 6-Jan-00 4:30
6-Jan-00 4:40 0 6-Jan-00 4:40
6-Jan-00 4:50 0 6-Jan-00 4:50
6-Jan-00 5:00 0 6-Jan-00 5:00
6-Jan-00 5:10 0 6-Jan-00 5:10
6-Jan-00 5:20 0 6-Jan-00 5:20
6-Jan-00 5:30 0 6-Jan-00 5:30
6-Jan-00 5:40 0 6-Jan-00 5:40
6-Jan-00 5:50 0 6-Jan-00 5:50
6-Jan-00 6:00 0 6-Jan-00 6:00
6-Jan-00 6:10 0 6-Jan-00 6:10
6-Jan-00 6:20 0 6-Jan-00 6:20
6-Jan-00 6:30 0 6-Jan-00 6:30
6-Jan-00 6:40 0 6-Jan-00 6:40
6-Jan-00 6:50 0 6-Jan-00 6:50
6-Jan-00 7:00 0 6-Jan-00 7:00
6-Jan-00 7:10 0 6-Jan-00 7:10
6-Jan-00 7:20 0 6-Jan-00 7:20
6-Jan-00 7:30 0 6-Jan-00 7:30
6-Jan-00 7:40 0 6-Jan-00 7:40
6-Jan-00 7:50 0 6-Jan-00 7:50
6-Jan-00 8:00 0 6-Jan-00 8:00
6-Jan-00 8:10 0 6-Jan-00 8:10
6-Jan-00 8:20 0 6-Jan-00 8:20
6-Jan-00 8:30 0 6-Jan-00 8:30
6-Jan-00 8:40 0 6-Jan-00 8:40
6-Jan-00 8:50 0 6-Jan-00 8:50
6-Jan-00 9:00 0 6-Jan-00 9:00
6-Jan-00 9:10 0 6-Jan-00 9:10
6-Jan-00 9:20 0 6-Jan-00 9:20
6-Jan-00 9:30 0 6-Jan-00 9:30
6-Jan-00 9:40 0 6-Jan-00 9:40
6-Jan-00 9:50 0 6-Jan-00 9:50
6-Jan-00 10:00 0 6-Jan-00 10:00
6-Jan-00 10:10 0 6-Jan-00 10:10
6-Jan-00 10:20 0 6-Jan-00 10:20
6-Jan-00 10:30 0 6-Jan-00 10:30
6-Jan-00 10:40 0 6-Jan-00 10:40
6-Jan-00 10:50 0 6-Jan-00 10:50
6-Jan-00 11:00 0 6-Jan-00 11:00
6-Jan-00 11:10 0 6-Jan-00 11:10
6-Jan-00 11:20 0 6-Jan-00 11:20
6-Jan-00 11:30 0 6-Jan-00 11:30
6-Jan-00 11:40 0 6-Jan-00 11:40
6-Jan-00 11:50 0 6-Jan-00 11:50
6-Jan-00 12:00 0 6-Jan-00 12:00
6-Jan-00 12:10 0 6-Jan-00 12:10
6-Jan-00 12:20 0 6-Jan-00 12:20
6-Jan-00 12:30 0 6-Jan-00 12:30
6-Jan-00 12:40 0 6-Jan-00 12:40
6-Jan-00 12:50 0 6-Jan-00 12:50
6-Jan-00 13:00 0 6-Jan-00 13:00
6-Jan-00 13:10 0 6-Jan-00 13:10
6-Jan-00 13:20 0 6-Jan-00 13:20
6-Jan-00 13:30 0 6-Jan-00 13:30
6-Jan-00 13:40 0 6-Jan-00 13:40
6-Jan-00 13:50 0 6-Jan-00 13:50
6-Jan-00 14:00 0 6-Jan-00 14:00
6-Jan-00 14:10 0 6-Jan-00 14:10
6-Jan-00 14:20 0 6-Jan-00 14:20
6-Jan-00 14:30 0 6-Jan-00 14:30
6-Jan-00 14:40 0 6-Jan-00 14:40
6-Jan-00 14:50 0 6-Jan-00 14:50
6-Jan-00 15:00 0 6-Jan-00 15:00
6-Jan-00 15:10 0 6-Jan-00 15:10
6-Jan-00 15:20 0 6-Jan-00 15:20
6-Jan-00 15:30 0 6-Jan-00 15:30
6-Jan-00 15:40 0 6-Jan-00 15:40
6-Jan-00 15:50 0 6-Jan-00 15:50
6-Jan-00 16:00 0 6-Jan-00 16:00
6-Jan-00 16:10 0 6-Jan-00 16:10
6-Jan-00 16:20 0 6-Jan-00 16:20
6-Jan-00 16:30 0 6-Jan-00 16:30
6-Jan-00 16:40 0 6-Jan-00 16:40
6-Jan-00 16:50 0 6-Jan-00 16:50
6-Jan-00 17:00 0 6-Jan-00 17:00
6-Jan-00 17:10 0 6-Jan-00 17:10
6-Jan-00 17:20 0 6-Jan-00 17:20
6-Jan-00 17:30 0 6-Jan-00 17:30
6-Jan-00 17:40 0 6-Jan-00 17:40
6-Jan-00 17:50 0 6-Jan-00 17:50
6-Jan-00 18:00 0 6-Jan-00 18:00
6-Jan-00 18:10 0 6-Jan-00 18:10
6-Jan-00 18:20 0 6-Jan-00 18:20
6-Jan-00 18:30 0 6-Jan-00 18:30
6-Jan-00 18:40 0 6-Jan-00 18:40
6-Jan-00 18:50 0 6-Jan-00 18:50
6-Jan-00 19:00 0 6-Jan-00 19:00
6-Jan-00 19:10 0 6-Jan-00 19:10
6-Jan-00 19:20 0 6-Jan-00 19:20
6-Jan-00 19:30 0 6-Jan-00 19:30
6-Jan-00 19:40 0 6-Jan-00 19:40
6-Jan-00 19:50 0 6-Jan-00 19:50
6-Jan-00 20:00 0 6-Jan-00 20:00
6-Jan-00 20:10 0 6-Jan-00 20:10
6-Jan-00 20:20 0 6-Jan-00 20:20
6-Jan-00 20:30 0 6-Jan-00 20:30
6-Jan-00 20:40 0 6-Jan-00 20:40
6-Jan-00 20:50 0 6-Jan-00 20:50
6-Jan-00 21:00 0 6-Jan-00 21:00
6-Jan-00 21:10 0 6-Jan-00 21:10
6-Jan-00 21:20 0 6-Jan-00 21:20
6-Jan-00 21:30 0 6-Jan-00 21:30
6-Jan-00 21:40 0 6-Jan-00 21:40
6-Jan-00 21:50 0 6-Jan-00 21:50
6-Jan-00 22:00 0 6-Jan-00 22:00
6-Jan-00 22:10 0 6-Jan-00 22:10
6-Jan-00 22:20 0 6-Jan-00 22:20
6-Jan-00 22:30 0 6-Jan-00 22:30
6-Jan-00 22:40 0 6-Jan-00 22:40
6-Jan-00 22:50 0 6-Jan-00 22:50
6-Jan-00 23:00 0 6-Jan-00 23:00
6-Jan-00 23:10 0 6-Jan-00 23:10
6-Jan-00 23:20 0 6-Jan-00 23:20
6-Jan-00 23:30 0 6-Jan-00 23:30
6-Jan-00 23:40 0 6-Jan-00 23:40
6-Jan-00 23:50 0 6-Jan-00 23:50
7-Jan-00 0:00 0 7-Jan-00 0:00
Volumen 525.28734 MMC
Max 6725.9 m3/s
Outflow (m3/s)
0
0
0
0
0
0
0
0
0
0
0
0
0
0
0
0
0
0
0
0
0
0
0
0
0
0
0
0
0
0
0
0
0
0
0
0
0
0
0
0
0
0
0
0
0
0
0
0
0
0
0
0
0
0
0
0
0
0
0
0
0
0
0
0
0
0
0
0
0
0
0
0
0
0
0
0
0
0
0
0
0
0
0
0
0
0
0
0
0
0
0
0
0
0
0
0
0
0
0
0
0
0
0
0
0
0
0
0
0
0
0
0
0
0
0
0
0
0
0
0
0
0
0
0
0
0
0
0
0
0
0
0
0
0
0
0
0
0
0
0
0
0
0
0
0
0
0
0
0
0
0
0
0
0
0
0
0
0
0
0.1
0.1
0.1
0.1
0.2
0.2
0.3
0.4
0.5
0.6
0.8
1.1
1.5
1.9
2.5
3.2
4.1
5.3
6.7
8.5
10.6
13.3
16.5
20.3
24.8
30.1
36.4
43.6
52
61.6
72.4
84.7
98.5
113.8
130.7
149.3
169.6
191.6
215.3
240.6
267.6
296.1
326.1
357.5
390.1
423.8
458.5
494.1
530.3
567.1
604.3
641.8
679.5
717.3
755.1
792.9
830.5
868.1
905.6
943.1
980.5
1018
1055.5
1093.2
1131.1
1169.4
1208.2
1247.4
1287.3
1328
1369.7
1413
1458.1
1505.7
1556
1609.4
1665.9
1725.7
1788.9
1855.5
1926
2000.8
2080.1
2164.1
2252.5
2344.7
2440.3
2538.8
2639.7
2742.6
2847.5
2954.3
3063.2
3174.4
3288.5
3405.6
3526
3649.9
3777.6
3909.2
4044.6
4183.6
4326
4471.7
4619.8
4769
4917.9
5065.4
5210.4
5352.2
5489.9
5622.8
5750.3
5871.6
5985.9
6092.7
6191.3
6281.4
6362.8
6435.6
6499.7
6555.2
6602.3
6641.1
6671.9
6695.2
6711.6
6721.6
6725.9
6725.1
6719.9
6710.9
6698.5
6683.3
6665.9
6646.5
6625.6
6603.5
6580.5
6556.8
6532.8
6508.5
6484.2
6459.9
6435.8
6412
6388.7
6365.8
6343.5
6321.7
6300.7
6280.5
6261
6242.4
6224.6
6207.8
6191.8
6176.9
6162.8
6149.7
6137.4
6125.8
6114.8
6104.5
6094.5
6084.9
6075.5
6066.1
6056.7
6046.9
6036.7
6025.8
6014.2
6001.5
5987.7
5972.6
5956.2
5938.2
5918.6
5897.2
5873.9
5848.5
5820.9
5790.9
5758.4
5723
5684.9
5643.7
5599.5
5552.1
5501.3
5447.3
5389.9
5329.2
5265.2
5198.2
5128.3
5055.5
4980.2
4902.5
4822.6
4740.6
4656.9
4571.7
4485.2
4397.7
4309.4
4220.6
4131.5
4042.2
3953.1
3864.3
3776
3688.4
3601.5
3515.7
3430.8
3347.1
3264.6
3183.4
3103.6
3025.1
2948.1
2872.5
2798.3
2725.7
2654.6
2585
2516.9
2450.3
2385.2
2321.6
2259.5
2198.9
2139.7
2081.9
2025.5
1970.4
1916.8
1864.4
1813.3
1763.4
1714.8
1667.3
1621
1575.7
1531.6
1488.4
1446.3
1405.1
1364.8
1325.4
1286.9
1249.1
1212.2
1176
1140.6
1105.8
1071.8
1038.4
1005.7
973.5
942
911.1
880.8
851.1
821.9
793.3
765.2
737.7
710.8
684.4
658.6
633.4
608.7
584.6
561
538
515.7
493.8
472.6
452
431.9
412.5
393.6
375.3
357.7
340.6
324.1
308.2
292.9
278.2
264
250.4
237.4
224.9
212.9
201.5
190.6
180.2
170.3
160.9
151.9
143.4
135.3
127.7
120.5
113.6
107.1
101
95.3
89.8
84.7
79.9
75.3
71.1
67.1
63.3
59.8
56.5
53.4
50.5
47.8
45.2
42.8
40.6
38.5
36.5
34.6
32.9
31.3
29.8
28.3
27
25.7
24.5
23.4
22.3
21.3
20.4
19.5
18.6
17.8
17.1
16.4
15.7
15
14.4
13.8
13.3
12.7
12.2
11.7
11.3
10.8
10.4
10
9.6
9.2
8.9
8.5
8.2
7.9
7.6
7.3
7
6.7
6.5
6.2
6
5.7
5.5
5.3
5.1
4.9
4.7
4.5
4.3
4.1
4
3.8
3.7
3.5
3.4
3.2
3.1
3
2.8
2.7
2.6
2.5
2.4
2.3
2.2
2.1
2
1.9
1.8
1.7
1.7
1.6
1.5
1.4
1.4
1.3
1.2
1.2
1.1
1.1
1
0.9
0.9
0.8
0.8
0.8
0.7
0.7
0.6
0.6
0.6
0.5
0.5
0.5
0.4
0.4
0.4
0.4
0.3
0.3
0.3
0.3
0.2
0.2
0.2
0.2
0.2
0.2
0.2
0.1
0.1
0.1
0.1
0.1
0.1
0.1
0.1
0.1
0.1
0.1
0
0
0
0
0
0
0
0
0
0
0
0
0
0
0
0
0
0
0
0
0
0
0
0
0
0
0
0
0
0
0
0
0
0
0
0
0
0
0
0
0
0
0
0
0
0
0
0
0
0
0
0
0
0
0
0
0
0
0
0
0
0
0
0
0
0
0
0
0
0
0
0
0
0
0
0
0
0
0
0
0
0
0
0
0
0
0
0
0
0
0
0
0
0
0
0
0
0
0
0
0
0
0
0
0
0
0
0
0
0
0
0
0
0
0
0
0
0
0
0
0
0
0
0
0
0
0
0
0
0
0
0
0
0
0
0
0
0
0
0
0
0
0
0
0
0
0
0
0
0
0
0
0
0
0
0
0
0
0
0
0
0
0
0
0
0
0
0
0
0
0
0
0
0
0
0
0
0
0
0
0
0
0
0
0
0
0
0
0
0
0
0
0
0
0
0
0
0
0
0
0
0
0
0
0
0
0
0
0
0
0
0
0
0
0
0
0
0
0
0
0
0
0
0
0
0
0
0
0
0
0
0
0
0
0
0
0
0
0
0
0
0
0
0
0
0
0
0
0
0
0
0
0
0
0
0
0
HIDROGRAMAS DE AVENIDA PRESA EL ALA

4500

4000

3500

3000

2500

2000

1500

1000

500

0
6:40 7:50 9:00 10:1011:2012:3013:4014:5016:0017:1018:2019:3020:4021:5023:00 0:10 1:20 2:30 3:40 4:50 6:00 7:10 8:20 9:30 10:4011:5013:0014:1015:2016:3017:4018:5020:00

TR= 100 AÑOS TR= 500 AÑOS TR=1000 AÑOS TR= 5000 AÑOS
HIDROGRAMAS DE AVENIDA PRESA LA PEÑITA

12000

10000

8000

6000

4000

2000

0
0:00 2:30 5:00 7:30 10:00 12:30 15:00 17:30 20:00 22:30 1:00 3:30 6:00 8:30 11:00 13:30 16:00 18:30 21:00 23:30 2:00 4:30 7:00 9:30 12:00 14:30 17:00 19:30 22:00 0:30 3:00 5:30

TR= 100 AÑOS TR= 500 AÑOS TR=1000 AÑOS TR= 5000 AÑOS
Cota Area (1000 m2) Volumen(1000 m3)
130 0.63 0.31 0 0.0000
131 1.88 1.56 1255 0.0013
132 3.59 4.3 2735 0.0040
133 7.81 10 5700 0.0097
134 27.97 27.89 17890 0.0276
135 58.91 71.33 43440 0.0710
136 102.66 152.11 80785 0.1518
137 159.53 283.2 131095 0.2829
138 222.97 474.45 191250 0.4742
139 313.91 742.89 268440 0.7426
140 434.69 1117.19 374300 1.1169
141 590.31 1629.69 512500 1.6294
142 816.25 2332.97 703280 2.3327
143 1066.56 3274.38 941405 3.2741
144 1385.16 4500.23 1225860 4.4999
145 1818.59 6102.11 1601875 6.1018
146 2381.09 8201.95
2099840 8.2017
147 3048.91 10916.95 2715000 10.9167
148 3792.03 14337.42 3420470 14.3371
149 4593.13 18530.00 4192580 18.5297
150 5379.22 23516.17 4986175 23.5159
151 6274.69 29343.13 5826955 29.3428
152 7110.78 36035.86 6692735 36.0356
153 7953.59 43568.05 7532185 43.5678
154 8835.63 51962.66 8394610 51.9624
155 9700.47 61230.70 9268050 61.2304
156 10550.47 71356.17 10125470 71.3559
157 11477.50 82370.16 11013985 82.3699
158 12446.72 94332.27 11962110 94.3320
159 13469.53 107290.39 12958125 107.2901
160 14597.03 121323.67 14033280 121.3234
161 15771.41 136507.89 15184220 136.5076
162 16967.81 152877.50 16369610 152.8772
163 18193.59 170458.20 17580700 170.4579
164 19312.97 189211.48 18753280 189.2112
165 20331.41 209033.67 19822190 209.0334
166 21329.22 229863.98 20830315 229.8637
167 22430.47 251743.83 21879845 251.7435
168 23521.09 274719.61 22975780 274.7193
169 24636.09 298798.20 24078590 298.7979
170 25723.91 323978.20 25180000 323.9779
171 26801.41 350240.86 26262660 350.2406
172 27915.47 377599.30 27358440 377.5990
173 29066.72 406090.39 28491095 406.0901
174 30210.78 435729.14 29638750 435.7289
175 31331.72 466500.39 30771250 466.5001
176 32425.63 498379.06 31878675 498.3788
177 33500.78 531342.27 32963205 531.3420
178 34537.34 565361.33 34019060 565.3610
179 35542.34 600401.17 35039840 600.4009
180 36436.41 636390.55 35989375 636.3903
181 36508.28 672862.89 36472345 672.8626
182 36530.78 709382.42 36519530 709.3821
183 36542.03 745918.83 36536405 745.9185
184 36542.03 745918.83 36542030 782.4606
0
1.255 DATOS ALIVIADERO DE SUPERFICIE EL ALA
3.99
9.69 Cota cauce (m)
27.58 Cota Coronación (m)
71.02 Cota NAP (m)
151.805 Cota umbral vertedero (m)
282.9 Longitud de vertedero (m)
474.15 Altura vertedero P (m)
742.59 Altura lámina de proyecto H0 (m)
1116.89 P/H0
1629.39 Coef. de desagüe básico
2332.67
3274.075 Tabla 4.8 Curva de Desagüe Aliviadero de Superficie. El Ala
4499.935 Elaboración propia
6101.81 CURVA DE DESAGÜE. ALIVIADERO DE SUP
Nivel aguas arriba
8201.65
10916.65 Altura sobre
Cota de agua (m)vertedero
14337.12 (m)
18529.7 170 0
23515.875 170.25 0.25
29342.83 170.5 0.5
36035.565 170.75 0.75
43567.75 170.00 0 171 1
51962.36 171.00 91.96 171.25 1.25
61230.41 172.00 271.16 171.5 1.5
71355.88 173.00 518.28 171.75 1.75
82369.865 174.00 819.95 172 2
94331.975 175.00 1176.31 172.25 2.25
107290.1 176.00 1570.1 172.5 2.5
121323.38 177.00 1875.45 172.75 2.75
136507.6 173 3
152877.21 173.25 3.25
170457.91 173.5 3.5
189211.19 173.75 3.75
209033.38 174 4
229863.695 174.1 4.1
251743.54 174.2 4.2
274719.32 174.23 4.23
298797.91 174.3 4.3
323977.91 174.4 4.4
350240.57 174.5 4.5
377599.01 174.6 4.6
406090.105 174.7 4.7
435728.855 174.8 4.8
466500.105 174.9 4.9
498378.78 175 5
531341.985 175.1 5.1
565361.045 175.2 5.2
600400.885 175.3 5.3
636390.26 175.4 5.4
672862.605 175.5 5.5
709382.135 175.6 5.6
745918.54 175.7 5.7
782460.57 175.8 5.8
175.9 5.9
176 6
176.1 6.1
176.2 6.2
176.3 6.3
176.4 6.4
176.5 6.5
DERO DE SUPERFICIE EL ALA

130
176.5
175
170
50
40
6
9
2.2

de Superficie. El Ala

DESAGÜE. ALIVIADERO DE SUPERFICIE EL ALA

Longitud Coeficiente
efectiva de de desagüe Caudal (m3/s)
vertido (m) corregido

50 1,700 0
49.94 1,760 10.99
49.88 1,782 31.43
49.82 1,826 59.09
49.76 1,848 91.96
49.7 1,870 129.89
49.64 1,892 172.54
49.58 1,914 219.69
49.52 1,936 271.16
49.46 1,958 326.84
49.4 1,980 386.64
49.34 2,002 450.47
49.28 2,024 518.28
49.22 2,046 590.03
49.16 2,068 665.68
49.1 2,068 737.36
49.04 2,090 819.95
49.02 2,090 850.47
48.99 2,112 890.62
48.98 2,112 900.05
48.97 2,112 922.17
48.94 2,112 954.05
48.92 2,112 986.28
48.9 2,134 1029.45
48.87 2,134 1062.68
48.85 2,134 1096.23
48.82 2,134 1130.11
48.8 2,156 1176.31
48.78 2,156 1211.18
48.75 2,156 1246.37
48.73 2,156 1281.86
48.7 2,178 1331.11
48.68 2,178 1367.58
48.66 2,178 1404.35
48.63 2,178 1441.43
48.61 2,200 1493.73
48.58 2,200 1531.77
48.56 2,200 1570.1
48.54 2,200 1608.72
48.51 2,200 1647.63
48.49 2,222 1703.68
48.46 2,222 1743.55
48.44 2,222 1783.69
Volumen 146.71908 MMC
N_Ala
Max 3604 m3/s n_PEÑITA
Date Time Outflow (m3/s) Date
1-Jan-00 0:00 0 1-Jan-00
1-Jan-00 0:10 0 1-Jan-00
1-Jan-00 0:20 0 1-Jan-00
1-Jan-00 0:30 0 1-Jan-00
1-Jan-00 0:40 0 1-Jan-00
1-Jan-00 0:50 0 1-Jan-00
1-Jan-00 1:00 0 1-Jan-00
1-Jan-00 1:10 0 1-Jan-00
1-Jan-00 1:20 0 1-Jan-00
1-Jan-00 1:30 0 1-Jan-00
1-Jan-00 1:40 0 1-Jan-00
1-Jan-00 1:50 0 1-Jan-00
1-Jan-00 2:00 0 1-Jan-00
1-Jan-00 2:10 0 1-Jan-00
1-Jan-00 2:20 0 1-Jan-00
1-Jan-00 2:30 0 1-Jan-00
1-Jan-00 2:40 0 1-Jan-00
1-Jan-00 2:50 0 1-Jan-00
1-Jan-00 3:00 0 1-Jan-00
1-Jan-00 3:10 0 1-Jan-00
1-Jan-00 3:20 0 1-Jan-00
1-Jan-00 3:30 0 1-Jan-00
1-Jan-00 3:40 0 1-Jan-00
1-Jan-00 3:50 0 1-Jan-00
1-Jan-00 4:00 0 1-Jan-00
1-Jan-00 4:10 0 1-Jan-00
1-Jan-00 4:20 0 1-Jan-00
1-Jan-00 4:30 0 1-Jan-00
1-Jan-00 4:40 0 1-Jan-00
1-Jan-00 4:50 0 1-Jan-00
1-Jan-00 5:00 0 1-Jan-00
1-Jan-00 5:10 0 1-Jan-00
1-Jan-00 5:20 0 1-Jan-00
1-Jan-00 5:30 0 1-Jan-00
1-Jan-00 5:40 0 1-Jan-00
1-Jan-00 5:50 0 1-Jan-00
1-Jan-00 6:00 0 1-Jan-00
1-Jan-00 6:10 0 1-Jan-00
1-Jan-00 6:20 0 1-Jan-00
1-Jan-00 6:30 0 1-Jan-00
1-Jan-00 6:40 0 1-Jan-00
1-Jan-00 6:50 0.2 1-Jan-00
1-Jan-00 7:00 0.5 1-Jan-00
1-Jan-00 7:10 1.1 1-Jan-00
1-Jan-00 7:20 2.1 1-Jan-00
1-Jan-00 7:30 3.3 1-Jan-00
1-Jan-00 7:40 4.9 1-Jan-00
1-Jan-00 7:50 6.5 1-Jan-00
1-Jan-00 8:00 8.3 1-Jan-00
1-Jan-00 8:10 10.5 1-Jan-00
1-Jan-00 8:20 13.3 1-Jan-00
1-Jan-00 8:30 17.2 1-Jan-00
1-Jan-00 8:40 21.7 1-Jan-00
1-Jan-00 8:50 26.6 1-Jan-00
1-Jan-00 9:00 31.5 1-Jan-00
1-Jan-00 9:10 40.8 1-Jan-00
1-Jan-00 9:20 62 1-Jan-00
1-Jan-00 9:30 101.1 1-Jan-00
1-Jan-00 9:40 152.2 1-Jan-00
1-Jan-00 9:50 207.9 1-Jan-00
1-Jan-00 10:00 262.8 1-Jan-00
1-Jan-00 10:10 305.6 1-Jan-00
1-Jan-00 10:20 328.5 1-Jan-00
1-Jan-00 10:30 326.9 1-Jan-00
1-Jan-00 10:40 314 1-Jan-00
1-Jan-00 10:50 302.8 1-Jan-00
1-Jan-00 11:00 301.3 1-Jan-00
1-Jan-00 11:10 313.7 1-Jan-00
1-Jan-00 11:20 333.9 1-Jan-00
1-Jan-00 11:30 359.7 1-Jan-00
1-Jan-00 11:40 396.2 1-Jan-00
1-Jan-00 11:50 446.9 1-Jan-00
1-Jan-00 12:00 513.3 1-Jan-00
1-Jan-00 12:10 594.3 1-Jan-00
1-Jan-00 12:20 684.8 1-Jan-00
1-Jan-00 12:30 780.7 1-Jan-00
1-Jan-00 12:40 879.8 1-Jan-00
1-Jan-00 12:50 979.5 1-Jan-00
1-Jan-00 13:00 1077.2 1-Jan-00
1-Jan-00 13:10 1169.9 1-Jan-00
1-Jan-00 13:20 1254.3 1-Jan-00
1-Jan-00 13:30 1328 1-Jan-00
1-Jan-00 13:40 1390.5 1-Jan-00
1-Jan-00 13:50 1441.3 1-Jan-00
1-Jan-00 14:00 1481.1 1-Jan-00
1-Jan-00 14:10 1510 1-Jan-00
1-Jan-00 14:20 1528.5 1-Jan-00
1-Jan-00 14:30 1537.7 1-Jan-00
1-Jan-00 14:40 1540 1-Jan-00
1-Jan-00 14:50 1538.3 1-Jan-00
1-Jan-00 15:00 1534.9 1-Jan-00
1-Jan-00 15:10 1532.2 1-Jan-00
1-Jan-00 15:20 1531.7 1-Jan-00
1-Jan-00 15:30 1535.2 1-Jan-00
1-Jan-00 15:40 1544.5 1-Jan-00
1-Jan-00 15:50 1561 1-Jan-00
1-Jan-00 16:00 1586 1-Jan-00
1-Jan-00 16:10 1620.4 1-Jan-00
1-Jan-00 16:20 1664.3 1-Jan-00
1-Jan-00 16:30 1718 1-Jan-00
1-Jan-00 16:40 1782.5 1-Jan-00
1-Jan-00 16:50 1858.4 1-Jan-00
1-Jan-00 17:00 1945.5 1-Jan-00
1-Jan-00 17:10 2043.3 1-Jan-00
1-Jan-00 17:20 2150.3 1-Jan-00
1-Jan-00 17:30 2265 1-Jan-00
1-Jan-00 17:40 2385.5 1-Jan-00
1-Jan-00 17:50 2509.8 1-Jan-00
1-Jan-00 18:00 2635.9 1-Jan-00
1-Jan-00 18:10 2761.5 1-Jan-00
1-Jan-00 18:20 2884.5 1-Jan-00
1-Jan-00 18:30 3002.6 1-Jan-00
1-Jan-00 18:40 3114 1-Jan-00
1-Jan-00 18:50 3216.7 1-Jan-00
1-Jan-00 19:00 3309.2 1-Jan-00
1-Jan-00 19:10 3390.2 1-Jan-00
1-Jan-00 19:20 3458.9 1-Jan-00
1-Jan-00 19:30 3514.5 1-Jan-00
1-Jan-00 19:40 3556.8 1-Jan-00
1-Jan-00 19:50 3585.6 1-Jan-00
1-Jan-00 20:00 3601.3 1-Jan-00
1-Jan-00 20:10 3604 1-Jan-00
1-Jan-00 20:20 3594 1-Jan-00
1-Jan-00 20:30 3571.8 1-Jan-00
1-Jan-00 20:40 3539.1 1-Jan-00
1-Jan-00 20:50 3497.4 1-Jan-00
1-Jan-00 21:00 3448 1-Jan-00
1-Jan-00 21:10 3392.2 1-Jan-00
1-Jan-00 21:20 3330.9 1-Jan-00
1-Jan-00 21:30 3265 1-Jan-00
1-Jan-00 21:40 3195.3 1-Jan-00
1-Jan-00 21:50 3122.8 1-Jan-00
1-Jan-00 22:00 3048.3 1-Jan-00
1-Jan-00 22:10 2972.4 1-Jan-00
1-Jan-00 22:20 2895.8 1-Jan-00
1-Jan-00 22:30 2819.1 1-Jan-00
1-Jan-00 22:40 2742.7 1-Jan-00
1-Jan-00 22:50 2667.1 1-Jan-00
1-Jan-00 23:00 2592.7 1-Jan-00
1-Jan-00 23:10 2519.8 1-Jan-00
1-Jan-00 23:20 2448.7 1-Jan-00
1-Jan-00 23:30 2379.7 1-Jan-00
1-Jan-00 23:40 2313 1-Jan-00
1-Jan-00 23:50 2248.8 1-Jan-00
2-Jan-00 0:00 2187.2 2-Jan-00
2-Jan-00 0:10 2127.2 2-Jan-00
2-Jan-00 0:20 2067.5 2-Jan-00
2-Jan-00 0:30 2007.3 2-Jan-00
2-Jan-00 0:40 1948.8 2-Jan-00
2-Jan-00 0:50 1893.8 2-Jan-00
2-Jan-00 1:00 1843.2 2-Jan-00
2-Jan-00 1:10 1797.4 2-Jan-00
2-Jan-00 1:20 1755.3 2-Jan-00
2-Jan-00 1:30 1716.3 2-Jan-00
2-Jan-00 1:40 1680 2-Jan-00
2-Jan-00 1:50 1645.7 2-Jan-00
2-Jan-00 2:00 1613.1 2-Jan-00
2-Jan-00 2:10 1581.6 2-Jan-00
2-Jan-00 2:20 1550.7 2-Jan-00
2-Jan-00 2:30 1520 2-Jan-00
2-Jan-00 2:40 1489.2 2-Jan-00
2-Jan-00 2:50 1458 2-Jan-00
2-Jan-00 3:00 1426.3 2-Jan-00
2-Jan-00 3:10 1394 2-Jan-00
2-Jan-00 3:20 1361.3 2-Jan-00
2-Jan-00 3:30 1328.3 2-Jan-00
2-Jan-00 3:40 1295.2 2-Jan-00
2-Jan-00 3:50 1262.2 2-Jan-00
2-Jan-00 4:00 1229.5 2-Jan-00
2-Jan-00 4:10 1197.6 2-Jan-00
2-Jan-00 4:20 1166.5 2-Jan-00
2-Jan-00 4:30 1136.4 2-Jan-00
2-Jan-00 4:40 1107.6 2-Jan-00
2-Jan-00 4:50 1080.1 2-Jan-00
2-Jan-00 5:00 1054 2-Jan-00
2-Jan-00 5:10 1029.3 2-Jan-00
2-Jan-00 5:20 1006 2-Jan-00
2-Jan-00 5:30 984 2-Jan-00
2-Jan-00 5:40 963.2 2-Jan-00
2-Jan-00 5:50 943.7 2-Jan-00
2-Jan-00 6:00 925.1 2-Jan-00
2-Jan-00 6:10 907.5 2-Jan-00
2-Jan-00 6:20 890.6 2-Jan-00
2-Jan-00 6:30 874.2 2-Jan-00
2-Jan-00 6:40 858.3 2-Jan-00
2-Jan-00 6:50 842.5 2-Jan-00
2-Jan-00 7:00 826.7 2-Jan-00
2-Jan-00 7:10 810.7 2-Jan-00
2-Jan-00 7:20 794.3 2-Jan-00
2-Jan-00 7:30 777.3 2-Jan-00
2-Jan-00 7:40 759.6 2-Jan-00
2-Jan-00 7:50 741 2-Jan-00
2-Jan-00 8:00 721.5 2-Jan-00
2-Jan-00 8:10 700.9 2-Jan-00
2-Jan-00 8:20 679.3 2-Jan-00
2-Jan-00 8:30 656.6 2-Jan-00
2-Jan-00 8:40 632.9 2-Jan-00
2-Jan-00 8:50 608.2 2-Jan-00
2-Jan-00 9:00 582.6 2-Jan-00
2-Jan-00 9:10 556.3 2-Jan-00
2-Jan-00 9:20 529.4 2-Jan-00
2-Jan-00 9:30 502 2-Jan-00
2-Jan-00 9:40 474.4 2-Jan-00
2-Jan-00 9:50 446.8 2-Jan-00
2-Jan-00 10:00 419.2 2-Jan-00
2-Jan-00 10:10 391.9 2-Jan-00
2-Jan-00 10:20 365.1 2-Jan-00
2-Jan-00 10:30 338.9 2-Jan-00
2-Jan-00 10:40 313.5 2-Jan-00
2-Jan-00 10:50 288.9 2-Jan-00
2-Jan-00 11:00 265.4 2-Jan-00
2-Jan-00 11:10 242.9 2-Jan-00
2-Jan-00 11:20 221.5 2-Jan-00
2-Jan-00 11:30 201.4 2-Jan-00
2-Jan-00 11:40 182.4 2-Jan-00
2-Jan-00 11:50 164.8 2-Jan-00
2-Jan-00 12:00 148.3 2-Jan-00
2-Jan-00 12:10 133.1 2-Jan-00
2-Jan-00 12:20 119.1 2-Jan-00
2-Jan-00 12:30 106.2 2-Jan-00
2-Jan-00 12:40 94.4 2-Jan-00
2-Jan-00 12:50 83.7 2-Jan-00
2-Jan-00 13:00 74 2-Jan-00
2-Jan-00 13:10 65.3 2-Jan-00
2-Jan-00 13:20 57.4 2-Jan-00
2-Jan-00 13:30 50.3 2-Jan-00
2-Jan-00 13:40 44 2-Jan-00
2-Jan-00 13:50 38.4 2-Jan-00
2-Jan-00 14:00 33.4 2-Jan-00
2-Jan-00 14:10 29 2-Jan-00
2-Jan-00 14:20 25.1 2-Jan-00
2-Jan-00 14:30 21.7 2-Jan-00
2-Jan-00 14:40 18.7 2-Jan-00
2-Jan-00 14:50 16.1 2-Jan-00
2-Jan-00 15:00 13.8 2-Jan-00
2-Jan-00 15:10 11.8 2-Jan-00
2-Jan-00 15:20 10.1 2-Jan-00
2-Jan-00 15:30 8.6 2-Jan-00
2-Jan-00 15:40 7.3 2-Jan-00
2-Jan-00 15:50 6.2 2-Jan-00
2-Jan-00 16:00 5.2 2-Jan-00
2-Jan-00 16:10 4.4 2-Jan-00
2-Jan-00 16:20 3.7 2-Jan-00
2-Jan-00 16:30 3.1 2-Jan-00
2-Jan-00 16:40 2.6 2-Jan-00
2-Jan-00 16:50 2.2 2-Jan-00
2-Jan-00 17:00 1.8 2-Jan-00
2-Jan-00 17:10 1.5 2-Jan-00
2-Jan-00 17:20 1.3 2-Jan-00
2-Jan-00 17:30 1.1 2-Jan-00
2-Jan-00 17:40 0.9 2-Jan-00
2-Jan-00 17:50 0.7 2-Jan-00
2-Jan-00 18:00 0.6 2-Jan-00
2-Jan-00 18:10 0.5 2-Jan-00
2-Jan-00 18:20 0.4 2-Jan-00
2-Jan-00 18:30 0.3 2-Jan-00
2-Jan-00 18:40 0.3 2-Jan-00
2-Jan-00 18:50 0.2 2-Jan-00
2-Jan-00 19:00 0.2 2-Jan-00
2-Jan-00 19:10 0.2 2-Jan-00
2-Jan-00 19:20 0.1 2-Jan-00
2-Jan-00 19:30 0.1 2-Jan-00
2-Jan-00 19:40 0.1 2-Jan-00
2-Jan-00 19:50 0.1 2-Jan-00
2-Jan-00 20:00 0.1 2-Jan-00
2-Jan-00 20:10 0 2-Jan-00
2-Jan-00 20:20 0 2-Jan-00
2-Jan-00 20:30 0 2-Jan-00
2-Jan-00 20:40 0 2-Jan-00
2-Jan-00 20:50 0 2-Jan-00
2-Jan-00 21:00 0 2-Jan-00
2-Jan-00 21:10 0 2-Jan-00
2-Jan-00 21:20 0 2-Jan-00
2-Jan-00 21:30 0 2-Jan-00
2-Jan-00 21:40 0 2-Jan-00
2-Jan-00 21:50 0 2-Jan-00
2-Jan-00 22:00 0 2-Jan-00
2-Jan-00 22:10 0 2-Jan-00
2-Jan-00 22:20 0 2-Jan-00
2-Jan-00 22:30 0 2-Jan-00
2-Jan-00 22:40 0 2-Jan-00
2-Jan-00 22:50 0 2-Jan-00
2-Jan-00 23:00 0 2-Jan-00
2-Jan-00 23:10 0 2-Jan-00
2-Jan-00 23:20 0 2-Jan-00
2-Jan-00 23:30 0 2-Jan-00
2-Jan-00 23:40 0 2-Jan-00
2-Jan-00 23:50 0 2-Jan-00
3-Jan-00 0:00 0 3-Jan-00
3-Jan-00 0:10 0 3-Jan-00
3-Jan-00 0:20 0 3-Jan-00
3-Jan-00 0:30 0 3-Jan-00
3-Jan-00 0:40 0 3-Jan-00
3-Jan-00 0:50 0 3-Jan-00
3-Jan-00 1:00 0 3-Jan-00
3-Jan-00 1:10 0 3-Jan-00
3-Jan-00 1:20 0 3-Jan-00
3-Jan-00 1:30 0 3-Jan-00
3-Jan-00 1:40 0 3-Jan-00
3-Jan-00 1:50 0 3-Jan-00
3-Jan-00 2:00 0 3-Jan-00
3-Jan-00 2:10 0 3-Jan-00
3-Jan-00 2:20 0 3-Jan-00
3-Jan-00 2:30 0 3-Jan-00
3-Jan-00 2:40 0 3-Jan-00
3-Jan-00 2:50 0 3-Jan-00
3-Jan-00 3:00 0 3-Jan-00
3-Jan-00 3:10 0 3-Jan-00
3-Jan-00 3:20 0 3-Jan-00
3-Jan-00 3:30 0 3-Jan-00
3-Jan-00 3:40 0 3-Jan-00
3-Jan-00 3:50 0 3-Jan-00
3-Jan-00 4:00 0 3-Jan-00
3-Jan-00 4:10 0 3-Jan-00
3-Jan-00 4:20 0 3-Jan-00
3-Jan-00 4:30 0 3-Jan-00
3-Jan-00 4:40 0 3-Jan-00
3-Jan-00 4:50 0 3-Jan-00
3-Jan-00 5:00 0 3-Jan-00
3-Jan-00 5:10 0 3-Jan-00
3-Jan-00 5:20 0 3-Jan-00
3-Jan-00 5:30 0 3-Jan-00
3-Jan-00 5:40 0 3-Jan-00
3-Jan-00 5:50 0 3-Jan-00
3-Jan-00 6:00 0 3-Jan-00
3-Jan-00 6:10 0 3-Jan-00
3-Jan-00 6:20 0 3-Jan-00
3-Jan-00 6:30 0 3-Jan-00
3-Jan-00 6:40 0 3-Jan-00
3-Jan-00 6:50 0 3-Jan-00
3-Jan-00 7:00 0 3-Jan-00
3-Jan-00 7:10 0 3-Jan-00
3-Jan-00 7:20 0 3-Jan-00
3-Jan-00 7:30 0 3-Jan-00
3-Jan-00 7:40 0 3-Jan-00
3-Jan-00 7:50 0 3-Jan-00
3-Jan-00 8:00 0 3-Jan-00
3-Jan-00 8:10 0 3-Jan-00
3-Jan-00 8:20 0 3-Jan-00
3-Jan-00 8:30 0 3-Jan-00
3-Jan-00 8:40 0 3-Jan-00
3-Jan-00 8:50 0 3-Jan-00
3-Jan-00 9:00 0 3-Jan-00
3-Jan-00 9:10 0 3-Jan-00
3-Jan-00 9:20 0 3-Jan-00
3-Jan-00 9:30 0 3-Jan-00
3-Jan-00 9:40 0 3-Jan-00
3-Jan-00 9:50 0 3-Jan-00
3-Jan-00 10:00 0 3-Jan-00
3-Jan-00 10:10 0 3-Jan-00
3-Jan-00 10:20 0 3-Jan-00
3-Jan-00 10:30 0 3-Jan-00
3-Jan-00 10:40 0 3-Jan-00
3-Jan-00 10:50 0 3-Jan-00
3-Jan-00 11:00 0 3-Jan-00
3-Jan-00 11:10 0 3-Jan-00
3-Jan-00 11:20 0 3-Jan-00
3-Jan-00 11:30 0 3-Jan-00
3-Jan-00 11:40 0 3-Jan-00
3-Jan-00 11:50 0 3-Jan-00
3-Jan-00 12:00 0 3-Jan-00
3-Jan-00 12:10 0 3-Jan-00
3-Jan-00 12:20 0 3-Jan-00
3-Jan-00 12:30 0 3-Jan-00
3-Jan-00 12:40 0 3-Jan-00
3-Jan-00 12:50 0 3-Jan-00
3-Jan-00 13:00 0 3-Jan-00
3-Jan-00 13:10 0 3-Jan-00
3-Jan-00 13:20 0 3-Jan-00
3-Jan-00 13:30 0 3-Jan-00
3-Jan-00 13:40 0 3-Jan-00
3-Jan-00 13:50 0 3-Jan-00
3-Jan-00 14:00 0 3-Jan-00
3-Jan-00 14:10 0 3-Jan-00
3-Jan-00 14:20 0 3-Jan-00
3-Jan-00 14:30 0 3-Jan-00
3-Jan-00 14:40 0 3-Jan-00
3-Jan-00 14:50 0 3-Jan-00
3-Jan-00 15:00 0 3-Jan-00
3-Jan-00 15:10 0 3-Jan-00
3-Jan-00 15:20 0 3-Jan-00
3-Jan-00 15:30 0 3-Jan-00
3-Jan-00 15:40 0 3-Jan-00
3-Jan-00 15:50 0 3-Jan-00
3-Jan-00 16:00 0 3-Jan-00
3-Jan-00 16:10 0 3-Jan-00
3-Jan-00 16:20 0 3-Jan-00
3-Jan-00 16:30 0 3-Jan-00
3-Jan-00 16:40 0 3-Jan-00
3-Jan-00 16:50 0 3-Jan-00
3-Jan-00 17:00 0 3-Jan-00
3-Jan-00 17:10 0 3-Jan-00
3-Jan-00 17:20 0 3-Jan-00
3-Jan-00 17:30 0 3-Jan-00
3-Jan-00 17:40 0 3-Jan-00
3-Jan-00 17:50 0 3-Jan-00
3-Jan-00 18:00 0 3-Jan-00
3-Jan-00 18:10 0 3-Jan-00
3-Jan-00 18:20 0 3-Jan-00
3-Jan-00 18:30 0 3-Jan-00
3-Jan-00 18:40 0 3-Jan-00
3-Jan-00 18:50 0 3-Jan-00
3-Jan-00 19:00 0 3-Jan-00
3-Jan-00 19:10 0 3-Jan-00
3-Jan-00 19:20 0 3-Jan-00
3-Jan-00 19:30 0 3-Jan-00
3-Jan-00 19:40 0 3-Jan-00
3-Jan-00 19:50 0 3-Jan-00
3-Jan-00 20:00 0 3-Jan-00
3-Jan-00 20:10 0 3-Jan-00
3-Jan-00 20:20 0 3-Jan-00
3-Jan-00 20:30 0 3-Jan-00
3-Jan-00 20:40 0 3-Jan-00
3-Jan-00 20:50 0 3-Jan-00
3-Jan-00 21:00 0 3-Jan-00
3-Jan-00 21:10 0 3-Jan-00
3-Jan-00 21:20 0 3-Jan-00
3-Jan-00 21:30 0 3-Jan-00
3-Jan-00 21:40 0 3-Jan-00
3-Jan-00 21:50 0 3-Jan-00
3-Jan-00 22:00 0 3-Jan-00
3-Jan-00 22:10 0 3-Jan-00
3-Jan-00 22:20 0 3-Jan-00
3-Jan-00 22:30 0 3-Jan-00
3-Jan-00 22:40 0 3-Jan-00
3-Jan-00 22:50 0 3-Jan-00
3-Jan-00 23:00 0 3-Jan-00
3-Jan-00 23:10 0 3-Jan-00
3-Jan-00 23:20 0 3-Jan-00
3-Jan-00 23:30 0 3-Jan-00
3-Jan-00 23:40 0 3-Jan-00
3-Jan-00 23:50 0 3-Jan-00
4-Jan-00 0:00 0 4-Jan-00
4-Jan-00 0:10 0 4-Jan-00
4-Jan-00 0:20 0 4-Jan-00
4-Jan-00 0:30 0 4-Jan-00
4-Jan-00 0:40 0 4-Jan-00
4-Jan-00 0:50 0 4-Jan-00
4-Jan-00 1:00 0 4-Jan-00
4-Jan-00 1:10 0 4-Jan-00
4-Jan-00 1:20 0 4-Jan-00
4-Jan-00 1:30 0 4-Jan-00
4-Jan-00 1:40 0 4-Jan-00
4-Jan-00 1:50 0 4-Jan-00
4-Jan-00 2:00 0 4-Jan-00
4-Jan-00 2:10 0 4-Jan-00
4-Jan-00 2:20 0 4-Jan-00
4-Jan-00 2:30 0 4-Jan-00
4-Jan-00 2:40 0 4-Jan-00
4-Jan-00 2:50 0 4-Jan-00
4-Jan-00 3:00 0 4-Jan-00
4-Jan-00 3:10 0 4-Jan-00
4-Jan-00 3:20 0 4-Jan-00
4-Jan-00 3:30 0 4-Jan-00
4-Jan-00 3:40 0 4-Jan-00
4-Jan-00 3:50 0 4-Jan-00
4-Jan-00 4:00 0 4-Jan-00
4-Jan-00 4:10 0 4-Jan-00
4-Jan-00 4:20 0 4-Jan-00
4-Jan-00 4:30 0 4-Jan-00
4-Jan-00 4:40 0 4-Jan-00
4-Jan-00 4:50 0 4-Jan-00
4-Jan-00 5:00 0 4-Jan-00
4-Jan-00 5:10 0 4-Jan-00
4-Jan-00 5:20 0 4-Jan-00
4-Jan-00 5:30 0 4-Jan-00
4-Jan-00 5:40 0 4-Jan-00
4-Jan-00 5:50 0 4-Jan-00
4-Jan-00 6:00 0 4-Jan-00
4-Jan-00 6:10 0 4-Jan-00
4-Jan-00 6:20 0 4-Jan-00
4-Jan-00 6:30 0 4-Jan-00
4-Jan-00 6:40 0 4-Jan-00
4-Jan-00 6:50 0 4-Jan-00
4-Jan-00 7:00 0 4-Jan-00
4-Jan-00 7:10 0 4-Jan-00
4-Jan-00 7:20 0 4-Jan-00
4-Jan-00 7:30 0 4-Jan-00
4-Jan-00 7:40 0 4-Jan-00
4-Jan-00 7:50 0 4-Jan-00
4-Jan-00 8:00 0 4-Jan-00
4-Jan-00 8:10 0 4-Jan-00
4-Jan-00 8:20 0 4-Jan-00
4-Jan-00 8:30 0 4-Jan-00
4-Jan-00 8:40 0 4-Jan-00
4-Jan-00 8:50 0 4-Jan-00
4-Jan-00 9:00 0 4-Jan-00
4-Jan-00 9:10 0 4-Jan-00
4-Jan-00 9:20 0 4-Jan-00
4-Jan-00 9:30 0 4-Jan-00
4-Jan-00 9:40 0 4-Jan-00
4-Jan-00 9:50 0 4-Jan-00
4-Jan-00 10:00 0 4-Jan-00
4-Jan-00 10:10 0 4-Jan-00
4-Jan-00 10:20 0 4-Jan-00
4-Jan-00 10:30 0 4-Jan-00
4-Jan-00 10:40 0 4-Jan-00
4-Jan-00 10:50 0 4-Jan-00
4-Jan-00 11:00 0 4-Jan-00
4-Jan-00 11:10 0 4-Jan-00
4-Jan-00 11:20 0 4-Jan-00
4-Jan-00 11:30 0 4-Jan-00
4-Jan-00 11:40 0 4-Jan-00
4-Jan-00 11:50 0 4-Jan-00
4-Jan-00 12:00 0 4-Jan-00
4-Jan-00 12:10 0 4-Jan-00
4-Jan-00 12:20 0 4-Jan-00
4-Jan-00 12:30 0 4-Jan-00
4-Jan-00 12:40 0 4-Jan-00
4-Jan-00 12:50 0 4-Jan-00
4-Jan-00 13:00 0 4-Jan-00
4-Jan-00 13:10 0 4-Jan-00
4-Jan-00 13:20 0 4-Jan-00
4-Jan-00 13:30 0 4-Jan-00
4-Jan-00 13:40 0 4-Jan-00
4-Jan-00 13:50 0 4-Jan-00
4-Jan-00 14:00 0 4-Jan-00
4-Jan-00 14:10 0 4-Jan-00
4-Jan-00 14:20 0 4-Jan-00
4-Jan-00 14:30 0 4-Jan-00
4-Jan-00 14:40 0 4-Jan-00
4-Jan-00 14:50 0 4-Jan-00
4-Jan-00 15:00 0 4-Jan-00
4-Jan-00 15:10 0 4-Jan-00
4-Jan-00 15:20 0 4-Jan-00
4-Jan-00 15:30 0 4-Jan-00
4-Jan-00 15:40 0 4-Jan-00
4-Jan-00 15:50 0 4-Jan-00
4-Jan-00 16:00 0 4-Jan-00
4-Jan-00 16:10 0 4-Jan-00
4-Jan-00 16:20 0 4-Jan-00
4-Jan-00 16:30 0 4-Jan-00
4-Jan-00 16:40 0 4-Jan-00
4-Jan-00 16:50 0 4-Jan-00
4-Jan-00 17:00 0 4-Jan-00
4-Jan-00 17:10 0 4-Jan-00
4-Jan-00 17:20 0 4-Jan-00
4-Jan-00 17:30 0 4-Jan-00
4-Jan-00 17:40 0 4-Jan-00
4-Jan-00 17:50 0 4-Jan-00
4-Jan-00 18:00 0 4-Jan-00
4-Jan-00 18:10 0 4-Jan-00
4-Jan-00 18:20 0 4-Jan-00
4-Jan-00 18:30 0 4-Jan-00
4-Jan-00 18:40 0 4-Jan-00
4-Jan-00 18:50 0 4-Jan-00
4-Jan-00 19:00 0 4-Jan-00
4-Jan-00 19:10 0 4-Jan-00
4-Jan-00 19:20 0 4-Jan-00
4-Jan-00 19:30 0 4-Jan-00
4-Jan-00 19:40 0 4-Jan-00
4-Jan-00 19:50 0 4-Jan-00
4-Jan-00 20:00 0 4-Jan-00
4-Jan-00 20:10 0 4-Jan-00
4-Jan-00 20:20 0 4-Jan-00
4-Jan-00 20:30 0 4-Jan-00
4-Jan-00 20:40 0 4-Jan-00
4-Jan-00 20:50 0 4-Jan-00
4-Jan-00 21:00 0 4-Jan-00
4-Jan-00 21:10 0 4-Jan-00
4-Jan-00 21:20 0 4-Jan-00
4-Jan-00 21:30 0 4-Jan-00
4-Jan-00 21:40 0 4-Jan-00
4-Jan-00 21:50 0 4-Jan-00
4-Jan-00 22:00 0 4-Jan-00
4-Jan-00 22:10 0 4-Jan-00
4-Jan-00 22:20 0 4-Jan-00
4-Jan-00 22:30 0 4-Jan-00
4-Jan-00 22:40 0 4-Jan-00
4-Jan-00 22:50 0 4-Jan-00
4-Jan-00 23:00 0 4-Jan-00
4-Jan-00 23:10 0 4-Jan-00
4-Jan-00 23:20 0 4-Jan-00
4-Jan-00 23:30 0 4-Jan-00
4-Jan-00 23:40 0 4-Jan-00
4-Jan-00 23:50 0 4-Jan-00
5-Jan-00 0:00 0 5-Jan-00
5-Jan-00 0:10 0 5-Jan-00
5-Jan-00 0:20 0 5-Jan-00
5-Jan-00 0:30 0 5-Jan-00
5-Jan-00 0:40 0 5-Jan-00
5-Jan-00 0:50 0 5-Jan-00
5-Jan-00 1:00 0 5-Jan-00
5-Jan-00 1:10 0 5-Jan-00
5-Jan-00 1:20 0 5-Jan-00
5-Jan-00 1:30 0 5-Jan-00
5-Jan-00 1:40 0 5-Jan-00
5-Jan-00 1:50 0 5-Jan-00
5-Jan-00 2:00 0 5-Jan-00
5-Jan-00 2:10 0 5-Jan-00
5-Jan-00 2:20 0 5-Jan-00
5-Jan-00 2:30 0 5-Jan-00
5-Jan-00 2:40 0 5-Jan-00
5-Jan-00 2:50 0 5-Jan-00
5-Jan-00 3:00 0 5-Jan-00
5-Jan-00 3:10 0 5-Jan-00
5-Jan-00 3:20 0 5-Jan-00
5-Jan-00 3:30 0 5-Jan-00
5-Jan-00 3:40 0 5-Jan-00
5-Jan-00 3:50 0 5-Jan-00
5-Jan-00 4:00 0 5-Jan-00
5-Jan-00 4:10 0 5-Jan-00
5-Jan-00 4:20 0 5-Jan-00
5-Jan-00 4:30 0 5-Jan-00
5-Jan-00 4:40 0 5-Jan-00
5-Jan-00 4:50 0 5-Jan-00
5-Jan-00 5:00 0 5-Jan-00
5-Jan-00 5:10 0 5-Jan-00
5-Jan-00 5:20 0 5-Jan-00
5-Jan-00 5:30 0 5-Jan-00
5-Jan-00 5:40 0 5-Jan-00
5-Jan-00 5:50 0 5-Jan-00
5-Jan-00 6:00 0 5-Jan-00
5-Jan-00 6:10 0 5-Jan-00
5-Jan-00 6:20 0 5-Jan-00
5-Jan-00 6:30 0 5-Jan-00
5-Jan-00 6:40 0 5-Jan-00
5-Jan-00 6:50 0 5-Jan-00
5-Jan-00 7:00 0 5-Jan-00
5-Jan-00 7:10 0 5-Jan-00
5-Jan-00 7:20 0 5-Jan-00
5-Jan-00 7:30 0 5-Jan-00
5-Jan-00 7:40 0 5-Jan-00
5-Jan-00 7:50 0 5-Jan-00
5-Jan-00 8:00 0 5-Jan-00
5-Jan-00 8:10 0 5-Jan-00
5-Jan-00 8:20 0 5-Jan-00
5-Jan-00 8:30 0 5-Jan-00
5-Jan-00 8:40 0 5-Jan-00
5-Jan-00 8:50 0 5-Jan-00
5-Jan-00 9:00 0 5-Jan-00
5-Jan-00 9:10 0 5-Jan-00
5-Jan-00 9:20 0 5-Jan-00
5-Jan-00 9:30 0 5-Jan-00
5-Jan-00 9:40 0 5-Jan-00
5-Jan-00 9:50 0 5-Jan-00
5-Jan-00 10:00 0 5-Jan-00
5-Jan-00 10:10 0 5-Jan-00
5-Jan-00 10:20 0 5-Jan-00
5-Jan-00 10:30 0 5-Jan-00
5-Jan-00 10:40 0 5-Jan-00
5-Jan-00 10:50 0 5-Jan-00
5-Jan-00 11:00 0 5-Jan-00
5-Jan-00 11:10 0 5-Jan-00
5-Jan-00 11:20 0 5-Jan-00
5-Jan-00 11:30 0 5-Jan-00
5-Jan-00 11:40 0 5-Jan-00
5-Jan-00 11:50 0 5-Jan-00
5-Jan-00 12:00 0 5-Jan-00
5-Jan-00 12:10 0 5-Jan-00
5-Jan-00 12:20 0 5-Jan-00
5-Jan-00 12:30 0 5-Jan-00
5-Jan-00 12:40 0 5-Jan-00
5-Jan-00 12:50 0 5-Jan-00
5-Jan-00 13:00 0 5-Jan-00
5-Jan-00 13:10 0 5-Jan-00
5-Jan-00 13:20 0 5-Jan-00
5-Jan-00 13:30 0 5-Jan-00
5-Jan-00 13:40 0 5-Jan-00
5-Jan-00 13:50 0 5-Jan-00
5-Jan-00 14:00 0 5-Jan-00
5-Jan-00 14:10 0 5-Jan-00
5-Jan-00 14:20 0 5-Jan-00
5-Jan-00 14:30 0 5-Jan-00
5-Jan-00 14:40 0 5-Jan-00
5-Jan-00 14:50 0 5-Jan-00
5-Jan-00 15:00 0 5-Jan-00
5-Jan-00 15:10 0 5-Jan-00
5-Jan-00 15:20 0 5-Jan-00
5-Jan-00 15:30 0 5-Jan-00
5-Jan-00 15:40 0 5-Jan-00
5-Jan-00 15:50 0 5-Jan-00
5-Jan-00 16:00 0 5-Jan-00
5-Jan-00 16:10 0 5-Jan-00
5-Jan-00 16:20 0 5-Jan-00
5-Jan-00 16:30 0 5-Jan-00
5-Jan-00 16:40 0 5-Jan-00
5-Jan-00 16:50 0 5-Jan-00
5-Jan-00 17:00 0 5-Jan-00
5-Jan-00 17:10 0 5-Jan-00
5-Jan-00 17:20 0 5-Jan-00
5-Jan-00 17:30 0 5-Jan-00
5-Jan-00 17:40 0 5-Jan-00
5-Jan-00 17:50 0 5-Jan-00
5-Jan-00 18:00 0 5-Jan-00
5-Jan-00 18:10 0 5-Jan-00
5-Jan-00 18:20 0 5-Jan-00
5-Jan-00 18:30 0 5-Jan-00
5-Jan-00 18:40 0 5-Jan-00
5-Jan-00 18:50 0 5-Jan-00
5-Jan-00 19:00 0 5-Jan-00
5-Jan-00 19:10 0 5-Jan-00
5-Jan-00 19:20 0 5-Jan-00
5-Jan-00 19:30 0 5-Jan-00
5-Jan-00 19:40 0 5-Jan-00
5-Jan-00 19:50 0 5-Jan-00
5-Jan-00 20:00 0 5-Jan-00
5-Jan-00 20:10 0 5-Jan-00
5-Jan-00 20:20 0 5-Jan-00
5-Jan-00 20:30 0 5-Jan-00
5-Jan-00 20:40 0 5-Jan-00
5-Jan-00 20:50 0 5-Jan-00
5-Jan-00 21:00 0 5-Jan-00
5-Jan-00 21:10 0 5-Jan-00
5-Jan-00 21:20 0 5-Jan-00
5-Jan-00 21:30 0 5-Jan-00
5-Jan-00 21:40 0 5-Jan-00
5-Jan-00 21:50 0 5-Jan-00
5-Jan-00 22:00 0 5-Jan-00
5-Jan-00 22:10 0 5-Jan-00
5-Jan-00 22:20 0 5-Jan-00
5-Jan-00 22:30 0 5-Jan-00
5-Jan-00 22:40 0 5-Jan-00
5-Jan-00 22:50 0 5-Jan-00
5-Jan-00 23:00 0 5-Jan-00
5-Jan-00 23:10 0 5-Jan-00
5-Jan-00 23:20 0 5-Jan-00
5-Jan-00 23:30 0 5-Jan-00
5-Jan-00 23:40 0 5-Jan-00
5-Jan-00 23:50 0 5-Jan-00
6-Jan-00 0:00 0 6-Jan-00
6-Jan-00 0:10 0 6-Jan-00
6-Jan-00 0:20 0 6-Jan-00
6-Jan-00 0:30 0 6-Jan-00
6-Jan-00 0:40 0 6-Jan-00
6-Jan-00 0:50 0 6-Jan-00
6-Jan-00 1:00 0 6-Jan-00
6-Jan-00 1:10 0 6-Jan-00
6-Jan-00 1:20 0 6-Jan-00
6-Jan-00 1:30 0 6-Jan-00
6-Jan-00 1:40 0 6-Jan-00
6-Jan-00 1:50 0 6-Jan-00
6-Jan-00 2:00 0 6-Jan-00
6-Jan-00 2:10 0 6-Jan-00
6-Jan-00 2:20 0 6-Jan-00
6-Jan-00 2:30 0 6-Jan-00
6-Jan-00 2:40 0 6-Jan-00
6-Jan-00 2:50 0 6-Jan-00
6-Jan-00 3:00 0 6-Jan-00
6-Jan-00 3:10 0 6-Jan-00
6-Jan-00 3:20 0 6-Jan-00
6-Jan-00 3:30 0 6-Jan-00
6-Jan-00 3:40 0 6-Jan-00
6-Jan-00 3:50 0 6-Jan-00
6-Jan-00 4:00 0 6-Jan-00
6-Jan-00 4:10 0 6-Jan-00
6-Jan-00 4:20 0 6-Jan-00
6-Jan-00 4:30 0 6-Jan-00
6-Jan-00 4:40 0 6-Jan-00
6-Jan-00 4:50 0 6-Jan-00
6-Jan-00 5:00 0 6-Jan-00
6-Jan-00 5:10 0 6-Jan-00
6-Jan-00 5:20 0 6-Jan-00
6-Jan-00 5:30 0 6-Jan-00
6-Jan-00 5:40 0 6-Jan-00
6-Jan-00 5:50 0 6-Jan-00
6-Jan-00 6:00 0 6-Jan-00
6-Jan-00 6:10 0 6-Jan-00
6-Jan-00 6:20 0 6-Jan-00
6-Jan-00 6:30 0 6-Jan-00
6-Jan-00 6:40 0 6-Jan-00
6-Jan-00 6:50 0 6-Jan-00
6-Jan-00 7:00 0 6-Jan-00
6-Jan-00 7:10 0 6-Jan-00
6-Jan-00 7:20 0 6-Jan-00
6-Jan-00 7:30 0 6-Jan-00
6-Jan-00 7:40 0 6-Jan-00
6-Jan-00 7:50 0 6-Jan-00
6-Jan-00 8:00 0 6-Jan-00
6-Jan-00 8:10 0 6-Jan-00
6-Jan-00 8:20 0 6-Jan-00
6-Jan-00 8:30 0 6-Jan-00
6-Jan-00 8:40 0 6-Jan-00
6-Jan-00 8:50 0 6-Jan-00
6-Jan-00 9:00 0 6-Jan-00
6-Jan-00 9:10 0 6-Jan-00
6-Jan-00 9:20 0 6-Jan-00
6-Jan-00 9:30 0 6-Jan-00
6-Jan-00 9:40 0 6-Jan-00
6-Jan-00 9:50 0 6-Jan-00
6-Jan-00 10:00 0 6-Jan-00
6-Jan-00 10:10 0 6-Jan-00
6-Jan-00 10:20 0 6-Jan-00
6-Jan-00 10:30 0 6-Jan-00
6-Jan-00 10:40 0 6-Jan-00
6-Jan-00 10:50 0 6-Jan-00
6-Jan-00 11:00 0 6-Jan-00
6-Jan-00 11:10 0 6-Jan-00
6-Jan-00 11:20 0 6-Jan-00
6-Jan-00 11:30 0 6-Jan-00
6-Jan-00 11:40 0 6-Jan-00
6-Jan-00 11:50 0 6-Jan-00
6-Jan-00 12:00 0 6-Jan-00
6-Jan-00 12:10 0 6-Jan-00
6-Jan-00 12:20 0 6-Jan-00
6-Jan-00 12:30 0 6-Jan-00
6-Jan-00 12:40 0 6-Jan-00
6-Jan-00 12:50 0 6-Jan-00
6-Jan-00 13:00 0 6-Jan-00
6-Jan-00 13:10 0 6-Jan-00
6-Jan-00 13:20 0 6-Jan-00
6-Jan-00 13:30 0 6-Jan-00
6-Jan-00 13:40 0 6-Jan-00
6-Jan-00 13:50 0 6-Jan-00
6-Jan-00 14:00 0 6-Jan-00
6-Jan-00 14:10 0 6-Jan-00
6-Jan-00 14:20 0 6-Jan-00
6-Jan-00 14:30 0 6-Jan-00
6-Jan-00 14:40 0 6-Jan-00
6-Jan-00 14:50 0 6-Jan-00
6-Jan-00 15:00 0 6-Jan-00
6-Jan-00 15:10 0 6-Jan-00
6-Jan-00 15:20 0 6-Jan-00
6-Jan-00 15:30 0 6-Jan-00
6-Jan-00 15:40 0 6-Jan-00
6-Jan-00 15:50 0 6-Jan-00
6-Jan-00 16:00 0 6-Jan-00
6-Jan-00 16:10 0 6-Jan-00
6-Jan-00 16:20 0 6-Jan-00
6-Jan-00 16:30 0 6-Jan-00
6-Jan-00 16:40 0 6-Jan-00
6-Jan-00 16:50 0 6-Jan-00
6-Jan-00 17:00 0 6-Jan-00
6-Jan-00 17:10 0 6-Jan-00
6-Jan-00 17:20 0 6-Jan-00
6-Jan-00 17:30 0 6-Jan-00
6-Jan-00 17:40 0 6-Jan-00
6-Jan-00 17:50 0 6-Jan-00
6-Jan-00 18:00 0 6-Jan-00
6-Jan-00 18:10 0 6-Jan-00
6-Jan-00 18:20 0 6-Jan-00
6-Jan-00 18:30 0 6-Jan-00
6-Jan-00 18:40 0 6-Jan-00
6-Jan-00 18:50 0 6-Jan-00
6-Jan-00 19:00 0 6-Jan-00
6-Jan-00 19:10 0 6-Jan-00
6-Jan-00 19:20 0 6-Jan-00
6-Jan-00 19:30 0 6-Jan-00
6-Jan-00 19:40 0 6-Jan-00
6-Jan-00 19:50 0 6-Jan-00
6-Jan-00 20:00 0 6-Jan-00
6-Jan-00 20:10 0 6-Jan-00
6-Jan-00 20:20 0 6-Jan-00
6-Jan-00 20:30 0 6-Jan-00
6-Jan-00 20:40 0 6-Jan-00
6-Jan-00 20:50 0 6-Jan-00
6-Jan-00 21:00 0 6-Jan-00
6-Jan-00 21:10 0 6-Jan-00
6-Jan-00 21:20 0 6-Jan-00
6-Jan-00 21:30 0 6-Jan-00
6-Jan-00 21:40 0 6-Jan-00
6-Jan-00 21:50 0 6-Jan-00
6-Jan-00 22:00 0 6-Jan-00
6-Jan-00 22:10 0 6-Jan-00
6-Jan-00 22:20 0 6-Jan-00
6-Jan-00 22:30 0 6-Jan-00
6-Jan-00 22:40 0 6-Jan-00
6-Jan-00 22:50 0 6-Jan-00
6-Jan-00 23:00 0 6-Jan-00
6-Jan-00 23:10 0 6-Jan-00
6-Jan-00 23:20 0 6-Jan-00
6-Jan-00 23:30 0 6-Jan-00
6-Jan-00 23:40 0 6-Jan-00
6-Jan-00 23:50 0 6-Jan-00
7-Jan-00 0:00 0 7-Jan-00
Volumen 612.642 MMC
n_PEÑITA Max 7462.5 m3/s
Time Outflow (m3/s)
0:00 0
0:10 0
0:20 0
0:30 0
0:40 0
0:50 0
1:00 0
1:10 0
1:20 0
1:30 0
1:40 0
1:50 0
2:00 0
2:10 0
2:20 0
2:30 0
2:40 0
2:50 0
3:00 0
3:10 0
3:20 0
3:30 0
3:40 0
3:50 0
4:00 0
4:10 0
4:20 0
4:30 0
4:40 0
4:50 0
5:00 0
5:10 0
5:20 0
5:30 0
5:40 0
5:50 0
6:00 0
6:10 0
6:20 0
6:30 0
6:40 0
6:50 0
7:00 0
7:10 0
7:20 0
7:30 0
7:40 0
7:50 0
8:00 0
8:10 0
8:20 0
8:30 0
8:40 0
8:50 0
9:00 0
9:10 0
9:20 0
9:30 0
9:40 0
9:50 0
10:00 0
10:10 0
10:20 0
10:30 0
10:40 0
10:50 0
11:00 0
11:10 0
11:20 0
11:30 0
11:40 0
11:50 0
12:00 0
12:10 0
12:20 0
12:30 0
12:40 0
12:50 0
13:00 0
13:10 0
13:20 0
13:30 0
13:40 0
13:50 0
14:00 0
14:10 0
14:20 0
14:30 0
14:40 0
14:50 0
15:00 0
15:10 0
15:20 0
15:30 0
15:40 0
15:50 0
16:00 0
16:10 0
16:20 0
16:30 0
16:40 0
16:50 0
17:00 0
17:10 0
17:20 0
17:30 0
17:40 0
17:50 0
18:00 0
18:10 0
18:20 0
18:30 0
18:40 0
18:50 0
19:00 0
19:10 0
19:20 0
19:30 0
19:40 0
19:50 0
20:00 0
20:10 0
20:20 0
20:30 0
20:40 0
20:50 0
21:00 0
21:10 0
21:20 0
21:30 0
21:40 0
21:50 0
22:00 0
22:10 0
22:20 0
22:30 0
22:40 0
22:50 0
23:00 0
23:10 0
23:20 0
23:30 0
23:40 0
23:50 0
0:00 0
0:10 0
0:20 0
0:30 0
0:40 0
0:50 0
1:00 0
1:10 0
1:20 0
1:30 0
1:40 0
1:50 0
2:00 0
2:10 0.1
2:20 0.1
2:30 0.1
2:40 0.1
2:50 0.1
3:00 0.2
3:10 0.2
3:20 0.3
3:30 0.4
3:40 0.6
3:50 0.7
4:00 0.9
4:10 1.2
4:20 1.6
4:30 2.1
4:40 2.7
4:50 3.4
5:00 4.4
5:10 5.6
5:20 7.1
5:30 8.9
5:40 11.2
5:50 13.9
6:00 17.3
6:10 21.3
6:20 26.1
6:30 31.8
6:40 38.5
6:50 46.3
7:00 55.4
7:10 65.9
7:20 77.9
7:30 91.5
7:40 106.9
7:50 124.1
8:00 143.3
8:10 164.6
8:20 187.9
8:30 213.4
8:40 241.1
8:50 271
9:00 303.1
9:10 337.2
9:20 373.4
9:30 411.6
9:40 451.6
9:50 493.3
10:00 536.6
10:10 581.4
10:20 627.5
10:30 674.9
10:40 723.3
10:50 772.7
11:00 823.1
11:10 874.5
11:20 927
11:30 980.7
11:40 1036
11:50 1093
12:00 1152
12:10 1213.5
12:20 1277.7
12:30 1345.1
12:40 1415.9
12:50 1490.4
13:00 1568.8
13:10 1651.2
13:20 1737.6
13:30 1827.9
13:40 1921.6
13:50 2018.4
14:00 2117.6
14:10 2219
14:20 2322.1
14:30 2426.5
14:40 2532.1
14:50 2638.6
15:00 2745.4
15:10 2852.1
15:20 2958.3
15:30 3063.8
15:40 3168.5
15:50 3272.4
16:00 3376.2
16:10 3480.1
16:20 3584.3
16:30 3688.5
16:40 3792.3
16:50 3895.4
17:00 3997.4
17:10 4098
17:20 4197.1
17:30 4294.8
17:40 4391.4
17:50 4487.1
18:00 4582.6
18:10 4678.2
18:20 4774.5
18:30 4871.7
18:40 4969.9
18:50 5069.5
19:00 5170.8
19:10 5273.6
19:20 5377.9
19:30 5483.9
19:40 5591.6
19:50 5700.6
20:00 5809.9
20:10 5918.7
20:20 6026.3
20:30 6132.2
20:40 6236.3
20:50 6338.3
21:00 6438
21:10 6535
21:20 6629
21:30 6719.4
21:40 6805.7
21:50 6887.3
22:00 6963.9
22:10 7035.4
22:20 7101.5
22:30 7162.1
22:40 7217.2
22:50 7266.5
23:00 7310
23:10 7347.5
23:20 7379.3
23:30 7405.4
23:40 7426.2
23:50 7442
0:00 7453
0:10 7459.7
0:20 7462.5
0:30 7461.6
0:40 7457.4
0:50 7450.4
1:00 7440.8
1:10 7429
1:20 7415.4
1:30 7400.2
1:40 7383.6
1:50 7366.1
2:00 7347.7
2:10 7328.6
2:20 7309.1
2:30 7289.2
2:40 7269.1
2:50 7248.8
3:00 7228.4
3:10 7208
3:20 7187.6
3:30 7167.2
3:40 7146.9
3:50 7126.6
4:00 7106.3
4:10 7086.2
4:20 7066.1
4:30 7046.1
4:40 7026.3
4:50 7006.6
5:00 6987.1
5:10 6967.7
5:20 6948.4
5:30 6929.3
5:40 6910.1
5:50 6891.1
6:00 6872
6:10 6852.9
6:20 6833.7
6:30 6814.3
6:40 6794.5
6:50 6774.3
7:00 6753.4
7:10 6731.8
7:20 6709.3
7:30 6685.8
7:40 6661.2
7:50 6635.3
8:00 6608
8:10 6579.2
8:20 6548.8
8:30 6516.6
8:40 6482.5
8:50 6446.2
9:00 6407.7
9:10 6366.8
9:20 6323.2
9:30 6276.9
9:40 6227.8
9:50 6175.8
10:00 6120.7
10:10 6062.6
10:20 6001.4
10:30 5937.1
10:40 5869.7
10:50 5799.3
11:00 5726.1
11:10 5650.1
11:20 5571.4
11:30 5490.3
11:40 5406.9
11:50 5321.4
12:00 5233.8
12:10 5144.5
12:20 5053.5
12:30 4961.3
12:40 4867.9
12:50 4773.6
13:00 4678.7
13:10 4583.2
13:20 4487.5
13:30 4391.8
13:40 4296.1
13:50 4200.8
14:00 4105.9
14:10 4011.7
14:20 3918.3
14:30 3825.8
14:40 3734.4
14:50 3644
15:00 3555
15:10 3467.2
15:20 3380.7
15:30 3295.7
15:40 3212.2
15:50 3130.2
16:00 3049.7
16:10 2970.8
16:20 2893.5
16:30 2817.8
16:40 2743.7
16:50 2671.1
17:00 2600.2
17:10 2530.9
17:20 2463.2
17:30 2397
17:40 2332.4
17:50 2269.3
18:00 2207.7
18:10 2147.5
18:20 2088.9
18:30 2031.6
18:40 1975.7
18:50 1921.1
19:00 1867.9
19:10 1815.9
19:20 1765.1
19:30 1715.6
19:40 1667.2
19:50 1619.9
20:00 1573.7
20:10 1528.5
20:20 1484.3
20:30 1441
20:40 1398.7
20:50 1357.3
21:00 1316.7
21:10 1277
21:20 1238.1
21:30 1200
21:40 1162.6
21:50 1125.9
22:00 1090
22:10 1054.7
22:20 1020.1
22:30 986.2
22:40 953
22:50 920.4
23:00 888.5
23:10 857.2
23:20 826.5
23:30 796.4
23:40 767
23:50 738.3
0:00 710.1
0:10 682.6
0:20 655.7
0:30 629.5
0:40 603.9
0:50 579
1:00 554.7
1:10 531.1
1:20 508.1
1:30 485.8
1:40 464.2
1:50 443.2
2:00 422.9
2:10 403.2
2:20 384.2
2:30 365.9
2:40 348.2
2:50 331.1
3:00 314.7
3:10 299
3:20 283.8
3:30 269.3
3:40 255.4
3:50 242.1
4:00 229.3
4:10 217.2
4:20 205.6
4:30 194.5
4:40 184
4:50 174
5:00 164.4
5:10 155.4
5:20 146.8
5:30 138.7
5:40 131
5:50 123.8
6:00 116.9
6:10 110.4
6:20 104.3
6:30 98.5
6:40 93.1
6:50 88
7:00 83.2
7:10 78.6
7:20 74.4
7:30 70.3
7:40 66.6
7:50 63
8:00 59.7
8:10 56.6
8:20 53.7
8:30 50.9
8:40 48.4
8:50 45.9
9:00 43.7
9:10 41.5
9:20 39.5
9:30 37.6
9:40 35.8
9:50 34.2
10:00 32.6
10:10 31.1
10:20 29.7
10:30 28.4
10:40 27.1
10:50 25.9
11:00 24.8
11:10 23.7
11:20 22.7
11:30 21.8
11:40 20.9
11:50 20
12:00 19.2
12:10 18.4
12:20 17.6
12:30 16.9
12:40 16.3
12:50 15.6
13:00 15
13:10 14.4
13:20 13.8
13:30 13.3
13:40 12.8
13:50 12.3
14:00 11.8
14:10 11.3
14:20 10.9
14:30 10.5
14:40 10
14:50 9.7
15:00 9.3
15:10 8.9
15:20 8.6
15:30 8.2
15:40 7.9
15:50 7.6
16:00 7.3
16:10 7
16:20 6.7
16:30 6.5
16:40 6.2
16:50 6
17:00 5.7
17:10 5.5
17:20 5.3
17:30 5.1
17:40 4.9
17:50 4.7
18:00 4.5
18:10 4.3
18:20 4.1
18:30 3.9
18:40 3.8
18:50 3.6
19:00 3.5
19:10 3.3
19:20 3.2
19:30 3
19:40 2.9
19:50 2.8
20:00 2.7
20:10 2.5
20:20 2.4
20:30 2.3
20:40 2.2
20:50 2.1
21:00 2
21:10 1.9
21:20 1.8
21:30 1.7
21:40 1.7
21:50 1.6
22:00 1.5
22:10 1.4
22:20 1.4
22:30 1.3
22:40 1.2
22:50 1.2
23:00 1.1
23:10 1
23:20 1
23:30 0.9
23:40 0.9
23:50 0.8
0:00 0.8
0:10 0.7
0:20 0.7
0:30 0.6
0:40 0.6
0:50 0.6
1:00 0.5
1:10 0.5
1:20 0.5
1:30 0.4
1:40 0.4
1:50 0.4
2:00 0.3
2:10 0.3
2:20 0.3
2:30 0.3
2:40 0.3
2:50 0.2
3:00 0.2
3:10 0.2
3:20 0.2
3:30 0.2
3:40 0.2
3:50 0.1
4:00 0.1
4:10 0.1
4:20 0.1
4:30 0.1
4:40 0.1
4:50 0.1
5:00 0.1
5:10 0.1
5:20 0.1
5:30 0.1
5:40 0
5:50 0
6:00 0
6:10 0
6:20 0
6:30 0
6:40 0
6:50 0
7:00 0
7:10 0
7:20 0
7:30 0
7:40 0
7:50 0
8:00 0
8:10 0
8:20 0
8:30 0
8:40 0
8:50 0
9:00 0
9:10 0
9:20 0
9:30 0
9:40 0
9:50 0
10:00 0
10:10 0
10:20 0
10:30 0
10:40 0
10:50 0
11:00 0
11:10 0
11:20 0
11:30 0
11:40 0
11:50 0
12:00 0
12:10 0
12:20 0
12:30 0
12:40 0
12:50 0
13:00 0
13:10 0
13:20 0
13:30 0
13:40 0
13:50 0
14:00 0
14:10 0
14:20 0
14:30 0
14:40 0
14:50 0
15:00 0
15:10 0
15:20 0
15:30 0
15:40 0
15:50 0
16:00 0
16:10 0
16:20 0
16:30 0
16:40 0
16:50 0
17:00 0
17:10 0
17:20 0
17:30 0
17:40 0
17:50 0
18:00 0
18:10 0
18:20 0
18:30 0
18:40 0
18:50 0
19:00 0
19:10 0
19:20 0
19:30 0
19:40 0
19:50 0
20:00 0
20:10 0
20:20 0
20:30 0
20:40 0
20:50 0
21:00 0
21:10 0
21:20 0
21:30 0
21:40 0
21:50 0
22:00 0
22:10 0
22:20 0
22:30 0
22:40 0
22:50 0
23:00 0
23:10 0
23:20 0
23:30 0
23:40 0
23:50 0
0:00 0
0:10 0
0:20 0
0:30 0
0:40 0
0:50 0
1:00 0
1:10 0
1:20 0
1:30 0
1:40 0
1:50 0
2:00 0
2:10 0
2:20 0
2:30 0
2:40 0
2:50 0
3:00 0
3:10 0
3:20 0
3:30 0
3:40 0
3:50 0
4:00 0
4:10 0
4:20 0
4:30 0
4:40 0
4:50 0
5:00 0
5:10 0
5:20 0
5:30 0
5:40 0
5:50 0
6:00 0
6:10 0
6:20 0
6:30 0
6:40 0
6:50 0
7:00 0
7:10 0
7:20 0
7:30 0
7:40 0
7:50 0
8:00 0
8:10 0
8:20 0
8:30 0
8:40 0
8:50 0
9:00 0
9:10 0
9:20 0
9:30 0
9:40 0
9:50 0
10:00 0
10:10 0
10:20 0
10:30 0
10:40 0
10:50 0
11:00 0
11:10 0
11:20 0
11:30 0
11:40 0
11:50 0
12:00 0
12:10 0
12:20 0
12:30 0
12:40 0
12:50 0
13:00 0
13:10 0
13:20 0
13:30 0
13:40 0
13:50 0
14:00 0
14:10 0
14:20 0
14:30 0
14:40 0
14:50 0
15:00 0
15:10 0
15:20 0
15:30 0
15:40 0
15:50 0
16:00 0
16:10 0
16:20 0
16:30 0
16:40 0
16:50 0
17:00 0
17:10 0
17:20 0
17:30 0
17:40 0
17:50 0
18:00 0
18:10 0
18:20 0
18:30 0
18:40 0
18:50 0
19:00 0
19:10 0
19:20 0
19:30 0
19:40 0
19:50 0
20:00 0
20:10 0
20:20 0
20:30 0
20:40 0
20:50 0
21:00 0
21:10 0
21:20 0
21:30 0
21:40 0
21:50 0
22:00 0
22:10 0
22:20 0
22:30 0
22:40 0
22:50 0
23:00 0
23:10 0
23:20 0
23:30 0
23:40 0
23:50 0
0:00 0
Volumen 172.9563 MMC
N_Ala
Max 4249.8 m3/s n_PEÑITA
Date Time Outflow (m3/s) Date
1-Jan-00 0:00 0 1-Jan-00
1-Jan-00 0:10 0 1-Jan-00
1-Jan-00 0:20 0 1-Jan-00
1-Jan-00 0:30 0 1-Jan-00
1-Jan-00 0:40 0 1-Jan-00
1-Jan-00 0:50 0 1-Jan-00
1-Jan-00 1:00 0 1-Jan-00
1-Jan-00 1:10 0 1-Jan-00
1-Jan-00 1:20 0 1-Jan-00
1-Jan-00 1:30 0 1-Jan-00
1-Jan-00 1:40 0 1-Jan-00
1-Jan-00 1:50 0 1-Jan-00
1-Jan-00 2:00 0 1-Jan-00
1-Jan-00 2:10 0 1-Jan-00
1-Jan-00 2:20 0 1-Jan-00
1-Jan-00 2:30 0 1-Jan-00
1-Jan-00 2:40 0 1-Jan-00
1-Jan-00 2:50 0 1-Jan-00
1-Jan-00 3:00 0 1-Jan-00
1-Jan-00 3:10 0 1-Jan-00
1-Jan-00 3:20 0 1-Jan-00
1-Jan-00 3:30 0 1-Jan-00
1-Jan-00 3:40 0 1-Jan-00
1-Jan-00 3:50 0 1-Jan-00
1-Jan-00 4:00 0 1-Jan-00
1-Jan-00 4:10 0 1-Jan-00
1-Jan-00 4:20 0 1-Jan-00
1-Jan-00 4:30 0 1-Jan-00
1-Jan-00 4:40 0 1-Jan-00
1-Jan-00 4:50 0 1-Jan-00
1-Jan-00 5:00 0 1-Jan-00
1-Jan-00 5:10 0 1-Jan-00
1-Jan-00 5:20 0 1-Jan-00
1-Jan-00 5:30 0 1-Jan-00
1-Jan-00 5:40 0 1-Jan-00
1-Jan-00 5:50 0 1-Jan-00
1-Jan-00 6:00 0 1-Jan-00
1-Jan-00 6:10 0 1-Jan-00
1-Jan-00 6:20 0.1 1-Jan-00
1-Jan-00 6:30 0.4 1-Jan-00
1-Jan-00 6:40 0.9 1-Jan-00
1-Jan-00 6:50 1.7 1-Jan-00
1-Jan-00 7:00 2.8 1-Jan-00
1-Jan-00 7:10 4.1 1-Jan-00
1-Jan-00 7:20 5.7 1-Jan-00
1-Jan-00 7:30 7.6 1-Jan-00
1-Jan-00 7:40 9.7 1-Jan-00
1-Jan-00 7:50 12 1-Jan-00
1-Jan-00 8:00 14.3 1-Jan-00
1-Jan-00 8:10 17.1 1-Jan-00
1-Jan-00 8:20 20.7 1-Jan-00
1-Jan-00 8:30 25.7 1-Jan-00
1-Jan-00 8:40 31.6 1-Jan-00
1-Jan-00 8:50 37.8 1-Jan-00
1-Jan-00 9:00 43.9 1-Jan-00
1-Jan-00 9:10 55.7 1-Jan-00
1-Jan-00 9:20 82.1 1-Jan-00
1-Jan-00 9:30 130.5 1-Jan-00
1-Jan-00 9:40 192.8 1-Jan-00
1-Jan-00 9:50 259.9 1-Jan-00
1-Jan-00 10:00 325.1 1-Jan-00
1-Jan-00 10:10 375.2 1-Jan-00
1-Jan-00 10:20 402 1-Jan-00
1-Jan-00 10:30 400.2 1-Jan-00
1-Jan-00 10:40 386.1 1-Jan-00
1-Jan-00 10:50 374.8 1-Jan-00
1-Jan-00 11:00 375.9 1-Jan-00
1-Jan-00 11:10 394.1 1-Jan-00
1-Jan-00 11:20 422.6 1-Jan-00
1-Jan-00 11:30 458.4 1-Jan-00
1-Jan-00 11:40 507.5 1-Jan-00
1-Jan-00 11:50 573.8 1-Jan-00
1-Jan-00 12:00 658.6 1-Jan-00
1-Jan-00 12:10 760.5 1-Jan-00
1-Jan-00 12:20 873.2 1-Jan-00
1-Jan-00 12:30 991.8 1-Jan-00
1-Jan-00 12:40 1113.3 1-Jan-00
1-Jan-00 12:50 1234.7 1-Jan-00
1-Jan-00 13:00 1352.6 1-Jan-00
1-Jan-00 13:10 1463.6 1-Jan-00
1-Jan-00 13:20 1563.8 1-Jan-00
1-Jan-00 13:30 1650.6 1-Jan-00
1-Jan-00 13:40 1723.2 1-Jan-00
1-Jan-00 13:50 1781.5 1-Jan-00
1-Jan-00 14:00 1826.2 1-Jan-00
1-Jan-00 14:10 1857.8 1-Jan-00
1-Jan-00 14:20 1876.9 1-Jan-00
1-Jan-00 14:30 1885 1-Jan-00
1-Jan-00 14:40 1885.2 1-Jan-00
1-Jan-00 14:50 1880.7 1-Jan-00
1-Jan-00 15:00 1874.4 1-Jan-00
1-Jan-00 15:10 1869.1 1-Jan-00
1-Jan-00 15:20 1866.7 1-Jan-00
1-Jan-00 15:30 1869.3 1-Jan-00
1-Jan-00 15:40 1879 1-Jan-00
1-Jan-00 15:50 1897.4 1-Jan-00
1-Jan-00 16:00 1926.2 1-Jan-00
1-Jan-00 16:10 1966.1 1-Jan-00
1-Jan-00 16:20 2017.4 1-Jan-00
1-Jan-00 16:30 2080.4 1-Jan-00
1-Jan-00 16:40 2156.2 1-Jan-00
1-Jan-00 16:50 2245.3 1-Jan-00
1-Jan-00 17:00 2347.6 1-Jan-00
1-Jan-00 17:10 2462.4 1-Jan-00
1-Jan-00 17:20 2587.8 1-Jan-00
1-Jan-00 17:30 2721.9 1-Jan-00
1-Jan-00 17:40 2862.7 1-Jan-00
1-Jan-00 17:50 3007.7 1-Jan-00
1-Jan-00 18:00 3154.5 1-Jan-00
1-Jan-00 18:10 3300.4 1-Jan-00
1-Jan-00 18:20 3442.8 1-Jan-00
1-Jan-00 18:30 3579.3 1-Jan-00
1-Jan-00 18:40 3707.3 1-Jan-00
1-Jan-00 18:50 3825 1-Jan-00
1-Jan-00 19:00 3930.4 1-Jan-00
1-Jan-00 19:10 4022.1 1-Jan-00
1-Jan-00 19:20 4099 1-Jan-00
1-Jan-00 19:30 4160.4 1-Jan-00
1-Jan-00 19:40 4205.9 1-Jan-00
1-Jan-00 19:50 4235.6 1-Jan-00
1-Jan-00 20:00 4249.8 1-Jan-00
1-Jan-00 20:10 4248.7 1-Jan-00
1-Jan-00 20:20 4232.8 1-Jan-00
1-Jan-00 20:30 4202.6 1-Jan-00
1-Jan-00 20:40 4160.1 1-Jan-00
1-Jan-00 20:50 4107.2 1-Jan-00
1-Jan-00 21:00 4045.4 1-Jan-00
1-Jan-00 21:10 3976.3 1-Jan-00
1-Jan-00 21:20 3900.8 1-Jan-00
1-Jan-00 21:30 3820.1 1-Jan-00
1-Jan-00 21:40 3735.2 1-Jan-00
1-Jan-00 21:50 3647.2 1-Jan-00
1-Jan-00 22:00 3556.9 1-Jan-00
1-Jan-00 22:10 3465.4 1-Jan-00
1-Jan-00 22:20 3373.2 1-Jan-00
1-Jan-00 22:30 3281 1-Jan-00
1-Jan-00 22:40 3189.5 1-Jan-00
1-Jan-00 22:50 3099.1 1-Jan-00
1-Jan-00 23:00 3010.2 1-Jan-00
1-Jan-00 23:10 2923.4 1-Jan-00
1-Jan-00 23:20 2838.8 1-Jan-00
1-Jan-00 23:30 2756.8 1-Jan-00
1-Jan-00 23:40 2677.7 1-Jan-00
1-Jan-00 23:50 2601.6 1-Jan-00
2-Jan-00 0:00 2528.7 2-Jan-00
2-Jan-00 0:10 2457.9 2-Jan-00
2-Jan-00 0:20 2387.6 2-Jan-00
2-Jan-00 0:30 2316.9 2-Jan-00
2-Jan-00 0:40 2248.3 2-Jan-00
2-Jan-00 0:50 2183.9 2-Jan-00
2-Jan-00 1:00 2124.6 2-Jan-00
2-Jan-00 1:10 2070.9 2-Jan-00
2-Jan-00 1:20 2021.5 2-Jan-00
2-Jan-00 1:30 1975.8 2-Jan-00
2-Jan-00 1:40 1933.2 2-Jan-00
2-Jan-00 1:50 1893 2-Jan-00
2-Jan-00 2:00 1854.8 2-Jan-00
2-Jan-00 2:10 1817.8 2-Jan-00
2-Jan-00 2:20 1781.7 2-Jan-00
2-Jan-00 2:30 1745.8 2-Jan-00
2-Jan-00 2:40 1709.8 2-Jan-00
2-Jan-00 2:50 1673.4 2-Jan-00
2-Jan-00 3:00 1636.4 2-Jan-00
2-Jan-00 3:10 1598.9 2-Jan-00
2-Jan-00 3:20 1560.9 2-Jan-00
2-Jan-00 3:30 1522.5 2-Jan-00
2-Jan-00 3:40 1484 2-Jan-00
2-Jan-00 3:50 1445.7 2-Jan-00
2-Jan-00 4:00 1407.9 2-Jan-00
2-Jan-00 4:10 1370.8 2-Jan-00
2-Jan-00 4:20 1334.8 2-Jan-00
2-Jan-00 4:30 1300.1 2-Jan-00
2-Jan-00 4:40 1266.8 2-Jan-00
2-Jan-00 4:50 1235 2-Jan-00
2-Jan-00 5:00 1204.9 2-Jan-00
2-Jan-00 5:10 1176.4 2-Jan-00
2-Jan-00 5:20 1149.5 2-Jan-00
2-Jan-00 5:30 1124.1 2-Jan-00
2-Jan-00 5:40 1100.2 2-Jan-00
2-Jan-00 5:50 1077.7 2-Jan-00
2-Jan-00 6:00 1056.4 2-Jan-00
2-Jan-00 6:10 1036.1 2-Jan-00
2-Jan-00 6:20 1016.7 2-Jan-00
2-Jan-00 6:30 997.9 2-Jan-00
2-Jan-00 6:40 979.6 2-Jan-00
2-Jan-00 6:50 961.5 2-Jan-00
2-Jan-00 7:00 943.4 2-Jan-00
2-Jan-00 7:10 925 2-Jan-00
2-Jan-00 7:20 906.2 2-Jan-00
2-Jan-00 7:30 886.8 2-Jan-00
2-Jan-00 7:40 866.5 2-Jan-00
2-Jan-00 7:50 845.3 2-Jan-00
2-Jan-00 8:00 823 2-Jan-00
2-Jan-00 8:10 799.5 2-Jan-00
2-Jan-00 8:20 774.8 2-Jan-00
2-Jan-00 8:30 748.9 2-Jan-00
2-Jan-00 8:40 721.8 2-Jan-00
2-Jan-00 8:50 693.6 2-Jan-00
2-Jan-00 9:00 664.5 2-Jan-00
2-Jan-00 9:10 634.5 2-Jan-00
2-Jan-00 9:20 603.8 2-Jan-00
2-Jan-00 9:30 572.6 2-Jan-00
2-Jan-00 9:40 541.1 2-Jan-00
2-Jan-00 9:50 509.6 2-Jan-00
2-Jan-00 10:00 478.1 2-Jan-00
2-Jan-00 10:10 447 2-Jan-00
2-Jan-00 10:20 416.4 2-Jan-00
2-Jan-00 10:30 386.6 2-Jan-00
2-Jan-00 10:40 357.5 2-Jan-00
2-Jan-00 10:50 329.5 2-Jan-00
2-Jan-00 11:00 302.7 2-Jan-00
2-Jan-00 11:10 277 2-Jan-00
2-Jan-00 11:20 252.7 2-Jan-00
2-Jan-00 11:30 229.7 2-Jan-00
2-Jan-00 11:40 208.1 2-Jan-00
2-Jan-00 11:50 187.9 2-Jan-00
2-Jan-00 12:00 169.2 2-Jan-00
2-Jan-00 12:10 151.8 2-Jan-00
2-Jan-00 12:20 135.8 2-Jan-00
2-Jan-00 12:30 121.1 2-Jan-00
2-Jan-00 12:40 107.7 2-Jan-00
2-Jan-00 12:50 95.5 2-Jan-00
2-Jan-00 13:00 84.5 2-Jan-00
2-Jan-00 13:10 74.5 2-Jan-00
2-Jan-00 13:20 65.5 2-Jan-00
2-Jan-00 13:30 57.4 2-Jan-00
2-Jan-00 13:40 50.2 2-Jan-00
2-Jan-00 13:50 43.8 2-Jan-00
2-Jan-00 14:00 38.1 2-Jan-00
2-Jan-00 14:10 33.1 2-Jan-00
2-Jan-00 14:20 28.7 2-Jan-00
2-Jan-00 14:30 24.8 2-Jan-00
2-Jan-00 14:40 21.3 2-Jan-00
2-Jan-00 14:50 18.4 2-Jan-00
2-Jan-00 15:00 15.7 2-Jan-00
2-Jan-00 15:10 13.5 2-Jan-00
2-Jan-00 15:20 11.5 2-Jan-00
2-Jan-00 15:30 9.8 2-Jan-00
2-Jan-00 15:40 8.3 2-Jan-00
2-Jan-00 15:50 7.1 2-Jan-00
2-Jan-00 16:00 6 2-Jan-00
2-Jan-00 16:10 5.1 2-Jan-00
2-Jan-00 16:20 4.3 2-Jan-00
2-Jan-00 16:30 3.6 2-Jan-00
2-Jan-00 16:40 3 2-Jan-00
2-Jan-00 16:50 2.5 2-Jan-00
2-Jan-00 17:00 2.1 2-Jan-00
2-Jan-00 17:10 1.8 2-Jan-00
2-Jan-00 17:20 1.5 2-Jan-00
2-Jan-00 17:30 1.2 2-Jan-00
2-Jan-00 17:40 1 2-Jan-00
2-Jan-00 17:50 0.8 2-Jan-00
2-Jan-00 18:00 0.7 2-Jan-00
2-Jan-00 18:10 0.6 2-Jan-00
2-Jan-00 18:20 0.5 2-Jan-00
2-Jan-00 18:30 0.4 2-Jan-00
2-Jan-00 18:40 0.3 2-Jan-00
2-Jan-00 18:50 0.3 2-Jan-00
2-Jan-00 19:00 0.2 2-Jan-00
2-Jan-00 19:10 0.2 2-Jan-00
2-Jan-00 19:20 0.1 2-Jan-00
2-Jan-00 19:30 0.1 2-Jan-00
2-Jan-00 19:40 0.1 2-Jan-00
2-Jan-00 19:50 0.1 2-Jan-00
2-Jan-00 20:00 0.1 2-Jan-00
2-Jan-00 20:10 0 2-Jan-00
2-Jan-00 20:20 0 2-Jan-00
2-Jan-00 20:30 0 2-Jan-00
2-Jan-00 20:40 0 2-Jan-00
2-Jan-00 20:50 0 2-Jan-00
2-Jan-00 21:00 0 2-Jan-00
2-Jan-00 21:10 0 2-Jan-00
2-Jan-00 21:20 0 2-Jan-00
2-Jan-00 21:30 0 2-Jan-00
2-Jan-00 21:40 0 2-Jan-00
2-Jan-00 21:50 0 2-Jan-00
2-Jan-00 22:00 0 2-Jan-00
2-Jan-00 22:10 0 2-Jan-00
2-Jan-00 22:20 0 2-Jan-00
2-Jan-00 22:30 0 2-Jan-00
2-Jan-00 22:40 0 2-Jan-00
2-Jan-00 22:50 0 2-Jan-00
2-Jan-00 23:00 0 2-Jan-00
2-Jan-00 23:10 0 2-Jan-00
2-Jan-00 23:20 0 2-Jan-00
2-Jan-00 23:30 0 2-Jan-00
2-Jan-00 23:40 0 2-Jan-00
2-Jan-00 23:50 0 2-Jan-00
3-Jan-00 0:00 0 3-Jan-00
3-Jan-00 0:10 0 3-Jan-00
3-Jan-00 0:20 0 3-Jan-00
3-Jan-00 0:30 0 3-Jan-00
3-Jan-00 0:40 0 3-Jan-00
3-Jan-00 0:50 0 3-Jan-00
3-Jan-00 1:00 0 3-Jan-00
3-Jan-00 1:10 0 3-Jan-00
3-Jan-00 1:20 0 3-Jan-00
3-Jan-00 1:30 0 3-Jan-00
3-Jan-00 1:40 0 3-Jan-00
3-Jan-00 1:50 0 3-Jan-00
3-Jan-00 2:00 0 3-Jan-00
3-Jan-00 2:10 0 3-Jan-00
3-Jan-00 2:20 0 3-Jan-00
3-Jan-00 2:30 0 3-Jan-00
3-Jan-00 2:40 0 3-Jan-00
3-Jan-00 2:50 0 3-Jan-00
3-Jan-00 3:00 0 3-Jan-00
3-Jan-00 3:10 0 3-Jan-00
3-Jan-00 3:20 0 3-Jan-00
3-Jan-00 3:30 0 3-Jan-00
3-Jan-00 3:40 0 3-Jan-00
3-Jan-00 3:50 0 3-Jan-00
3-Jan-00 4:00 0 3-Jan-00
3-Jan-00 4:10 0 3-Jan-00
3-Jan-00 4:20 0 3-Jan-00
3-Jan-00 4:30 0 3-Jan-00
3-Jan-00 4:40 0 3-Jan-00
3-Jan-00 4:50 0 3-Jan-00
3-Jan-00 5:00 0 3-Jan-00
3-Jan-00 5:10 0 3-Jan-00
3-Jan-00 5:20 0 3-Jan-00
3-Jan-00 5:30 0 3-Jan-00
3-Jan-00 5:40 0 3-Jan-00
3-Jan-00 5:50 0 3-Jan-00
3-Jan-00 6:00 0 3-Jan-00
3-Jan-00 6:10 0 3-Jan-00
3-Jan-00 6:20 0 3-Jan-00
3-Jan-00 6:30 0 3-Jan-00
3-Jan-00 6:40 0 3-Jan-00
3-Jan-00 6:50 0 3-Jan-00
3-Jan-00 7:00 0 3-Jan-00
3-Jan-00 7:10 0 3-Jan-00
3-Jan-00 7:20 0 3-Jan-00
3-Jan-00 7:30 0 3-Jan-00
3-Jan-00 7:40 0 3-Jan-00
3-Jan-00 7:50 0 3-Jan-00
3-Jan-00 8:00 0 3-Jan-00
3-Jan-00 8:10 0 3-Jan-00
3-Jan-00 8:20 0 3-Jan-00
3-Jan-00 8:30 0 3-Jan-00
3-Jan-00 8:40 0 3-Jan-00
3-Jan-00 8:50 0 3-Jan-00
3-Jan-00 9:00 0 3-Jan-00
3-Jan-00 9:10 0 3-Jan-00
3-Jan-00 9:20 0 3-Jan-00
3-Jan-00 9:30 0 3-Jan-00
3-Jan-00 9:40 0 3-Jan-00
3-Jan-00 9:50 0 3-Jan-00
3-Jan-00 10:00 0 3-Jan-00
3-Jan-00 10:10 0 3-Jan-00
3-Jan-00 10:20 0 3-Jan-00
3-Jan-00 10:30 0 3-Jan-00
3-Jan-00 10:40 0 3-Jan-00
3-Jan-00 10:50 0 3-Jan-00
3-Jan-00 11:00 0 3-Jan-00
3-Jan-00 11:10 0 3-Jan-00
3-Jan-00 11:20 0 3-Jan-00
3-Jan-00 11:30 0 3-Jan-00
3-Jan-00 11:40 0 3-Jan-00
3-Jan-00 11:50 0 3-Jan-00
3-Jan-00 12:00 0 3-Jan-00
3-Jan-00 12:10 0 3-Jan-00
3-Jan-00 12:20 0 3-Jan-00
3-Jan-00 12:30 0 3-Jan-00
3-Jan-00 12:40 0 3-Jan-00
3-Jan-00 12:50 0 3-Jan-00
3-Jan-00 13:00 0 3-Jan-00
3-Jan-00 13:10 0 3-Jan-00
3-Jan-00 13:20 0 3-Jan-00
3-Jan-00 13:30 0 3-Jan-00
3-Jan-00 13:40 0 3-Jan-00
3-Jan-00 13:50 0 3-Jan-00
3-Jan-00 14:00 0 3-Jan-00
3-Jan-00 14:10 0 3-Jan-00
3-Jan-00 14:20 0 3-Jan-00
3-Jan-00 14:30 0 3-Jan-00
3-Jan-00 14:40 0 3-Jan-00
3-Jan-00 14:50 0 3-Jan-00
3-Jan-00 15:00 0 3-Jan-00
3-Jan-00 15:10 0 3-Jan-00
3-Jan-00 15:20 0 3-Jan-00
3-Jan-00 15:30 0 3-Jan-00
3-Jan-00 15:40 0 3-Jan-00
3-Jan-00 15:50 0 3-Jan-00
3-Jan-00 16:00 0 3-Jan-00
3-Jan-00 16:10 0 3-Jan-00
3-Jan-00 16:20 0 3-Jan-00
3-Jan-00 16:30 0 3-Jan-00
3-Jan-00 16:40 0 3-Jan-00
3-Jan-00 16:50 0 3-Jan-00
3-Jan-00 17:00 0 3-Jan-00
3-Jan-00 17:10 0 3-Jan-00
3-Jan-00 17:20 0 3-Jan-00
3-Jan-00 17:30 0 3-Jan-00
3-Jan-00 17:40 0 3-Jan-00
3-Jan-00 17:50 0 3-Jan-00
3-Jan-00 18:00 0 3-Jan-00
3-Jan-00 18:10 0 3-Jan-00
3-Jan-00 18:20 0 3-Jan-00
3-Jan-00 18:30 0 3-Jan-00
3-Jan-00 18:40 0 3-Jan-00
3-Jan-00 18:50 0 3-Jan-00
3-Jan-00 19:00 0 3-Jan-00
3-Jan-00 19:10 0 3-Jan-00
3-Jan-00 19:20 0 3-Jan-00
3-Jan-00 19:30 0 3-Jan-00
3-Jan-00 19:40 0 3-Jan-00
3-Jan-00 19:50 0 3-Jan-00
3-Jan-00 20:00 0 3-Jan-00
3-Jan-00 20:10 0 3-Jan-00
3-Jan-00 20:20 0 3-Jan-00
3-Jan-00 20:30 0 3-Jan-00
3-Jan-00 20:40 0 3-Jan-00
3-Jan-00 20:50 0 3-Jan-00
3-Jan-00 21:00 0 3-Jan-00
3-Jan-00 21:10 0 3-Jan-00
3-Jan-00 21:20 0 3-Jan-00
3-Jan-00 21:30 0 3-Jan-00
3-Jan-00 21:40 0 3-Jan-00
3-Jan-00 21:50 0 3-Jan-00
3-Jan-00 22:00 0 3-Jan-00
3-Jan-00 22:10 0 3-Jan-00
3-Jan-00 22:20 0 3-Jan-00
3-Jan-00 22:30 0 3-Jan-00
3-Jan-00 22:40 0 3-Jan-00
3-Jan-00 22:50 0 3-Jan-00
3-Jan-00 23:00 0 3-Jan-00
3-Jan-00 23:10 0 3-Jan-00
3-Jan-00 23:20 0 3-Jan-00
3-Jan-00 23:30 0 3-Jan-00
3-Jan-00 23:40 0 3-Jan-00
3-Jan-00 23:50 0 3-Jan-00
4-Jan-00 0:00 0 4-Jan-00
4-Jan-00 0:10 0 4-Jan-00
4-Jan-00 0:20 0 4-Jan-00
4-Jan-00 0:30 0 4-Jan-00
4-Jan-00 0:40 0 4-Jan-00
4-Jan-00 0:50 0 4-Jan-00
4-Jan-00 1:00 0 4-Jan-00
4-Jan-00 1:10 0 4-Jan-00
4-Jan-00 1:20 0 4-Jan-00
4-Jan-00 1:30 0 4-Jan-00
4-Jan-00 1:40 0 4-Jan-00
4-Jan-00 1:50 0 4-Jan-00
4-Jan-00 2:00 0 4-Jan-00
4-Jan-00 2:10 0 4-Jan-00
4-Jan-00 2:20 0 4-Jan-00
4-Jan-00 2:30 0 4-Jan-00
4-Jan-00 2:40 0 4-Jan-00
4-Jan-00 2:50 0 4-Jan-00
4-Jan-00 3:00 0 4-Jan-00
4-Jan-00 3:10 0 4-Jan-00
4-Jan-00 3:20 0 4-Jan-00
4-Jan-00 3:30 0 4-Jan-00
4-Jan-00 3:40 0 4-Jan-00
4-Jan-00 3:50 0 4-Jan-00
4-Jan-00 4:00 0 4-Jan-00
4-Jan-00 4:10 0 4-Jan-00
4-Jan-00 4:20 0 4-Jan-00
4-Jan-00 4:30 0 4-Jan-00
4-Jan-00 4:40 0 4-Jan-00
4-Jan-00 4:50 0 4-Jan-00
4-Jan-00 5:00 0 4-Jan-00
4-Jan-00 5:10 0 4-Jan-00
4-Jan-00 5:20 0 4-Jan-00
4-Jan-00 5:30 0 4-Jan-00
4-Jan-00 5:40 0 4-Jan-00
4-Jan-00 5:50 0 4-Jan-00
4-Jan-00 6:00 0 4-Jan-00
4-Jan-00 6:10 0 4-Jan-00
4-Jan-00 6:20 0 4-Jan-00
4-Jan-00 6:30 0 4-Jan-00
4-Jan-00 6:40 0 4-Jan-00
4-Jan-00 6:50 0 4-Jan-00
4-Jan-00 7:00 0 4-Jan-00
4-Jan-00 7:10 0 4-Jan-00
4-Jan-00 7:20 0 4-Jan-00
4-Jan-00 7:30 0 4-Jan-00
4-Jan-00 7:40 0 4-Jan-00
4-Jan-00 7:50 0 4-Jan-00
4-Jan-00 8:00 0 4-Jan-00
4-Jan-00 8:10 0 4-Jan-00
4-Jan-00 8:20 0 4-Jan-00
4-Jan-00 8:30 0 4-Jan-00
4-Jan-00 8:40 0 4-Jan-00
4-Jan-00 8:50 0 4-Jan-00
4-Jan-00 9:00 0 4-Jan-00
4-Jan-00 9:10 0 4-Jan-00
4-Jan-00 9:20 0 4-Jan-00
4-Jan-00 9:30 0 4-Jan-00
4-Jan-00 9:40 0 4-Jan-00
4-Jan-00 9:50 0 4-Jan-00
4-Jan-00 10:00 0 4-Jan-00
4-Jan-00 10:10 0 4-Jan-00
4-Jan-00 10:20 0 4-Jan-00
4-Jan-00 10:30 0 4-Jan-00
4-Jan-00 10:40 0 4-Jan-00
4-Jan-00 10:50 0 4-Jan-00
4-Jan-00 11:00 0 4-Jan-00
4-Jan-00 11:10 0 4-Jan-00
4-Jan-00 11:20 0 4-Jan-00
4-Jan-00 11:30 0 4-Jan-00
4-Jan-00 11:40 0 4-Jan-00
4-Jan-00 11:50 0 4-Jan-00
4-Jan-00 12:00 0 4-Jan-00
4-Jan-00 12:10 0 4-Jan-00
4-Jan-00 12:20 0 4-Jan-00
4-Jan-00 12:30 0 4-Jan-00
4-Jan-00 12:40 0 4-Jan-00
4-Jan-00 12:50 0 4-Jan-00
4-Jan-00 13:00 0 4-Jan-00
4-Jan-00 13:10 0 4-Jan-00
4-Jan-00 13:20 0 4-Jan-00
4-Jan-00 13:30 0 4-Jan-00
4-Jan-00 13:40 0 4-Jan-00
4-Jan-00 13:50 0 4-Jan-00
4-Jan-00 14:00 0 4-Jan-00
4-Jan-00 14:10 0 4-Jan-00
4-Jan-00 14:20 0 4-Jan-00
4-Jan-00 14:30 0 4-Jan-00
4-Jan-00 14:40 0 4-Jan-00
4-Jan-00 14:50 0 4-Jan-00
4-Jan-00 15:00 0 4-Jan-00
4-Jan-00 15:10 0 4-Jan-00
4-Jan-00 15:20 0 4-Jan-00
4-Jan-00 15:30 0 4-Jan-00
4-Jan-00 15:40 0 4-Jan-00
4-Jan-00 15:50 0 4-Jan-00
4-Jan-00 16:00 0 4-Jan-00
4-Jan-00 16:10 0 4-Jan-00
4-Jan-00 16:20 0 4-Jan-00
4-Jan-00 16:30 0 4-Jan-00
4-Jan-00 16:40 0 4-Jan-00
4-Jan-00 16:50 0 4-Jan-00
4-Jan-00 17:00 0 4-Jan-00
4-Jan-00 17:10 0 4-Jan-00
4-Jan-00 17:20 0 4-Jan-00
4-Jan-00 17:30 0 4-Jan-00
4-Jan-00 17:40 0 4-Jan-00
4-Jan-00 17:50 0 4-Jan-00
4-Jan-00 18:00 0 4-Jan-00
4-Jan-00 18:10 0 4-Jan-00
4-Jan-00 18:20 0 4-Jan-00
4-Jan-00 18:30 0 4-Jan-00
4-Jan-00 18:40 0 4-Jan-00
4-Jan-00 18:50 0 4-Jan-00
4-Jan-00 19:00 0 4-Jan-00
4-Jan-00 19:10 0 4-Jan-00
4-Jan-00 19:20 0 4-Jan-00
4-Jan-00 19:30 0 4-Jan-00
4-Jan-00 19:40 0 4-Jan-00
4-Jan-00 19:50 0 4-Jan-00
4-Jan-00 20:00 0 4-Jan-00
4-Jan-00 20:10 0 4-Jan-00
4-Jan-00 20:20 0 4-Jan-00
4-Jan-00 20:30 0 4-Jan-00
4-Jan-00 20:40 0 4-Jan-00
4-Jan-00 20:50 0 4-Jan-00
4-Jan-00 21:00 0 4-Jan-00
4-Jan-00 21:10 0 4-Jan-00
4-Jan-00 21:20 0 4-Jan-00
4-Jan-00 21:30 0 4-Jan-00
4-Jan-00 21:40 0 4-Jan-00
4-Jan-00 21:50 0 4-Jan-00
4-Jan-00 22:00 0 4-Jan-00
4-Jan-00 22:10 0 4-Jan-00
4-Jan-00 22:20 0 4-Jan-00
4-Jan-00 22:30 0 4-Jan-00
4-Jan-00 22:40 0 4-Jan-00
4-Jan-00 22:50 0 4-Jan-00
4-Jan-00 23:00 0 4-Jan-00
4-Jan-00 23:10 0 4-Jan-00
4-Jan-00 23:20 0 4-Jan-00
4-Jan-00 23:30 0 4-Jan-00
4-Jan-00 23:40 0 4-Jan-00
4-Jan-00 23:50 0 4-Jan-00
5-Jan-00 0:00 0 5-Jan-00
5-Jan-00 0:10 0 5-Jan-00
5-Jan-00 0:20 0 5-Jan-00
5-Jan-00 0:30 0 5-Jan-00
5-Jan-00 0:40 0 5-Jan-00
5-Jan-00 0:50 0 5-Jan-00
5-Jan-00 1:00 0 5-Jan-00
5-Jan-00 1:10 0 5-Jan-00
5-Jan-00 1:20 0 5-Jan-00
5-Jan-00 1:30 0 5-Jan-00
5-Jan-00 1:40 0 5-Jan-00
5-Jan-00 1:50 0 5-Jan-00
5-Jan-00 2:00 0 5-Jan-00
5-Jan-00 2:10 0 5-Jan-00
5-Jan-00 2:20 0 5-Jan-00
5-Jan-00 2:30 0 5-Jan-00
5-Jan-00 2:40 0 5-Jan-00
5-Jan-00 2:50 0 5-Jan-00
5-Jan-00 3:00 0 5-Jan-00
5-Jan-00 3:10 0 5-Jan-00
5-Jan-00 3:20 0 5-Jan-00
5-Jan-00 3:30 0 5-Jan-00
5-Jan-00 3:40 0 5-Jan-00
5-Jan-00 3:50 0 5-Jan-00
5-Jan-00 4:00 0 5-Jan-00
5-Jan-00 4:10 0 5-Jan-00
5-Jan-00 4:20 0 5-Jan-00
5-Jan-00 4:30 0 5-Jan-00
5-Jan-00 4:40 0 5-Jan-00
5-Jan-00 4:50 0 5-Jan-00
5-Jan-00 5:00 0 5-Jan-00
5-Jan-00 5:10 0 5-Jan-00
5-Jan-00 5:20 0 5-Jan-00
5-Jan-00 5:30 0 5-Jan-00
5-Jan-00 5:40 0 5-Jan-00
5-Jan-00 5:50 0 5-Jan-00
5-Jan-00 6:00 0 5-Jan-00
5-Jan-00 6:10 0 5-Jan-00
5-Jan-00 6:20 0 5-Jan-00
5-Jan-00 6:30 0 5-Jan-00
5-Jan-00 6:40 0 5-Jan-00
5-Jan-00 6:50 0 5-Jan-00
5-Jan-00 7:00 0 5-Jan-00
5-Jan-00 7:10 0 5-Jan-00
5-Jan-00 7:20 0 5-Jan-00
5-Jan-00 7:30 0 5-Jan-00
5-Jan-00 7:40 0 5-Jan-00
5-Jan-00 7:50 0 5-Jan-00
5-Jan-00 8:00 0 5-Jan-00
5-Jan-00 8:10 0 5-Jan-00
5-Jan-00 8:20 0 5-Jan-00
5-Jan-00 8:30 0 5-Jan-00
5-Jan-00 8:40 0 5-Jan-00
5-Jan-00 8:50 0 5-Jan-00
5-Jan-00 9:00 0 5-Jan-00
5-Jan-00 9:10 0 5-Jan-00
5-Jan-00 9:20 0 5-Jan-00
5-Jan-00 9:30 0 5-Jan-00
5-Jan-00 9:40 0 5-Jan-00
5-Jan-00 9:50 0 5-Jan-00
5-Jan-00 10:00 0 5-Jan-00
5-Jan-00 10:10 0 5-Jan-00
5-Jan-00 10:20 0 5-Jan-00
5-Jan-00 10:30 0 5-Jan-00
5-Jan-00 10:40 0 5-Jan-00
5-Jan-00 10:50 0 5-Jan-00
5-Jan-00 11:00 0 5-Jan-00
5-Jan-00 11:10 0 5-Jan-00
5-Jan-00 11:20 0 5-Jan-00
5-Jan-00 11:30 0 5-Jan-00
5-Jan-00 11:40 0 5-Jan-00
5-Jan-00 11:50 0 5-Jan-00
5-Jan-00 12:00 0 5-Jan-00
5-Jan-00 12:10 0 5-Jan-00
5-Jan-00 12:20 0 5-Jan-00
5-Jan-00 12:30 0 5-Jan-00
5-Jan-00 12:40 0 5-Jan-00
5-Jan-00 12:50 0 5-Jan-00
5-Jan-00 13:00 0 5-Jan-00
5-Jan-00 13:10 0 5-Jan-00
5-Jan-00 13:20 0 5-Jan-00
5-Jan-00 13:30 0 5-Jan-00
5-Jan-00 13:40 0 5-Jan-00
5-Jan-00 13:50 0 5-Jan-00
5-Jan-00 14:00 0 5-Jan-00
5-Jan-00 14:10 0 5-Jan-00
5-Jan-00 14:20 0 5-Jan-00
5-Jan-00 14:30 0 5-Jan-00
5-Jan-00 14:40 0 5-Jan-00
5-Jan-00 14:50 0 5-Jan-00
5-Jan-00 15:00 0 5-Jan-00
5-Jan-00 15:10 0 5-Jan-00
5-Jan-00 15:20 0 5-Jan-00
5-Jan-00 15:30 0 5-Jan-00
5-Jan-00 15:40 0 5-Jan-00
5-Jan-00 15:50 0 5-Jan-00
5-Jan-00 16:00 0 5-Jan-00
5-Jan-00 16:10 0 5-Jan-00
5-Jan-00 16:20 0 5-Jan-00
5-Jan-00 16:30 0 5-Jan-00
5-Jan-00 16:40 0 5-Jan-00
5-Jan-00 16:50 0 5-Jan-00
5-Jan-00 17:00 0 5-Jan-00
5-Jan-00 17:10 0 5-Jan-00
5-Jan-00 17:20 0 5-Jan-00
5-Jan-00 17:30 0 5-Jan-00
5-Jan-00 17:40 0 5-Jan-00
5-Jan-00 17:50 0 5-Jan-00
5-Jan-00 18:00 0 5-Jan-00
5-Jan-00 18:10 0 5-Jan-00
5-Jan-00 18:20 0 5-Jan-00
5-Jan-00 18:30 0 5-Jan-00
5-Jan-00 18:40 0 5-Jan-00
5-Jan-00 18:50 0 5-Jan-00
5-Jan-00 19:00 0 5-Jan-00
5-Jan-00 19:10 0 5-Jan-00
5-Jan-00 19:20 0 5-Jan-00
5-Jan-00 19:30 0 5-Jan-00
5-Jan-00 19:40 0 5-Jan-00
5-Jan-00 19:50 0 5-Jan-00
5-Jan-00 20:00 0 5-Jan-00
5-Jan-00 20:10 0 5-Jan-00
5-Jan-00 20:20 0 5-Jan-00
5-Jan-00 20:30 0 5-Jan-00
5-Jan-00 20:40 0 5-Jan-00
5-Jan-00 20:50 0 5-Jan-00
5-Jan-00 21:00 0 5-Jan-00
5-Jan-00 21:10 0 5-Jan-00
5-Jan-00 21:20 0 5-Jan-00
5-Jan-00 21:30 0 5-Jan-00
5-Jan-00 21:40 0 5-Jan-00
5-Jan-00 21:50 0 5-Jan-00
5-Jan-00 22:00 0 5-Jan-00
5-Jan-00 22:10 0 5-Jan-00
5-Jan-00 22:20 0 5-Jan-00
5-Jan-00 22:30 0 5-Jan-00
5-Jan-00 22:40 0 5-Jan-00
5-Jan-00 22:50 0 5-Jan-00
5-Jan-00 23:00 0 5-Jan-00
5-Jan-00 23:10 0 5-Jan-00
5-Jan-00 23:20 0 5-Jan-00
5-Jan-00 23:30 0 5-Jan-00
5-Jan-00 23:40 0 5-Jan-00
5-Jan-00 23:50 0 5-Jan-00
6-Jan-00 0:00 0 6-Jan-00
6-Jan-00 0:10 0 6-Jan-00
6-Jan-00 0:20 0 6-Jan-00
6-Jan-00 0:30 0 6-Jan-00
6-Jan-00 0:40 0 6-Jan-00
6-Jan-00 0:50 0 6-Jan-00
6-Jan-00 1:00 0 6-Jan-00
6-Jan-00 1:10 0 6-Jan-00
6-Jan-00 1:20 0 6-Jan-00
6-Jan-00 1:30 0 6-Jan-00
6-Jan-00 1:40 0 6-Jan-00
6-Jan-00 1:50 0 6-Jan-00
6-Jan-00 2:00 0 6-Jan-00
6-Jan-00 2:10 0 6-Jan-00
6-Jan-00 2:20 0 6-Jan-00
6-Jan-00 2:30 0 6-Jan-00
6-Jan-00 2:40 0 6-Jan-00
6-Jan-00 2:50 0 6-Jan-00
6-Jan-00 3:00 0 6-Jan-00
6-Jan-00 3:10 0 6-Jan-00
6-Jan-00 3:20 0 6-Jan-00
6-Jan-00 3:30 0 6-Jan-00
6-Jan-00 3:40 0 6-Jan-00
6-Jan-00 3:50 0 6-Jan-00
6-Jan-00 4:00 0 6-Jan-00
6-Jan-00 4:10 0 6-Jan-00
6-Jan-00 4:20 0 6-Jan-00
6-Jan-00 4:30 0 6-Jan-00
6-Jan-00 4:40 0 6-Jan-00
6-Jan-00 4:50 0 6-Jan-00
6-Jan-00 5:00 0 6-Jan-00
6-Jan-00 5:10 0 6-Jan-00
6-Jan-00 5:20 0 6-Jan-00
6-Jan-00 5:30 0 6-Jan-00
6-Jan-00 5:40 0 6-Jan-00
6-Jan-00 5:50 0 6-Jan-00
6-Jan-00 6:00 0 6-Jan-00
6-Jan-00 6:10 0 6-Jan-00
6-Jan-00 6:20 0 6-Jan-00
6-Jan-00 6:30 0 6-Jan-00
6-Jan-00 6:40 0 6-Jan-00
6-Jan-00 6:50 0 6-Jan-00
6-Jan-00 7:00 0 6-Jan-00
6-Jan-00 7:10 0 6-Jan-00
6-Jan-00 7:20 0 6-Jan-00
6-Jan-00 7:30 0 6-Jan-00
6-Jan-00 7:40 0 6-Jan-00
6-Jan-00 7:50 0 6-Jan-00
6-Jan-00 8:00 0 6-Jan-00
6-Jan-00 8:10 0 6-Jan-00
6-Jan-00 8:20 0 6-Jan-00
6-Jan-00 8:30 0 6-Jan-00
6-Jan-00 8:40 0 6-Jan-00
6-Jan-00 8:50 0 6-Jan-00
6-Jan-00 9:00 0 6-Jan-00
6-Jan-00 9:10 0 6-Jan-00
6-Jan-00 9:20 0 6-Jan-00
6-Jan-00 9:30 0 6-Jan-00
6-Jan-00 9:40 0 6-Jan-00
6-Jan-00 9:50 0 6-Jan-00
6-Jan-00 10:00 0 6-Jan-00
6-Jan-00 10:10 0 6-Jan-00
6-Jan-00 10:20 0 6-Jan-00
6-Jan-00 10:30 0 6-Jan-00
6-Jan-00 10:40 0 6-Jan-00
6-Jan-00 10:50 0 6-Jan-00
6-Jan-00 11:00 0 6-Jan-00
6-Jan-00 11:10 0 6-Jan-00
6-Jan-00 11:20 0 6-Jan-00
6-Jan-00 11:30 0 6-Jan-00
6-Jan-00 11:40 0 6-Jan-00
6-Jan-00 11:50 0 6-Jan-00
6-Jan-00 12:00 0 6-Jan-00
6-Jan-00 12:10 0 6-Jan-00
6-Jan-00 12:20 0 6-Jan-00
6-Jan-00 12:30 0 6-Jan-00
6-Jan-00 12:40 0 6-Jan-00
6-Jan-00 12:50 0 6-Jan-00
6-Jan-00 13:00 0 6-Jan-00
6-Jan-00 13:10 0 6-Jan-00
6-Jan-00 13:20 0 6-Jan-00
6-Jan-00 13:30 0 6-Jan-00
6-Jan-00 13:40 0 6-Jan-00
6-Jan-00 13:50 0 6-Jan-00
6-Jan-00 14:00 0 6-Jan-00
6-Jan-00 14:10 0 6-Jan-00
6-Jan-00 14:20 0 6-Jan-00
6-Jan-00 14:30 0 6-Jan-00
6-Jan-00 14:40 0 6-Jan-00
6-Jan-00 14:50 0 6-Jan-00
6-Jan-00 15:00 0 6-Jan-00
6-Jan-00 15:10 0 6-Jan-00
6-Jan-00 15:20 0 6-Jan-00
6-Jan-00 15:30 0 6-Jan-00
6-Jan-00 15:40 0 6-Jan-00
6-Jan-00 15:50 0 6-Jan-00
6-Jan-00 16:00 0 6-Jan-00
6-Jan-00 16:10 0 6-Jan-00
6-Jan-00 16:20 0 6-Jan-00
6-Jan-00 16:30 0 6-Jan-00
6-Jan-00 16:40 0 6-Jan-00
6-Jan-00 16:50 0 6-Jan-00
6-Jan-00 17:00 0 6-Jan-00
6-Jan-00 17:10 0 6-Jan-00
6-Jan-00 17:20 0 6-Jan-00
6-Jan-00 17:30 0 6-Jan-00
6-Jan-00 17:40 0 6-Jan-00
6-Jan-00 17:50 0 6-Jan-00
6-Jan-00 18:00 0 6-Jan-00
6-Jan-00 18:10 0 6-Jan-00
6-Jan-00 18:20 0 6-Jan-00
6-Jan-00 18:30 0 6-Jan-00
6-Jan-00 18:40 0 6-Jan-00
6-Jan-00 18:50 0 6-Jan-00
6-Jan-00 19:00 0 6-Jan-00
6-Jan-00 19:10 0 6-Jan-00
6-Jan-00 19:20 0 6-Jan-00
6-Jan-00 19:30 0 6-Jan-00
6-Jan-00 19:40 0 6-Jan-00
6-Jan-00 19:50 0 6-Jan-00
6-Jan-00 20:00 0 6-Jan-00
6-Jan-00 20:10 0 6-Jan-00
6-Jan-00 20:20 0 6-Jan-00
6-Jan-00 20:30 0 6-Jan-00
6-Jan-00 20:40 0 6-Jan-00
6-Jan-00 20:50 0 6-Jan-00
6-Jan-00 21:00 0 6-Jan-00
6-Jan-00 21:10 0 6-Jan-00
6-Jan-00 21:20 0 6-Jan-00
6-Jan-00 21:30 0 6-Jan-00
6-Jan-00 21:40 0 6-Jan-00
6-Jan-00 21:50 0 6-Jan-00
6-Jan-00 22:00 0 6-Jan-00
6-Jan-00 22:10 0 6-Jan-00
6-Jan-00 22:20 0 6-Jan-00
6-Jan-00 22:30 0 6-Jan-00
6-Jan-00 22:40 0 6-Jan-00
6-Jan-00 22:50 0 6-Jan-00
6-Jan-00 23:00 0 6-Jan-00
6-Jan-00 23:10 0 6-Jan-00
6-Jan-00 23:20 0 6-Jan-00
6-Jan-00 23:30 0 6-Jan-00
6-Jan-00 23:40 0 6-Jan-00
6-Jan-00 23:50 0 6-Jan-00
7-Jan-00 0:00 0 7-Jan-00
Volumen 830.18646 MMC
n_PEÑITA Max 11147.8 m3/s
Time Outflow (m3/s)
0:00 0
0:10 0
0:20 0
0:30 0
0:40 0
0:50 0
1:00 0
1:10 0
1:20 0
1:30 0
1:40 0
1:50 0
2:00 0
2:10 0
2:20 0
2:30 0
2:40 0
2:50 0
3:00 0
3:10 0
3:20 0
3:30 0
3:40 0
3:50 0
4:00 0
4:10 0
4:20 0
4:30 0
4:40 0
4:50 0
5:00 0
5:10 0
5:20 0
5:30 0
5:40 0
5:50 0
6:00 0
6:10 0
6:20 0
6:30 0
6:40 0
6:50 0
7:00 0
7:10 0
7:20 0
7:30 0
7:40 0
7:50 0
8:00 0
8:10 0
8:20 0
8:30 0
8:40 0
8:50 0
9:00 0
9:10 0
9:20 0
9:30 0
9:40 0
9:50 0
10:00 0
10:10 0
10:20 0
10:30 0
10:40 0
10:50 0
11:00 0
11:10 0
11:20 0
11:30 0
11:40 0
11:50 0
12:00 0
12:10 0
12:20 0
12:30 0
12:40 0
12:50 0
13:00 0
13:10 0
13:20 0
13:30 0
13:40 0
13:50 0
14:00 0
14:10 0
14:20 0
14:30 0
14:40 0
14:50 0
15:00 0
15:10 0
15:20 0
15:30 0
15:40 0
15:50 0
16:00 0
16:10 0
16:20 0
16:30 0
16:40 0
16:50 0
17:00 0
17:10 0
17:20 0
17:30 0
17:40 0
17:50 0
18:00 0
18:10 0
18:20 0
18:30 0
18:40 0
18:50 0
19:00 0
19:10 0
19:20 0
19:30 0
19:40 0
19:50 0
20:00 0
20:10 0
20:20 0
20:30 0
20:40 0
20:50 0
21:00 0
21:10 0
21:20 0
21:30 0
21:40 0
21:50 0
22:00 0
22:10 0
22:20 0
22:30 0
22:40 0
22:50 0
23:00 0
23:10 0
23:20 0
23:30 0
23:40 0
23:50 0
0:00 0
0:10 0
0:20 0
0:30 0
0:40 0
0:50 0
1:00 0
1:10 0
1:20 0
1:30 0.1
1:40 0.1
1:50 0.1
2:00 0.1
2:10 0.2
2:20 0.2
2:30 0.3
2:40 0.3
2:50 0.4
3:00 0.5
3:10 0.7
3:20 0.8
3:30 1.1
3:40 1.4
3:50 1.7
4:00 2.2
4:10 2.8
4:20 3.5
4:30 4.4
4:40 5.6
4:50 7
5:00 8.8
5:10 10.9
5:20 13.6
5:30 16.8
5:40 20.7
5:50 25.3
6:00 30.9
6:10 37.5
6:20 45.3
6:30 54.4
6:40 65
6:50 77.2
7:00 91.3
7:10 107.3
7:20 125.4
7:30 145.8
7:40 168.6
7:50 194
8:00 222
8:10 252.6
8:20 286.1
8:30 322.3
8:40 361.2
8:50 402.9
9:00 447.3
9:10 494.2
9:20 543.5
9:30 595.1
9:40 648.8
9:50 704.4
10:00 761.7
10:10 820.5
10:20 880.6
10:30 941.7
10:40 1003.8
10:50 1066.6
11:00 1130
11:10 1193.9
11:20 1258.2
11:30 1322.8
11:40 1387.8
11:50 1453.1
12:00 1518.8
12:10 1584.9
12:20 1651.6
12:30 1718.9
12:40 1786.9
12:50 1855.8
13:00 1925.6
13:10 1996.5
13:20 2068.5
13:30 2141.8
13:40 2216.5
13:50 2292.5
14:00 2369.9
14:10 2449.4
14:20 2531.3
14:30 2616.3
14:40 2705
14:50 2797.8
15:00 2895.3
15:10 2997
15:20 3103.4
15:30 3214.4
15:40 3330.3
15:50 3451.5
16:00 3578.7
16:10 3712.5
16:20 3852.9
16:30 3999.3
16:40 4151
16:50 4307.3
17:00 4467.2
17:10 4630.2
17:20 4795.8
17:30 4964.1
17:40 5135.1
17:50 5309.3
18:00 5487.5
18:10 5670.4
18:20 5858.7
18:30 6052.9
18:40 6253.2
18:50 6460.5
19:00 6674.8
19:10 6896.1
19:20 7123.9
19:30 7358
19:40 7597.9
19:50 7842
20:00 8088
20:10 8333.5
20:20 8576.3
20:30 8814.7
20:40 9047.3
20:50 9272.6
21:00 9489.4
21:10 9696.3
21:20 9892.2
21:30 10075.7
21:40 10245.7
21:50 10401.3
22:00 10541.9
22:10 10667.3
22:20 10777.6
22:30 10872.8
22:40 10953
22:50 11018.6
23:00 11070
23:10 11107.6
23:20 11132.5
23:30 11145.5
23:40 11147.8
23:50 11140.5
0:00 11124.8
0:10 11101.7
0:20 11072.2
0:30 11037.3
0:40 10997.9
0:50 10954.8
1:00 10908.5
1:10 10859.8
1:20 10809.1
1:30 10757
1:40 10703.9
1:50 10650
2:00 10595.6
2:10 10541.1
2:20 10486.5
2:30 10432
2:40 10377.9
2:50 10324.2
3:00 10271.1
3:10 10218.7
3:20 10166.9
3:30 10116
3:40 10066
3:50 10017
4:00 9969.1
4:10 9922.2
4:20 9876.5
4:30 9832
4:40 9788.7
4:50 9746.7
5:00 9705.8
5:10 9666
5:20 9627.2
5:30 9589.3
5:40 9552
5:50 9515.4
6:00 9479.3
6:10 9443.5
6:20 9407.7
6:30 9371.9
6:40 9335.7
6:50 9299
7:00 9261.4
7:10 9222.8
7:20 9183
7:30 9141.7
7:40 9098.9
7:50 9054.4
8:00 9007.9
8:10 8959.5
8:20 8908.8
8:30 8855.7
8:40 8800
8:50 8741.5
9:00 8680
9:10 8615.2
9:20 8547
9:30 8475
9:40 8399.2
9:50 8319.5
10:00 8235.6
10:10 8147.4
10:20 8054.8
10:30 7958
10:40 7856.8
10:50 7751.4
11:00 7642.1
11:10 7529
11:20 7412.3
11:30 7292.4
11:40 7169.4
11:50 7043.7
12:00 6915.6
12:10 6785.4
12:20 6653.5
12:30 6520.2
12:40 6385.9
12:50 6250.9
13:00 6115.6
13:10 5980.2
13:20 5845.1
13:30 5710.5
13:40 5576.8
13:50 5444.1
14:00 5312.8
14:10 5183
14:20 5054.9
14:30 4928.5
14:40 4804.2
14:50 4681.8
15:00 4561.6
15:10 4443.5
15:20 4327.7
15:30 4214.2
15:40 4102.9
15:50 3993.9
16:00 3887.3
16:10 3783
16:20 3681
16:30 3581.3
16:40 3484
16:50 3388.9
17:00 3296.1
17:10 3205.6
17:20 3117.2
17:30 3031.1
17:40 2947
17:50 2865.1
18:00 2785.2
18:10 2707.4
18:20 2631.5
18:30 2557.5
18:40 2485.4
18:50 2415.1
19:00 2346.6
19:10 2279.8
19:20 2214.7
19:30 2151.2
19:40 2089.2
19:50 2028.8
20:00 1969.7
20:10 1912.1
20:20 1855.8
20:30 1800.8
20:40 1747.1
20:50 1694.6
21:00 1643.2
21:10 1593
21:20 1543.8
21:30 1495.7
21:40 1448.6
21:50 1402.5
22:00 1357.4
22:10 1313.2
22:20 1269.9
22:30 1227.5
22:40 1186
22:50 1145.4
23:00 1105.6
23:10 1066.7
23:20 1028.6
23:30 991.3
23:40 954.8
23:50 919.2
0:00 884.4
0:10 850.4
0:20 817.2
0:30 784.9
0:40 753.4
0:50 722.7
1:00 692.8
1:10 663.7
1:20 635.5
1:30 608.1
1:40 581.5
1:50 555.8
2:00 530.9
2:10 506.7
2:20 483.4
2:30 460.9
2:40 439.3
2:50 418.4
3:00 398.2
3:10 378.9
3:20 360.3
3:30 342.5
3:40 325.4
3:50 309
4:00 293.4
4:10 278.4
4:20 264.1
4:30 250.5
4:40 237.5
4:50 225.1
5:00 213.4
5:10 202.2
5:20 191.6
5:30 181.5
5:40 171.9
5:50 162.9
6:00 154.3
6:10 146.2
6:20 138.5
6:30 131.3
6:40 124.4
6:50 118
7:00 111.9
7:10 106.1
7:20 100.7
7:30 95.6
7:40 90.8
7:50 86.2
8:00 81.9
8:10 77.9
8:20 74.1
8:30 70.5
8:40 67.2
8:50 64
9:00 61
9:10 58.2
9:20 55.5
9:30 53
9:40 50.6
9:50 48.4
10:00 46.2
10:10 44.2
10:20 42.3
10:30 40.5
10:40 38.8
10:50 37.1
11:00 35.6
11:10 34.1
11:20 32.7
11:30 31.4
11:40 30.1
11:50 28.9
12:00 27.7
12:10 26.6
12:20 25.6
12:30 24.5
12:40 23.6
12:50 22.6
13:00 21.8
13:10 20.9
13:20 20.1
13:30 19.3
13:40 18.5
13:50 17.8
14:00 17.1
14:10 16.5
14:20 15.8
14:30 15.2
14:40 14.6
14:50 14
15:00 13.5
15:10 12.9
15:20 12.4
15:30 12
15:40 11.5
15:50 11
16:00 10.6
16:10 10.2
16:20 9.8
16:30 9.4
16:40 9
16:50 8.6
17:00 8.3
17:10 8
17:20 7.6
17:30 7.3
17:40 7
17:50 6.7
18:00 6.5
18:10 6.2
18:20 5.9
18:30 5.7
18:40 5.5
18:50 5.2
19:00 5
19:10 4.8
19:20 4.6
19:30 4.4
19:40 4.2
19:50 4
20:00 3.8
20:10 3.7
20:20 3.5
20:30 3.3
20:40 3.2
20:50 3
21:00 2.9
21:10 2.8
21:20 2.6
21:30 2.5
21:40 2.4
21:50 2.3
22:00 2.2
22:10 2
22:20 1.9
22:30 1.8
22:40 1.7
22:50 1.7
23:00 1.6
23:10 1.5
23:20 1.4
23:30 1.3
23:40 1.2
23:50 1.2
0:00 1.1
0:10 1
0:20 1
0:30 0.9
0:40 0.9
0:50 0.8
1:00 0.7
1:10 0.7
1:20 0.7
1:30 0.6
1:40 0.6
1:50 0.5
2:00 0.5
2:10 0.5
2:20 0.4
2:30 0.4
2:40 0.4
2:50 0.3
3:00 0.3
3:10 0.3
3:20 0.3
3:30 0.2
3:40 0.2
3:50 0.2
4:00 0.2
4:10 0.2
4:20 0.2
4:30 0.1
4:40 0.1
4:50 0.1
5:00 0.1
5:10 0.1
5:20 0.1
5:30 0.1
5:40 0.1
5:50 0.1
6:00 0.1
6:10 0.1
6:20 0
6:30 0
6:40 0
6:50 0
7:00 0
7:10 0
7:20 0
7:30 0
7:40 0
7:50 0
8:00 0
8:10 0
8:20 0
8:30 0
8:40 0
8:50 0
9:00 0
9:10 0
9:20 0
9:30 0
9:40 0
9:50 0
10:00 0
10:10 0
10:20 0
10:30 0
10:40 0
10:50 0
11:00 0
11:10 0
11:20 0
11:30 0
11:40 0
11:50 0
12:00 0
12:10 0
12:20 0
12:30 0
12:40 0
12:50 0
13:00 0
13:10 0
13:20 0
13:30 0
13:40 0
13:50 0
14:00 0
14:10 0
14:20 0
14:30 0
14:40 0
14:50 0
15:00 0
15:10 0
15:20 0
15:30 0
15:40 0
15:50 0
16:00 0
16:10 0
16:20 0
16:30 0
16:40 0
16:50 0
17:00 0
17:10 0
17:20 0
17:30 0
17:40 0
17:50 0
18:00 0
18:10 0
18:20 0
18:30 0
18:40 0
18:50 0
19:00 0
19:10 0
19:20 0
19:30 0
19:40 0
19:50 0
20:00 0
20:10 0
20:20 0
20:30 0
20:40 0
20:50 0
21:00 0
21:10 0
21:20 0
21:30 0
21:40 0
21:50 0
22:00 0
22:10 0
22:20 0
22:30 0
22:40 0
22:50 0
23:00 0
23:10 0
23:20 0
23:30 0
23:40 0
23:50 0
0:00 0
0:10 0
0:20 0
0:30 0
0:40 0
0:50 0
1:00 0
1:10 0
1:20 0
1:30 0
1:40 0
1:50 0
2:00 0
2:10 0
2:20 0
2:30 0
2:40 0
2:50 0
3:00 0
3:10 0
3:20 0
3:30 0
3:40 0
3:50 0
4:00 0
4:10 0
4:20 0
4:30 0
4:40 0
4:50 0
5:00 0
5:10 0
5:20 0
5:30 0
5:40 0
5:50 0
6:00 0
6:10 0
6:20 0
6:30 0
6:40 0
6:50 0
7:00 0
7:10 0
7:20 0
7:30 0
7:40 0
7:50 0
8:00 0
8:10 0
8:20 0
8:30 0
8:40 0
8:50 0
9:00 0
9:10 0
9:20 0
9:30 0
9:40 0
9:50 0
10:00 0
10:10 0
10:20 0
10:30 0
10:40 0
10:50 0
11:00 0
11:10 0
11:20 0
11:30 0
11:40 0
11:50 0
12:00 0
12:10 0
12:20 0
12:30 0
12:40 0
12:50 0
13:00 0
13:10 0
13:20 0
13:30 0
13:40 0
13:50 0
14:00 0
14:10 0
14:20 0
14:30 0
14:40 0
14:50 0
15:00 0
15:10 0
15:20 0
15:30 0
15:40 0
15:50 0
16:00 0
16:10 0
16:20 0
16:30 0
16:40 0
16:50 0
17:00 0
17:10 0
17:20 0
17:30 0
17:40 0
17:50 0
18:00 0
18:10 0
18:20 0
18:30 0
18:40 0
18:50 0
19:00 0
19:10 0
19:20 0
19:30 0
19:40 0
19:50 0
20:00 0
20:10 0
20:20 0
20:30 0
20:40 0
20:50 0
21:00 0
21:10 0
21:20 0
21:30 0
21:40 0
21:50 0
22:00 0
22:10 0
22:20 0
22:30 0
22:40 0
22:50 0
23:00 0
23:10 0
23:20 0
23:30 0
23:40 0
23:50 0
0:00 0

You might also like